Provisional Data: Chemung River near Elmira, NY


Please select a monitoring station.
Please select start date.
Please select start date.

Toggle Unit: C/F Toggle Unit: C/F
Sample Time Temperature (C) Temperature (F) Specific Conductivity (mS/cm) pH   Turbidity (NTU+) DO (mg/L)
1/23/2024 12:07:25 AM 1.0475 33.8855 0.2699 8.2467 15.255 14.92499
1/23/2024 12:22:25 AM 1.045 33.881 0.2699501 8.2467 14.97501 14.95001
1/23/2024 12:37:25 AM 1.065 33.917 0.2699 8.246 15.08 14.93753
1/23/2024 12:52:25 AM 1.0475 33.8855 0.2699501 8.2509 15.42999 14.93753
1/23/2024 1:07:25 AM 1.095 33.971 0.2692499 8.2467 16.545 14.93753
1/23/2024 1:22:25 AM 1.115 34.007 0.26855 8.2467 16.99001 14.95001
1/23/2024 1:37:25 AM 1.1325 34.0385 0.2682 8.2467 16.85001 14.93753
1/23/2024 1:52:25 AM 1.13 34.034 0.26785 8.2474 16.505 14.93753
1/23/2024 2:07:25 AM 1.1475 34.0655 0.2675 8.2481 16.675 14.93753
1/23/2024 2:22:25 AM 1.1475 34.0655 0.26715 8.2481 16.47 14.95001
1/23/2024 2:37:25 AM 1.145 34.061 0.26715 8.2481 16.155 14.95001
1/23/2024 2:52:25 AM 1.165 34.097 0.2668 8.2467 16.015 14.93753
1/23/2024 3:07:25 AM 1.1675 34.1015 0.26645 8.2474 15.95 14.95001
1/23/2024 3:22:25 AM 1.1675 34.1015 0.2665 8.2467 15.985 14.93753
1/23/2024 3:37:25 AM 1.165 34.097 0.2661 8.2467 15.95 14.92499
1/23/2024 3:52:25 AM 1.1825 34.1285 0.2660499 8.246 15.98 14.93753
1/23/2024 4:07:25 AM 1.1825 34.1285 0.2657501 8.2467 15.84 14.93753
1/23/2024 4:22:25 AM 1.185 34.133 0.2657501 8.2474 15.77 14.93753
1/23/2024 4:37:25 AM 1.185 34.133 0.2658 8.2474 15.95 14.93753
1/23/2024 4:52:25 AM 1.1825 34.1285 0.2657501 8.2474 15.63499 14.93753
1/23/2024 5:07:25 AM 1.1825 34.1285 0.2657501 8.2474 15.53 14.93753
1/23/2024 5:22:25 AM 1.1975 34.1555 0.2661 8.2467 15.67 14.95001
1/23/2024 5:37:25 AM 1.1825 34.1285 0.2664 8.246 15.735 14.93753
1/23/2024 5:52:25 AM 1.1825 34.1285 0.26715 8.2516 15.425 14.93753
1/23/2024 6:07:25 AM 1.15 34.07 0.2678 8.2516 15.075 14.92499
1/23/2024 6:22:25 AM 1.13 34.034 0.2685 8.2516 14.8 14.93753
1/23/2024 6:37:25 AM 1.13 34.034 0.2692 8.2509 14.69501 14.85001
1/23/2024 6:52:26 AM 1.115 34.007 0.2699 8.2516 14.765 14.83752
1/23/2024 7:07:25 AM 1.1125 34.0025 0.2706499 8.2565 14.42 14.85001
1/23/2024 7:22:25 AM 1.115 34.007 0.2709501 8.2558 14.49001 14.85001
1/23/2024 7:37:25 AM 1.0975 33.9755 0.2716499 8.2565 14.66499 14.85001
1/23/2024 7:52:26 AM 1.0975 33.9755 0.2719501 8.2565 14.595 14.83752
1/23/2024 8:07:25 AM 1.0975 33.9755 0.2723501 8.2558 14.38499 14.85001
1/23/2024 8:22:25 AM 1.0975 33.9755 0.2727 8.2614 14.28 14.83752
1/23/2024 8:37:25 AM 1.1125 34.0025 0.2726499 8.2621 14.41499 14.86249
1/23/2024 8:52:26 AM 1.1125 34.0025 0.2730499 8.2621 14.42 14.86249
1/23/2024 9:07:26 AM 1.1125 34.0025 0.273 8.2628 14.42 14.85001
1/23/2024 9:22:26 AM 1.115 34.007 0.2730499 8.2621 14.45 14.85001
1/23/2024 9:37:26 AM 1.1325 34.0385 0.2727 8.2656 13.64999 14.85001
1/23/2024 9:52:26 AM 1.1475 34.0655 0.2723 8.2663 13.48 14.86249
1/23/2024 10:07:26 AM 1.1325 34.0385 0.2727 8.26 13.655 14.83752
1/23/2024 10:22:26 AM 1.13 34.034 0.2723501 8.26 13.34 14.83752
1/23/2024 10:37:26 AM 1.1325 34.0385 0.2723501 8.2607 13.375 14.85001
1/23/2024 10:52:26 AM 1.1325 34.0385 0.2723501 8.26 13.48 14.85001
1/23/2024 11:07:26 AM 1.13 34.034 0.272 8.2607 13.41499 14.85001
1/23/2024 11:22:26 AM 1.1325 34.0385 0.272 8.2614 13.895 14.85001
1/23/2024 11:37:26 AM 1.13 34.034 0.272 8.2607 13.89999 14.85001
1/23/2024 11:52:26 AM 1.13 34.034 0.2716 8.2614 13.92999 14.85001
1/23/2024 12:07:25 PM 1.13 34.034 0.2716499 8.2628 14.105 14.86249
1/23/2024 12:22:25 PM 1.13 34.034 0.2713 8.2621 14 14.86249
1/23/2024 12:37:25 PM 1.15 34.07 0.2713 8.2614 14.13499 14.86249
1/23/2024 12:52:25 PM 1.13 34.034 0.2712499 8.26 14.175 14.86249
1/23/2024 1:07:25 PM 1.13 34.034 0.2709501 8.2656 14.52499 14.86249
1/23/2024 1:22:25 PM 1.15 34.07 0.2709501 8.2656 14.105 14.76248
1/23/2024 1:37:25 PM 1.1325 34.0385 0.2709501 8.2663 14.595 14.77499
1/23/2024 1:52:25 PM 1.13 34.034 0.2706499 8.2677 14.42 14.77499
1/23/2024 2:07:25 PM 1.15 34.07 0.2706 8.2649 14.765 14.76248
1/23/2024 2:22:25 PM 1.1475 34.0655 0.2702499 8.2663 14.45 14.76248
1/23/2024 2:37:25 PM 1.1475 34.0655 0.2699501 8.267 14.315 14.77499
1/23/2024 2:52:26 PM 1.15 34.07 0.2699501 8.2712 14.42 14.77499
1/23/2024 3:07:25 PM 1.1625 34.0925 0.26955 8.2719 14.7 14.77499
1/23/2024 3:22:25 PM 1.165 34.097 0.26955 8.2705 14.32001 14.77499
1/23/2024 3:37:25 PM 1.165 34.097 0.2696 8.2719 14.66 14.77499
1/23/2024 3:52:26 PM 1.165 34.097 0.2692499 8.2719 14.7 14.77499
1/23/2024 4:07:25 PM 1.1625 34.0925 0.26915 8.2754 14.80499 14.77499
1/23/2024 4:22:25 PM 1.1675 34.1015 0.2692499 8.274 14.38499 14.75
1/23/2024 4:37:25 PM 1.1675 34.1015 0.2692499 8.2761 14.77 14.76248
1/23/2024 4:52:26 PM 1.1675 34.1015 0.2692499 8.2761 14.66 14.76248
1/23/2024 5:07:25 PM 1.165 34.097 0.2692499 8.2761 14.625 14.77499
1/23/2024 5:22:25 PM 1.1675 34.1015 0.2692499 8.2768 14.66 14.77499
1/23/2024 5:37:25 PM 1.1675 34.1015 0.2692 8.2761 14.83501 14.76248
1/23/2024 5:52:26 PM 1.1675 34.1015 0.2692 8.274 14.66499 14.76248
1/23/2024 6:07:25 PM 1.165 34.097 0.2692 8.2803 14.94 14.67499
1/23/2024 6:22:26 PM 1.1675 34.1015 0.2692 8.2761 14.94 14.68753
1/23/2024 6:37:26 PM 1.1825 34.1285 0.2692 8.2803 15.255 14.67499
1/23/2024 6:52:26 PM 1.1875 34.1375 0.2692499 8.2796 15.63499 14.68753
1/23/2024 7:07:26 PM 1.1825 34.1285 0.2692 8.2754 15.565 14.67499
1/23/2024 7:22:26 PM 1.1825 34.1285 0.2692499 8.2768 15.28999 14.68753
1/23/2024 7:37:26 PM 1.1825 34.1285 0.2692 8.2803 15.17999 14.67499
1/23/2024 7:52:26 PM 1.1825 34.1285 0.2692499 8.2803 15.67 14.67499
1/23/2024 8:07:26 PM 1.1825 34.1285 0.2692 8.2796 15.395 14.67499
1/23/2024 8:22:26 PM 1.1825 34.1285 0.2692499 8.281 15.495 14.67499
1/23/2024 8:37:26 PM 1.22 34.196 0.2692 8.2796 15.67 14.67499
1/23/2024 8:52:26 PM 1.2325 34.2185 0.2692 8.281 16.33 14.68753
1/23/2024 9:07:26 PM 1.2525 34.2545 0.2692 8.2803 16.745 14.66248
1/23/2024 9:22:25 PM 1.27 34.286 0.2692 8.2789 16.155 14.68753
1/23/2024 9:37:25 PM 1.25 34.25 0.26955 8.2817 16.535 14.68753
1/23/2024 9:52:25 PM 1.2525 34.2545 0.2699 8.281 16.42999 14.67499
1/23/2024 10:07:25 PM 1.2675 34.2815 0.2702499 8.2803 16.325 14.68753
1/23/2024 10:22:25 PM 1.285 34.313 0.2709501 8.2796 16.22501 14.68753
1/23/2024 10:37:25 PM 1.3025 34.3445 0.2723501 8.2768 16.57001 14.68753
1/23/2024 10:52:25 PM 1.32 34.376 0.2737 8.2747 16.05 14.66248
1/23/2024 11:07:25 PM 1.3375 34.4075 0.2758 8.2796 16.61 14.66248
1/23/2024 11:22:25 PM 1.3375 34.4075 0.2778 8.2747 16.60001 14.57501
1/23/2024 11:37:25 PM 1.32 34.376 0.2806499 8.2754 17.44 14.58752
1/23/2024 11:52:25 PM 1.375 34.475 0.2834 8.2754 16.815 14.60001
1/24/2024 12:07:25 AM 1.39 34.502 0.2858 8.2747 16.675 14.58752
1/24/2024 12:22:25 AM 1.4075 34.5335 0.28755 8.2761 16.25999 14.60001
1/24/2024 12:37:25 AM 1.425 34.565 0.2886 8.2768 16.36501 14.58752
1/24/2024 12:52:25 AM 1.4625 34.6325 0.2896499 8.274 16.015 14.58752
1/24/2024 1:07:25 AM 1.46 34.628 0.2903 8.2754 15.845 14.58752
1/24/2024 1:22:25 AM 1.4575 34.6235 0.2906499 8.2719 16.19 14.58752
1/24/2024 1:37:25 AM 1.475 34.655 0.291 8.2705 16.25999 14.58752
1/24/2024 1:52:25 AM 1.4925 34.6865 0.2913501 8.2698 16.42999 14.58752
1/24/2024 2:07:25 AM 1.51 34.718 0.2920499 8.2712 16.05 14.60001
1/24/2024 2:22:25 AM 1.51 34.718 0.2927 8.2691 16.295 14.58752
1/24/2024 2:37:25 AM 1.5275 34.7495 0.29415 8.2712 16.465 14.60001
1/24/2024 2:52:26 AM 1.51 34.718 0.29515 8.2705 16.57001 14.57501
1/24/2024 3:07:26 AM 1.5275 34.7495 0.2965 8.2712 16.47 14.58752
1/24/2024 3:22:26 AM 1.545 34.781 0.2982499 8.2698 16.12 14.57501
1/24/2024 3:37:26 AM 1.56 34.808 0.2996499 8.2712 16.325 14.58752
1/24/2024 3:52:26 AM 1.5775 34.8395 0.3007 8.2698 15.875 14.58752
1/24/2024 4:07:26 AM 1.615 34.907 0.301 8.2649 16.14999 14.57501
1/24/2024 4:22:26 AM 1.63 34.934 0.3014 8.2656 16.22501 14.58752
1/24/2024 4:37:26 AM 1.65 34.97 0.3006499 8.2649 16.22 14.58752
1/24/2024 4:52:26 AM 1.6675 35.0015 0.2999501 8.2642 16.23 14.58752
1/24/2024 5:07:26 AM 1.665 34.997 0.2989501 8.2663 15.95 14.58752
1/24/2024 5:22:26 AM 1.7025 35.0645 0.2979 8.2642 15.98 14.58752
1/24/2024 5:37:26 AM 1.7175 35.0915 0.29685 8.2656 15.91499 14.58752
1/24/2024 5:52:26 AM 1.7525 35.1545 0.29585 8.2593 15.94501 14.58752
1/24/2024 6:07:26 AM 1.77 35.186 0.2948 8.2614 16.295 14.60001
1/24/2024 6:22:25 AM 1.8025 35.2445 0.2937501 8.2621 15.94501 14.60001
1/24/2024 6:37:25 AM 1.8225 35.2805 0.2927 8.2607 15.875 14.58752
1/24/2024 6:52:25 AM 1.84 35.312 0.292 8.2607 15.94501 14.58752
1/24/2024 7:07:25 AM 1.8575 35.3435 0.2913501 8.2551 16.22 14.57501
1/24/2024 7:22:25 AM 1.875 35.375 0.2906499 8.2551 16.255 14.57501
1/24/2024 7:37:25 AM 1.8925 35.4065 0.2899501 8.2544 15.94501 14.58752
1/24/2024 7:52:25 AM 1.8925 35.4065 0.2896 8.2551 16.185 14.57501
1/24/2024 8:07:25 AM 1.89 35.402 0.2893 8.2565 15.88 14.60001
1/24/2024 8:22:25 AM 1.91 35.438 0.2892499 8.2495 15.94 14.58752
1/24/2024 8:37:25 AM 1.9275 35.4695 0.2889501 8.2509 15.735 14.48752
1/24/2024 8:52:25 AM 1.9425 35.4965 0.2886 8.2516 15.94501 14.5
1/24/2024 9:07:25 AM 1.96 35.528 0.2882 8.2509 15.84 14.5
1/24/2024 9:22:25 AM 1.9575 35.5235 0.2879 8.2523 16.155 14.51248
1/24/2024 9:37:25 AM 1.98 35.564 0.2875 8.2516 15.88 14.5
1/24/2024 9:52:26 AM 2.015 35.627 0.2889501 8.2411 57.245 14.5
1/24/2024 10:07:25 AM 1.9625 35.5325 0.2879 8.2495 19.03999 14.5
1/24/2024 10:22:25 AM 1.98 35.564 0.28785 8.2523 17.02499 14.51248
1/24/2024 10:37:25 AM 2.0325 35.6585 0.2879 8.2453 16.39999 14.5
1/24/2024 10:52:26 AM 2.065 35.717 0.2882 8.246 16.47 14.5
1/24/2024 11:07:25 AM 2.1 35.78 0.2882499 8.2474 16.78 14.51248
1/24/2024 11:22:25 AM 2.135 35.843 0.2882499 8.2467 16.71001 14.48752
1/24/2024 11:37:25 AM 2.1525 35.8745 0.2882 8.2453 16.88499 14.48752
1/24/2024 11:52:26 AM 2.185 35.933 0.2882499 8.2474 16.64 14.51248
1/24/2024 12:07:26 PM 2.205 35.969 0.2882499 8.2467 16.675 14.5
1/24/2024 12:22:26 PM 2.2225 36.0005 0.28785 8.246 16.67 14.5
1/24/2024 12:37:26 PM 2.255 36.059 0.28755 8.2418 17.23 14.51248
1/24/2024 12:52:26 PM 2.3075 36.1535 0.2868 8.2467 18.935 14.51248
1/24/2024 1:07:26 PM 2.36 36.248 0.2858 8.2432 20.145 14.51248
1/24/2024 1:22:26 PM 2.4125 36.3425 0.2851 8.2425 20.075 14.51248
1/24/2024 1:37:26 PM 2.4625 36.4325 0.2840499 8.2425 19.69501 14.5
1/24/2024 1:52:26 PM 2.4475 36.4055 0.2841 8.2425 18.86 14.5
1/24/2024 2:07:26 PM 2.445 36.401 0.2840499 8.2425 17.96001 14.51248
1/24/2024 2:22:26 PM 2.4625 36.4325 0.2837501 8.2425 17.545 14.5
1/24/2024 2:37:26 PM 2.4825 36.4685 0.2833501 8.2418 17.58 14.5
1/24/2024 2:52:26 PM 2.515 36.527 0.2826499 8.2411 18.03 14.5
1/24/2024 3:07:26 PM 2.535 36.563 0.2823501 8.2418 17.715 14.5
1/24/2024 3:22:25 PM 2.5525 36.5945 0.2819501 8.2404 17.85001 14.51248
1/24/2024 3:37:25 PM 2.57 36.626 0.2813 8.2404 17.925 14.48752
1/24/2024 3:52:25 PM 2.5825 36.6485 0.2809501 8.2425 17.715 14.5
1/24/2024 4:07:25 PM 2.6 36.68 0.2802499 8.2411 17.825 14.42499
1/24/2024 4:22:25 PM 2.6025 36.6845 0.2792 8.2411 18.375 14.42499
1/24/2024 4:37:25 PM 2.6225 36.7205 0.27885 8.2404 18.38 14.41248
1/24/2024 4:52:25 PM 2.6375 36.7475 0.2775 8.2418 18.655 14.42499
1/24/2024 5:07:25 PM 2.64 36.752 0.2768 8.2404 18.27 14.41248
1/24/2024 5:22:25 PM 2.655 36.779 0.2757501 8.2418 18.375 14.41248
1/24/2024 5:37:25 PM 2.655 36.779 0.2751 8.2425 18.52 14.42499
1/24/2024 5:52:25 PM 2.655 36.779 0.2743501 8.2418 18.515 14.42499
1/24/2024 6:07:25 PM 2.655 36.779 0.2737 8.2418 18.48 14.42499
1/24/2024 6:22:25 PM 2.6725 36.8105 0.273 8.2411 18.795 14.41248
1/24/2024 6:37:25 PM 2.67 36.806 0.2723 8.2418 19.105 14.42499
1/24/2024 6:52:25 PM 2.69 36.842 0.2719501 8.2418 19 14.42499
1/24/2024 7:07:25 PM 2.6875 36.8375 0.2712499 8.2362 18.895 14.42499
1/24/2024 7:22:25 PM 2.69 36.842 0.2709 8.2397 19.035 14.41248
1/24/2024 7:37:25 PM 2.7075 36.8735 0.2706 8.2418 18.97 14.42499
1/24/2024 7:52:26 PM 2.7075 36.8735 0.2706 8.2376 19.03 14.39999
1/24/2024 8:07:25 PM 2.725 36.905 0.2706 8.2369 19.145 14.41248
1/24/2024 8:22:25 PM 2.7225 36.9005 0.2709 8.2376 19.005 14.42499
1/24/2024 8:37:25 PM 2.7425 36.9365 0.2712499 8.2362 19.55499 14.33752
1/24/2024 8:52:26 PM 2.7425 36.9365 0.2716 8.2369 19.17 14.33752
1/24/2024 9:07:25 PM 2.775 36.995 0.2719 8.2446 22.67999 14.31247
1/24/2024 9:22:26 PM 2.7925 37.0265 0.2726499 8.2418 18.30499 14.33752
1/24/2024 9:37:26 PM 2.7925 37.0265 0.2733 8.2411 18.44501 14.32501
1/24/2024 9:52:26 PM 2.795 37.031 0.2744 8.2425 18.48 14.33752
1/24/2024 10:07:26 PM 2.81 37.058 0.2750499 8.2376 18.345 14.33752
1/24/2024 10:22:26 PM 2.81 37.058 0.2761 8.2376 17.86 14.33752
1/24/2024 10:37:26 PM 2.8125 37.0625 0.2768 8.2362 18.515 14.31247
1/24/2024 10:52:26 PM 2.81 37.058 0.27745 8.2348 18.34 14.31247
1/24/2024 11:07:26 PM 2.8325 37.0985 0.2778 8.2355 18.73 14.32501
1/24/2024 11:22:26 PM 2.81 37.058 0.27815 8.2362 18.55 14.32501
1/24/2024 11:37:26 PM 2.8275 37.0895 0.27815 8.2355 19.03 14.32501
1/24/2024 11:52:26 PM 2.8125 37.0625 0.2785 8.232 18.62 14.32501
1/25/2024 12:07:26 AM 2.83 37.094 0.2785 8.2369 19.245 14.33752
1/25/2024 12:22:26 AM 2.845 37.121 0.27815 8.2313 20.08 14.32501
1/25/2024 12:37:25 AM 2.8825 37.1885 0.27785 8.232 20.91 14.33752
1/25/2024 12:52:25 AM 2.8975 37.2155 0.2775 8.2327 20.63 14.33752
1/25/2024 1:07:25 AM 2.9175 37.2515 0.2775 8.2327 20.67 14.23752
1/25/2024 1:22:25 AM 2.9325 37.2785 0.27815 8.2313 20.425 14.23752
1/25/2024 1:37:25 AM 2.9325 37.2785 0.27885 8.2271 20.67 14.25
1/25/2024 1:52:25 AM 2.95 37.31 0.28055 8.232 20.22 14.23752
1/25/2024 2:07:25 AM 2.95 37.31 0.282 8.2278 20.80499 14.23752
1/25/2024 2:22:25 AM 2.9675 37.3415 0.2833501 8.2271 20.81 14.22501
1/25/2024 2:37:25 AM 2.965 37.337 0.2843501 8.2278 20.98 14.23752
1/25/2024 2:52:25 AM 2.9675 37.3415 0.2854 8.2271 20.94501 14.23752
1/25/2024 3:07:25 AM 2.9675 37.3415 0.28645 8.2264 20.595 14.23752
1/25/2024 3:22:25 AM 2.9825 37.3685 0.28715 8.2236 21.36 14.23752
1/25/2024 3:37:25 AM 2.985 37.373 0.2882 8.2222 21.22 14.22501
1/25/2024 3:52:25 AM 2.985 37.373 0.2899 8.2229 21.95 14.22501
1/25/2024 4:07:25 AM 3.0025 37.4045 0.2913 8.218 21.815 14.22501
1/25/2024 4:22:25 AM 3 37.4 0.2930499 8.2187 22.50999 14.25
1/25/2024 4:37:25 AM 3 37.4 0.2944 8.2138 22.99001 14.22501
1/25/2024 4:52:26 AM 3 37.4 0.29545 8.2138 23.2 14.23752
1/25/2024 5:07:25 AM 2.965 37.337 0.29645 8.2131 23.31 14.23752
1/25/2024 5:22:25 AM 2.9325 37.2785 0.29715 8.2124 22.995 14.23752
1/25/2024 5:37:25 AM 2.915 37.247 0.29755 8.2103 23.30499 14.23752
1/25/2024 5:52:26 AM 2.895 37.211 0.29785 8.2089 24.625 14.22501
1/25/2024 6:07:25 AM 2.8975 37.2155 0.2982 8.2082 23.795 14.25
1/25/2024 6:22:25 AM 2.8975 37.2155 0.29855 8.2054 24.735 14.25
1/25/2024 6:37:26 AM 2.88 37.184 0.2989 8.2033 25.00999 14.23752
1/25/2024 6:52:26 AM 2.8625 37.1525 0.2992499 8.2026 25.67 14.22501
1/25/2024 7:07:26 AM 2.8625 37.1525 0.2992499 8.197701 26.08501 14.23752
1/25/2024 7:22:26 AM 2.8625 37.1525 0.2989501 8.197701 26.155 14.23752
1/25/2024 7:37:26 AM 2.845 37.121 0.2982 8.1991 27.02 14.23752
1/25/2024 7:52:26 AM 2.8275 37.0895 0.2975 8.193501 26.815 14.23752
1/25/2024 8:07:26 AM 2.8275 37.0895 0.2961 8.192101 27.3 14.22501
1/25/2024 8:22:26 AM 2.81 37.058 0.2937501 8.189301 28.38 14.23752
1/25/2024 8:37:26 AM 2.81 37.058 0.2916499 8.189301 28.10001 14.23752
1/25/2024 8:52:26 AM 2.81 37.058 0.2892 8.189301 28.66499 14.25
1/25/2024 9:07:26 AM 2.7775 36.9995 0.28715 8.183701 27.37 14.23752
1/25/2024 9:22:26 AM 2.775 36.995 0.2847501 8.183701 27.78999 14.23752
1/25/2024 9:37:25 AM 2.7775 36.9995 0.2812499 8.179501 27.67999 14.23752
1/25/2024 9:52:25 AM 2.7775 36.9995 0.2782 8.180201 29.11 14.23752
1/25/2024 10:07:25 AM 2.7775 36.9995 0.2750499 8.176001 29.245 14.33752
1/25/2024 10:22:25 AM 2.775 36.995 0.2716 8.176001 29.8 14.33752
1/25/2024 10:37:25 AM 2.7775 36.9995 0.26915 8.169001 30.355 14.31247
1/25/2024 10:52:25 AM 2.775 36.995 0.2650499 8.170401 38.45 14.32501
1/25/2024 11:07:25 AM 2.7925 37.0265 0.26155 8.171101 45.22501 14.41248
1/25/2024 11:22:25 AM 2.81 37.058 0.25945 8.165501 43.52 14.39999
1/25/2024 11:37:25 AM 2.81 37.058 0.2580499 8.164101 42.47501 14.41248
1/25/2024 11:52:25 AM 2.8275 37.0895 0.2567 8.166201 43.69 14.41248
1/25/2024 12:07:25 PM 2.845 37.121 0.2553 8.160601 43.92999 14.39999
1/25/2024 12:22:25 PM 2.845 37.121 0.2543 8.160601 43.75999 14.41248
1/25/2024 12:37:25 PM 2.8625 37.1525 0.25285 8.155701 43.10001 14.39999
1/25/2024 12:52:25 PM 2.88 37.184 0.25185 8.150801 44.03999 14.39999
1/25/2024 1:07:25 PM 2.55 36.59 0.2539501 8.150101 43.345 14.39999
1/25/2024 1:22:25 PM 2.24 36.032 0.2557 8.147301 43 14.5
1/25/2024 1:37:25 PM 2.1 35.78 0.25645 8.148001 43.935 14.51248
1/25/2024 1:52:25 PM 2.0675 35.7215 0.2557501 8.145201 43.72501 14.48752
1/25/2024 2:07:25 PM 2.05 35.69 0.25545 8.146601 43.795 14.48752
1/25/2024 2:22:25 PM 2.05 35.69 0.2548 8.148001 44.425 14.5
1/25/2024 2:37:25 PM 2.0325 35.6585 0.2540499 8.141701 45.91 14.48752
1/25/2024 2:52:26 PM 2.0325 35.6585 0.2533501 8.142401 45.595 14.5
1/25/2024 3:07:25 PM 2.0325 35.6585 0.2527 8.143101 45.91 14.51248
1/25/2024 3:22:25 PM 2.035 35.663 0.252 8.136101 48.065 14.48752
1/25/2024 3:37:25 PM 2.035 35.663 0.2509501 8.136101 48.235 14.5
1/25/2024 3:52:26 PM 2.035 35.663 0.2499501 8.136801 49.8 14.5
1/25/2024 4:07:26 PM 2.0175 35.6315 0.2489 8.136801 50.84 14.5
1/25/2024 4:22:26 PM 2.0175 35.6315 0.2482 8.132601 51.92 14.5
1/25/2024 4:37:26 PM 2.0175 35.6315 0.2475 8.132601 52.995 14.5
1/25/2024 4:52:26 PM 1.9975 35.5955 0.24685 8.131201 55.595 14.5
1/25/2024 5:07:26 PM 1.9825 35.5685 0.2461 8.127001 58.895 14.5
1/25/2024 5:22:26 PM 1.9475 35.5055 0.2458 8.127701 62.44 14.51248
1/25/2024 5:37:26 PM 1.93 35.474 0.24545 8.131901 67.375 14.5
1/25/2024 5:52:26 PM 1.915 35.447 0.2447501 8.134001 73.485 14.5
1/25/2024 6:07:26 PM 1.88 35.384 0.24445 8.131901 77.19501 14.5
1/25/2024 6:22:26 PM 1.845 35.321 0.2440499 8.133301 81.25999 14.51248
1/25/2024 6:37:25 PM 1.8125 35.2625 0.2433501 8.131201 85.675 14.48752
1/25/2024 6:52:25 PM 1.76 35.168 0.2423501 8.131201 87.33501 14.57501
1/25/2024 7:07:25 PM 1.7075 35.0735 0.2413 8.137501 92.095 14.57501
1/25/2024 7:22:25 PM 1.6725 35.0105 0.2399 8.137501 93 14.58752
1/25/2024 7:37:25 PM 1.64 34.952 0.2389 8.136801 96.8999 14.57501
1/25/2024 7:52:25 PM 1.605 34.889 0.2368 8.132601 103.3501 14.58752
1/25/2024 8:07:25 PM 1.6225 34.9205 0.2344 8.129101 102.3003 14.51248
1/25/2024 8:22:25 PM 1.6575 34.9835 0.2313 8.122101 102.1499 14.5
1/25/2024 8:37:25 PM 1.675 35.015 0.2282 8.124201 100.2002 14.48752
1/25/2024 8:52:25 PM 1.71 35.078 0.22545 8.123501 98.09961 14.57501
1/25/2024 9:07:25 PM 1.725 35.105 0.2236499 8.113701 94.9502 14.58752
1/25/2024 9:22:25 PM 1.725 35.105 0.2223 8.114401 93.90039 14.58752
1/25/2024 9:37:25 PM 1.7425 35.1365 0.2223 8.108801 94.9502 14.58752
1/25/2024 9:52:25 PM 1.7425 35.1365 0.2226499 8.103201 92.8501 14.66248
1/25/2024 10:07:25 PM 1.76 35.168 0.2237 8.104601 92.8501 14.68753
1/25/2024 10:22:25 PM 1.7775 35.1995 0.2247 8.098301 91.9502 14.66248
1/25/2024 10:37:25 PM 1.7775 35.1995 0.2254 8.098301 90.8999 14.66248
1/25/2024 10:52:25 PM 1.7775 35.1995 0.22545 8.094101 94.85001 14.68753
1/25/2024 11:07:25 PM 1.76 35.168 0.2251 8.094801 89.8501 14.76248
1/25/2024 11:22:25 PM 1.76 35.168 0.2240499 8.093399 94.185 14.76248
1/25/2024 11:37:25 PM 1.7575 35.1635 0.223 8.094801 91.9502 14.76248
1/25/2024 11:52:26 PM 1.7625 35.1725 0.2219501 8.094801 95.1001 14.76248
1/26/2024 12:07:25 AM 1.7775 35.1995 0.2206 8.094801 110.5503 14.76248
1/26/2024 12:22:25 AM 1.7775 35.1995 0.2192 8.094101 116.8501 14.76248
1/26/2024 12:37:25 AM 1.775 35.195 0.2178 8.098301 113.6997 14.75
1/26/2024 12:52:26 AM 1.76 35.168 0.2164 8.099001 112.6499 14.75
1/26/2024 1:07:25 AM 1.745 35.141 0.2157 8.098301 105.2998 14.75
1/26/2024 1:22:25 AM 1.725 35.105 0.2147 8.099001 105.2998 14.76248
1/26/2024 1:37:26 AM 1.7075 35.0735 0.2136499 8.099001 108.4497 14.75
1/26/2024 1:52:26 AM 1.6725 35.0105 0.2126 8.099001 111.6001 14.77499
1/26/2024 2:07:26 AM 1.6225 34.9205 0.2112499 8.099001 116.8501 14.76248
1/26/2024 2:22:26 AM 1.5875 34.8575 0.20985 8.097601 118.7998 14.75
1/26/2024 2:37:26 AM 1.535 34.763 0.20845 8.097601 124.0498 14.75
1/26/2024 2:52:26 AM 1.4825 34.6685 0.2067501 8.097601 129.2998 14.76248
1/26/2024 3:07:26 AM 1.4825 34.6685 0.2053501 8.098301 134.5503 14.76248
1/26/2024 3:22:26 AM 1.5 34.7 0.2039501 8.099001 144.8999 14.77499
1/26/2024 3:37:25 AM 1.5175 34.7315 0.2026 8.103901 151.3501 14.76248
1/26/2024 3:52:25 AM 1.5525 34.7945 0.2012 8.108801 161.6997 14.76248
1/26/2024 4:07:25 AM 1.6025 34.8845 0.2001 8.113701 171 14.66248
1/26/2024 4:22:25 AM 1.7225 35.1005 0.1984 8.113001 176.25 14.64999
1/26/2024 4:37:25 AM 1.7375 35.1275 0.1977 8.117901 181.3501 14.66248
1/26/2024 4:52:25 AM 1.74 35.132 0.1973501 8.118601 181.3501 14.66248
1/26/2024 5:07:25 AM 1.7575 35.1635 0.1963 8.113001 181.3501 14.66248
1/26/2024 5:22:25 AM 1.775 35.195 0.1956 8.107401 178.3501 14.66248
1/26/2024 5:37:25 AM 1.8425 35.3165 0.19455 8.101801 175.2002 14.64999
1/26/2024 5:52:25 AM 1.98 35.564 0.19285 8.096901 171 14.66248
1/26/2024 6:07:25 AM 2.2225 36.0005 0.1907501 8.093399 166.6499 14.64999
1/26/2024 6:22:25 AM 2.4125 36.3425 0.1893 8.087099 166.6499 14.64999
1/26/2024 6:37:25 AM 2.535 36.563 0.1886499 8.082899 160.3501 14.63751
1/26/2024 6:52:25 AM 2.6025 36.6845 0.1882499 8.078699 160.6499 14.66248
1/26/2024 7:07:25 AM 2.655 36.779 0.18855 8.077999 158.7002 14.57501
1/26/2024 7:22:25 AM 2.705 36.869 0.1892499 8.072399 159.75 14.66248
1/26/2024 7:37:25 AM 2.7225 36.9005 0.1899501 8.073099 157.5 14.66248
1/26/2024 7:52:25 AM 2.74 36.932 0.1903 8.071699 157.6499 14.57501
1/26/2024 8:07:25 AM 2.775 36.995 0.1906499 8.068199 160.6499 14.57501
1/26/2024 8:22:25 AM 2.7925 37.0265 0.1903 8.067499 163.7998 14.58752
1/26/2024 8:37:25 AM 2.81 37.058 0.1899501 8.061899 165.9004 14.56247
1/26/2024 8:52:26 AM 2.825 37.085 0.1892499 8.062599 171 14.56247
1/26/2024 9:07:25 AM 2.8425 37.1165 0.18855 8.058399 172.0498 14.58752
1/26/2024 9:22:25 AM 2.88 37.184 0.18715 8.053499 178.3501 14.56247
1/26/2024 9:37:25 AM 2.9125 37.2425 0.1857501 8.053499 184.6499 14.58752
1/26/2024 9:52:26 AM 2.93 37.274 0.1840499 8.049299 5.759995 14.57501
1/26/2024 10:07:25 AM 2.81 37.058 0.183 8.043699 184.6499 14.48752
1/26/2024 10:22:26 AM 2.7225 36.9005 0.182 8.044399 196.2002 14.48752
1/26/2024 10:37:26 AM 2.6525 36.7745 0.1802499 8.038799 197.1001 14.48752
1/26/2024 10:52:26 AM 2.6525 36.7745 0.1782 8.037399 212.8501 14.48752
1/26/2024 11:07:26 AM 2.6525 36.7745 0.17615 8.035299 221.1001 14.5
1/26/2024 11:22:26 AM 2.6725 36.8105 0.1744 8.035299 232.6499 14.5
1/26/2024 11:37:26 AM 2.62 36.716 0.1737501 8.029699 238.9502 14.5
1/26/2024 11:52:26 AM 2.585 36.653 0.1726499 8.024799 254.5503 14.5
1/26/2024 12:07:26 PM 2.57 36.626 0.1713 8.019199 264 14.5
1/26/2024 12:22:26 PM 2.5875 36.6575 0.16955 8.014299 277.6499 14.5
1/26/2024 12:37:25 PM 2.605 36.689 0.16785 8.014299 294.3003 14.5
1/26/2024 12:52:25 PM 2.6225 36.7205 0.1661 8.014999 312 14.5
1/26/2024 1:07:25 PM 2.6225 36.7205 0.1647501 8.014299 325.5 14.5
1/26/2024 1:22:25 PM 2.6225 36.7205 0.1633501 8.021299 341.25 14.42499
1/26/2024 1:37:25 PM 2.6725 36.8105 0.1616 8.019899 369.4497 14.48752
1/26/2024 1:52:25 PM 2.7075 36.8735 0.1602499 8.015699 387 14.41248
1/26/2024 2:07:25 PM 2.7625 36.9725 0.15885 8.014999 401.6997 14.39999
1/26/2024 2:22:25 PM 2.8475 37.1255 0.1571 8.021299 414.1499 14.42499
1/26/2024 2:37:25 PM 2.9 37.22 0.1557501 8.020599 429.9004 14.41248
1/26/2024 2:52:25 PM 2.95 37.31 0.1546499 8.028299 427.6499 14.39999
1/26/2024 3:07:25 PM 2.985 37.373 0.154 8.028999 430.7998 14.39999
1/26/2024 3:22:25 PM 3.0375 37.4675 0.1529501 8.030399 431.8501 14.22501
1/26/2024 3:37:25 PM 3.0725 37.5305 0.1522499 8.035299 435.9004 14.06247
1/26/2024 3:52:25 PM 3.1075 37.5935 0.1519 8.033899 443.25 13.875
1/26/2024 4:07:25 PM 3.14 37.652 0.1512 8.040899 436.9502 13.72501
1/26/2024 4:22:25 PM 3.1925 37.7465 0.1509 8.049299 432.8999 13.53751
1/26/2024 4:37:25 PM 3.14 37.652 0.1505 8.053499 425.5503 14.13751
1/26/2024 4:52:25 PM 3.1575 37.6835 0.15055 8.063999 427.6499 14.32501
1/26/2024 5:07:25 PM 3.1575 37.6835 0.1505 8.073799 428.5503 14.32501
1/26/2024 5:22:25 PM 3.175 37.715 0.15015 8.082199 422.3999 14.31247
1/26/2024 5:37:25 PM 3.1925 37.7465 0.1498 8.087099 414 14.31247
1/26/2024 5:52:25 PM 3.1925 37.7465 0.14945 8.103201 420.3003 14.23752
1/26/2024 6:07:25 PM 3.2275 37.8095 0.14915 8.112301 427.5 14.23752
1/26/2024 6:22:25 PM 3.245 37.841 0.1488 8.126301 432.8999 14.22501
1/26/2024 6:37:25 PM 3.245 37.841 0.1481 8.141001 444.3003 14.22501
1/26/2024 6:52:25 PM 3.2975 37.9355 0.1470499 8.154301 460.9502 14.13751
1/26/2024 7:07:26 PM 2.915 37.247 0.1488 8.166201 477.75 14.14999
1/26/2024 7:22:26 PM 2.725 36.905 0.14915 8.181601 488.25 14.16248
1/26/2024 7:37:26 PM 2.675 36.815 0.14885 8.190001 506.3999 14.14999
1/26/2024 7:52:26 PM 2.985 37.373 0.1467501 8.197701 527.25 14.13751
1/26/2024 8:07:26 PM 3.2275 37.8095 0.1450499 8.1991 544.0498 14.13751
1/26/2024 8:22:26 PM 3.35 38.03 0.1436 8.2103 555.9004 14.14999
1/26/2024 8:37:26 PM 3.435 38.183 0.1429 8.2047 559.0498 14.07501
1/26/2024 8:52:26 PM 3.4875 38.2775 0.1422499 8.2047 567.2998 14.06247
1/26/2024 9:07:26 PM 3.0025 37.4045 0.1446499 8.204 559.9502 14.06247
1/26/2024 9:22:26 PM 2.745 36.941 0.1457501 8.2012 548.3999 14.07501
1/26/2024 9:37:26 PM 2.6575 36.7835 0.1461 8.193501 550.3501 14.06247
1/26/2024 9:52:25 PM 2.6075 36.6935 0.14615 8.185801 537.9004 14.06247
1/26/2024 10:07:25 PM 2.5725 36.6305 0.1461 8.180201 538.9502 14.07501
1/26/2024 10:22:25 PM 2.555 36.599 0.14615 8.170401 528.6001 14.06247
1/26/2024 10:37:25 PM 2.54 36.572 0.14615 8.160601 518.25 14.06247
1/26/2024 10:52:25 PM 2.54 36.572 0.14615 8.157101 509.8501 14.06247
1/26/2024 11:07:25 PM 2.5425 36.5765 0.14585 8.146601 492.1499 14.04999
1/26/2024 11:22:25 PM 2.54 36.572 0.1458 8.136801 487.0498 14.04999
1/26/2024 11:37:25 PM 2.8525 37.1345 0.1441 8.127001 473.25 14.06247
1/26/2024 11:52:25 PM 3.1125 37.6025 0.1427 8.122101 458.5503 14.04999
1/27/2024 12:07:25 AM 3.2825 37.9085 0.142 8.117201 447 14.04999
1/27/2024 12:22:25 AM 3.3875 38.0975 0.1412499 8.100401 434.5503 14.03751
1/27/2024 12:37:25 AM 3.4575 38.2235 0.1409 8.095501 441.9004 14.04999
1/27/2024 12:52:25 AM 3.5075 38.3135 0.14055 8.093399 424.5 14.07501
1/27/2024 1:07:25 AM 3.5575 38.4035 0.14015 8.082199 408 14.04999
1/27/2024 1:22:25 AM 3.5925 38.4665 0.14015 8.078699 399.4497 14.14999
1/27/2024 1:37:25 AM 3.61 38.498 0.14015 8.071699 382.6499 14.13751
1/27/2024 1:52:25 AM 3.6275 38.5295 0.14015 8.067499 374.5503 14.14999
1/27/2024 2:07:25 AM 3.2125 37.7825 0.1422499 8.056999 360.8999 14.14999
1/27/2024 2:22:25 AM 2.8625 37.1525 0.144 8.054199 353.5503 14.14999
1/27/2024 2:37:25 AM 2.745 36.941 0.1447501 8.049999 345.9004 14.14999
1/27/2024 2:52:25 AM 2.6775 36.8195 0.1451 8.043699 337.7998 14.13751
1/27/2024 3:07:25 AM 2.6425 36.7565 0.14545 8.043699 326.3999 14.14999
1/27/2024 3:22:25 AM 2.61 36.698 0.1458 8.039499 311.8501 14.14999
1/27/2024 3:37:25 AM 2.595 36.671 0.1458 8.034599 309.75 14.14999
1/27/2024 3:52:26 AM 2.575 36.635 0.14585 8.026199 303.4497 14.16248
1/27/2024 4:07:25 AM 2.5775 36.6395 0.1462 8.026199 295.2002 14.16248
1/27/2024 4:22:25 AM 2.5575 36.6035 0.1462 8.021999 288.8999 14.16248
1/27/2024 4:37:26 AM 2.56 36.608 0.1462 8.020599 284.7002 14.14999
1/27/2024 4:52:26 AM 2.56 36.608 0.1462 8.016399 279.4497 14.16248
1/27/2024 5:07:26 AM 2.5425 36.5765 0.1462 8.010099 271.2002 14.16248
1/27/2024 5:22:26 AM 2.5425 36.5765 0.14655 8.005899 267.1499 14.14999
1/27/2024 5:37:26 AM 2.54 36.572 0.1462 8.006599 260.7002 14.16248
1/27/2024 5:52:26 AM 2.5425 36.5765 0.14655 8.003099 255.6001 14.17499
1/27/2024 6:07:26 AM 2.525 36.545 0.14655 8.000999 248.25 14.14999
1/27/2024 6:22:26 AM 2.525 36.545 0.14685 8.000999 247.2002 14.14999
1/27/2024 6:37:25 AM 2.785 37.013 0.1455 7.995399 239.8501 14.13751
1/27/2024 6:52:25 AM 3.095 37.571 0.1440499 7.990499 238.6499 14.13751
1/27/2024 7:07:25 AM 3.285 37.913 0.143 7.9891 236.5503 14.22501
1/27/2024 7:22:25 AM 3.3875 38.0975 0.1423501 7.9863 230.25 14.21249
1/27/2024 7:37:25 AM 3.455 38.219 0.1419501 7.9856 226.2002 14.22501
1/27/2024 7:52:25 AM 3.505 38.309 0.1419 7.98 222.8999 14.21249
1/27/2024 8:07:25 AM 3.5425 38.3765 0.1419 7.9765 217.0498 14.23752
1/27/2024 8:22:25 AM 3.5575 38.4035 0.1419 7.9751 212.8501 14.21249
1/27/2024 8:37:25 AM 3.575 38.435 0.1419 7.9758 210.75 14.23752
1/27/2024 8:52:25 AM 3.595 38.471 0.14185 7.9702 205.5 14.22501
1/27/2024 9:07:25 AM 3.61 38.498 0.1419 7.966 200.25 14.23752
1/27/2024 9:22:25 AM 3.605 38.489 0.14185 7.966 196.0498 14.23752
1/27/2024 9:37:25 AM 3.6275 38.5295 0.1422 7.9667 196.2002 14.23752
1/27/2024 9:52:25 AM 3.6425 38.5565 0.1422 7.9646 192.8999 14.22501
1/27/2024 10:07:25 AM 3.6425 38.5565 0.1422 7.9604 190.7998 14.22501
1/27/2024 10:22:25 AM 3.175 37.715 0.1446499 7.9625 185.8501 14.23752
1/27/2024 10:37:25 AM 2.9 37.22 0.14645 7.9576 181.6499 14.23752
1/27/2024 10:52:25 AM 2.7975 37.0355 0.14715 7.9555 177.1499 14.22501
1/27/2024 11:07:25 AM 2.745 36.941 0.14785 7.9576 176.0996 14.31247
1/27/2024 11:22:25 AM 2.73 36.914 0.1482499 7.9513 172.0498 14.31247
1/27/2024 11:37:25 AM 2.73 36.914 0.1486 7.9471 169.9502 14.32501
1/27/2024 11:52:25 AM 2.7125 36.8825 0.1489501 7.9527 166.9502 14.32501
1/27/2024 12:07:25 PM 2.695 36.851 0.1489 7.9492 162.6001 14.32501
1/27/2024 12:22:25 PM 2.7125 36.8825 0.1493 7.9464 163.7998 14.31247
1/27/2024 12:37:25 PM 2.7125 36.8825 0.1492499 7.9415 159.4497 14.32501
1/27/2024 12:52:26 PM 2.73 36.914 0.1492499 7.9429 157.5 14.32501
1/27/2024 1:07:25 PM 2.7675 36.9815 0.1493 7.9429 155.25 14.32501
1/27/2024 1:22:25 PM 2.785 37.013 0.1496 7.9436 151.2002 14.32501
1/27/2024 1:37:25 PM 2.7825 37.0085 0.1499501 7.9422 152.25 14.32501
1/27/2024 1:52:26 PM 2.8 37.04 0.1499501 7.9373 147 14.32501
1/27/2024 2:07:26 PM 2.8 37.04 0.15 7.9324 144.8999 14.32501
1/27/2024 2:22:26 PM 2.8025 37.0445 0.1503 7.9387 141.9004 14.32501
1/27/2024 2:37:26 PM 2.8 37.04 0.1499501 7.938 142.9502 14.33752
1/27/2024 2:52:26 PM 2.8175 37.0715 0.1499501 7.9366 138.75 14.31247
1/27/2024 3:07:26 PM 2.8175 37.0715 0.1503 7.9366 138.75 14.32501
1/27/2024 3:22:26 PM 2.8175 37.0715 0.1503 7.9324 136.6499 14.31247
1/27/2024 3:37:26 PM 2.8175 37.0715 0.1506499 7.9387 135.6001 14.41248
1/27/2024 3:52:25 PM 2.8175 37.0715 0.1506499 7.938 133.5 14.41248
1/27/2024 4:07:25 PM 2.8175 37.0715 0.1507 7.9366 132.4497 14.39999
1/27/2024 4:22:25 PM 2.82 37.076 0.151 7.9387 130.3501 14.41248
1/27/2024 4:37:25 PM 2.8175 37.0715 0.1513501 7.9373 128.3999 14.41248
1/27/2024 4:52:25 PM 2.82 37.076 0.1517 7.9331 128.25 14.41248
1/27/2024 5:07:25 PM 2.82 37.076 0.1517 7.938 126.1499 14.41248
1/27/2024 5:22:25 PM 2.8175 37.0715 0.1517 7.9331 126.3003 14.41248
1/27/2024 5:37:25 PM 2.8175 37.0715 0.1520499 7.9373 122.0996 14.41248
1/27/2024 5:52:25 PM 2.82 37.076 0.1520499 7.9373 122.0996 14.39999
1/27/2024 6:07:25 PM 2.8175 37.0715 0.1524 7.9429 122.0996 14.42499
1/27/2024 6:22:25 PM 2.85 37.13 0.1527501 7.9436 134.7002 14.33752
1/27/2024 6:37:25 PM 2.87 37.166 0.1531 7.9373 136.6499 14.32501
1/27/2024 6:52:25 PM 2.8875 37.1975 0.1534 7.938 133.6499 14.32501
1/27/2024 7:07:25 PM 2.89 37.202 0.15345 7.938 131.3999 14.32501
1/27/2024 7:22:25 PM 2.8875 37.1975 0.1538 7.9387 131.3999 14.33752
1/27/2024 7:37:25 PM 2.905 37.229 0.1541 7.9429 128.3999 14.32501
1/27/2024 7:52:25 PM 2.9225 37.2605 0.1541 7.9387 128.25 14.32501
1/27/2024 8:07:25 PM 2.94 37.292 0.15445 7.9373 128.25 14.23752
1/27/2024 8:22:25 PM 2.9575 37.3235 0.15445 7.9324 128.25 14.22501
1/27/2024 8:37:25 PM 2.955 37.319 0.15445 7.9436 125.25 14.25
1/27/2024 8:52:25 PM 2.9725 37.3505 0.1548 7.9387 126.1499 14.25
1/27/2024 9:07:25 PM 2.955 37.319 0.1548 7.938 126.1499 14.23752
1/27/2024 9:22:25 PM 2.9725 37.3505 0.1551 7.938 124.0498 14.23752
1/27/2024 9:37:25 PM 2.9725 37.3505 0.1555 7.938 126.1499 14.23752
1/27/2024 9:52:25 PM 2.975 37.355 0.1555 7.9394 124.2002 14.25
1/27/2024 10:07:25 PM 2.9925 37.3865 0.1555 7.938 123.1499 14.25
1/27/2024 10:22:25 PM 2.9925 37.3865 0.1555 7.9373 123.1499 14.23752
1/27/2024 10:37:25 PM 2.975 37.355 0.15585 7.9422 122.0996 14.22501
1/27/2024 10:52:25 PM 2.975 37.355 0.15585 7.9366 123 14.23752
1/27/2024 11:07:26 PM 2.975 37.355 0.1562 7.9436 120.8999 14.22501
1/27/2024 11:22:25 PM 2.975 37.355 0.15655 7.9422 121.9502 14.14999
1/27/2024 11:37:26 PM 2.9925 37.3865 0.1565 7.9429 123 14.13751
1/27/2024 11:52:26 PM 2.9925 37.3865 0.1569 7.9429 121.0498 14.14999
1/28/2024 12:07:26 AM 2.975 37.355 0.1569 7.9429 121.0498 14.16248
1/28/2024 12:22:26 AM 2.99 37.382 0.1572 7.9429 122.0996 14.16248
1/28/2024 12:37:26 AM 2.995 37.391 0.1572499 7.9415 120.8999 14.14999
1/28/2024 12:52:25 AM 2.995 37.391 0.1572 7.9471 122.0996 14.14999
1/28/2024 1:07:25 AM 2.9925 37.3865 0.1572499 7.9492 120 14.16248
1/28/2024 1:22:25 AM 2.9925 37.3865 0.1576 7.9471 120 14.14999
1/28/2024 1:37:25 AM 2.9925 37.3865 0.15755 7.9471 119.8501 14.06247
1/28/2024 1:52:25 AM 2.9925 37.3865 0.1579 7.9485 118.9502 14.06247
1/28/2024 2:07:25 AM 2.975 37.355 0.1583 7.9464 119.8501 14.06247
1/28/2024 2:22:25 AM 2.9575 37.3235 0.1586499 7.9485 119.8501 14.07501
1/28/2024 2:37:25 AM 2.96 37.328 0.1589501 7.9471 116.8501 14.06247
1/28/2024 2:52:25 AM 2.9575 37.3235 0.1589501 7.9485 116.7002 14.07501
1/28/2024 3:07:25 AM 2.94 37.292 0.1593501 7.9492 115.7998 14.07501
1/28/2024 3:22:25 AM 2.94 37.292 0.1593 7.9478 115.7998 14.08752
1/28/2024 3:37:25 AM 2.94 37.292 0.1593 7.9464 114.8999 14.06247
1/28/2024 3:52:25 AM 2.94 37.292 0.1593 7.9485 115.7998 14.06247
1/28/2024 4:07:25 AM 2.9425 37.2965 0.1593501 7.9534 113.6997 14.07501
1/28/2024 4:22:25 AM 2.94 37.292 0.1596499 7.9478 113.8501 14.07501
1/28/2024 4:37:25 AM 2.925 37.265 0.1597 7.9513 112.6499 14.06247
1/28/2024 4:52:25 AM 2.925 37.265 0.16 7.9485 113.6997 13.98752
1/28/2024 5:07:25 AM 2.9425 37.2965 0.1597 7.9485 111.6001 13.98752
1/28/2024 5:22:25 AM 2.94 37.292 0.1596499 7.9541 111.6001 13.98752
1/28/2024 5:37:25 AM 2.94 37.292 0.1596499 7.9527 110.5503 13.97501
1/28/2024 5:52:25 AM 2.94 37.292 0.1597 7.9534 110.5503 13.98752
1/28/2024 6:07:25 AM 2.925 37.265 0.16 7.9534 110.5503 13.97501
1/28/2024 6:22:25 AM 2.9225 37.2605 0.16 7.9527 108.4497 13.98752
1/28/2024 6:37:25 AM 2.925 37.265 0.16 7.9527 110.5503 13.97501
1/28/2024 6:52:26 AM 2.9225 37.2605 0.1600499 7.9576 108.4497 13.98752
1/28/2024 7:07:25 AM 2.925 37.265 0.1604 7.9534 108.4497 13.98752
1/28/2024 7:22:25 AM 2.925 37.265 0.1607 7.9576 108.4497 13.98752
1/28/2024 7:37:25 AM 2.905 37.229 0.1607 7.9541 108.6001 13.98752
1/28/2024 7:52:26 AM 2.905 37.229 0.161 7.9576 107.5503 13.98752
1/28/2024 8:07:25 AM 2.9075 37.2335 0.1610499 7.959 106.3501 14
1/28/2024 8:22:26 AM 2.9075 37.2335 0.1614 7.9569 106.3501 13.97501
1/28/2024 8:37:26 AM 2.905 37.229 0.1614 7.9583 104.3999 14
1/28/2024 8:52:26 AM 2.905 37.229 0.1614 7.9527 106.3501 13.98752
1/28/2024 9:07:26 AM 2.925 37.265 0.1617501 7.9527 104.3999 13.98752
1/28/2024 9:22:26 AM 2.925 37.265 0.1617 7.9569 104.3999 13.97501
1/28/2024 9:37:26 AM 2.9225 37.2605 0.1621 7.9527 104.3999 13.97501
1/28/2024 9:52:26 AM 2.905 37.229 0.16245 7.959 104.3999 14
1/28/2024 10:07:25 AM 2.9075 37.2335 0.16245 7.9569 102.3003 13.97501
1/28/2024 10:22:25 AM 2.89 37.202 0.1628 7.9562 103.3501 13.98752
1/28/2024 10:37:25 AM 2.9075 37.2335 0.1628 7.9583 103.3501 14
1/28/2024 10:52:25 AM 2.8875 37.1975 0.16315 7.9576 103.3501 14
1/28/2024 11:07:25 AM 2.9075 37.2335 0.1635 7.959 101.25 14
1/28/2024 11:22:25 AM 2.89 37.202 0.1635 7.9583 102.3003 13.98752
1/28/2024 11:37:25 AM 2.89 37.202 0.1642 7.9618 102.3003 13.97501
1/28/2024 11:52:25 AM 2.89 37.202 0.16415 7.9569 101.25 14
1/28/2024 12:07:25 PM 2.8875 37.1975 0.1645 7.9576 101.25 13.97501
1/28/2024 12:22:25 PM 2.89 37.202 0.1652499 7.9646 100.2002 14
1/28/2024 12:37:25 PM 2.89 37.202 0.1656 7.9632 101.25 13.98752
1/28/2024 12:52:25 PM 2.89 37.202 0.16555 7.9625 101.25 13.97501
1/28/2024 1:07:25 PM 2.89 37.202 0.1659 7.9632 100.2002 13.98752
1/28/2024 1:22:25 PM 2.89 37.202 0.1662499 7.9576 99.1499 13.89999
1/28/2024 1:37:25 PM 2.89 37.202 0.1666 7.9583 99.1499 13.89999
1/28/2024 1:52:25 PM 2.8725 37.1705 0.1669501 7.9625 100.3501 13.89999
1/28/2024 2:07:25 PM 3.0475 37.4855 0.1663 7.9583 99.1499 13.89999
1/28/2024 2:22:25 PM 3.425 38.165 0.16445 7.9569 99 13.89999
1/28/2024 2:37:25 PM 3.6175 38.5115 0.1634 7.9562 96.8999 13.88751
1/28/2024 2:52:25 PM 3.77 38.786 0.1627 7.9562 97.7998 13.88751
1/28/2024 3:07:25 PM 3.8725 38.9705 0.1623501 7.9548 95.69971 13.875
1/28/2024 3:22:25 PM 3.9225 39.0605 0.1619501 7.9555 96.75 13.88751
1/28/2024 3:37:25 PM 3.96 39.128 0.1619501 7.9625 97.2002 13.88751
1/28/2024 3:52:26 PM 3.975 39.155 0.1619501 7.9569 96.1499 13.88751
1/28/2024 4:07:25 PM 3.9925 39.1865 0.1619501 7.9576 96.1499 13.88751
1/28/2024 4:22:25 PM 4.01 39.218 0.1619501 7.9569 93.90039 13.88751
1/28/2024 4:37:25 PM 4.0275 39.2495 0.1619501 7.9548 93.90039 13.875
1/28/2024 4:52:26 PM 4.025 39.245 0.1619501 7.9569 96.1499 13.89999
1/28/2024 5:07:25 PM 3.525 38.345 0.1654 7.9618 94.0498 13.89999
1/28/2024 5:22:25 PM 3.16 37.688 0.16755 7.9618 93.90039 13.88751
1/28/2024 5:37:25 PM 3.0075 37.4135 0.1689501 7.9618 93.75 13.88751
1/28/2024 5:52:26 PM 2.9225 37.2605 0.1697 7.9576 94.9502 13.89999
1/28/2024 6:07:26 PM 2.8725 37.1705 0.1697 7.9618 92.7002 13.88751
1/28/2024 6:22:26 PM 2.8375 37.1075 0.1700499 7.9569 93.90039 13.81247
1/28/2024 6:37:26 PM 2.8175 37.0715 0.1700499 7.9569 93.90039 13.81247
1/28/2024 6:52:26 PM 2.96 37.328 0.1693501 7.9618 94.9502 13.79999
1/28/2024 7:07:25 PM 3.355 38.039 0.1665 7.9562 96 13.79999
1/28/2024 7:22:25 PM 3.58 38.444 0.16515 7.9611 95.69971 13.79999
1/28/2024 7:37:25 PM 3.7525 38.7545 0.1637 7.9604 99 13.78751
1/28/2024 7:52:25 PM 3.8375 38.9075 0.163 7.9611 96.75 13.79999
1/28/2024 8:07:25 PM 3.89 39.002 0.1623 7.9611 98.25 13.81247
1/28/2024 8:22:25 PM 3.9225 39.0605 0.1619501 7.9576 100.2002 13.81247
1/28/2024 8:37:25 PM 3.94 39.092 0.1616 7.9618 101.25 13.81247
1/28/2024 8:52:25 PM 3.94 39.092 0.1612499 7.9625 102.1499 13.81247
1/28/2024 9:07:25 PM 3.7125 38.6825 0.1626499 7.9611 104.3999 13.81247
1/28/2024 9:22:25 PM 3.1775 37.7195 0.1657501 7.9625 106.5 13.82501
1/28/2024 9:37:25 PM 2.97 37.346 0.1672 7.9597 104.0996 13.78751
1/28/2024 9:52:25 PM 2.85 37.13 0.1676 7.9625 106.3501 13.88751
1/28/2024 10:07:25 PM 2.785 37.013 0.1679501 7.9618 106.3501 13.875
1/28/2024 10:22:25 PM 2.75 36.95 0.1679501 7.9681 110.5503 13.91248
1/28/2024 10:37:25 PM 2.855 37.139 0.1672499 7.9632 110.5503 13.89999
1/28/2024 10:52:25 PM 3.27 37.886 0.16445 7.9674 111.6001 13.89999
1/28/2024 11:07:25 PM 3.4925 38.2865 0.1631 7.9618 113.5503 13.89999
1/28/2024 11:22:25 PM 3.665 38.597 0.162 7.9604 115.5 13.88751
1/28/2024 11:37:25 PM 3.75 38.75 0.1613 7.9604 117.4497 13.88751
1/28/2024 11:52:25 PM 3.7825 38.8085 0.1609501 7.9625 116.8501 13.89999
1/29/2024 12:07:25 AM 3.8025 38.8445 0.1602 7.9618 118.0498 13.89999
1/29/2024 12:22:25 AM 3.8175 38.8715 0.15985 7.9548 117 13.875
1/29/2024 12:37:25 AM 3.8175 38.8715 0.15985 7.9597 117.9004 13.96249
1/29/2024 12:52:25 AM 3.8 38.84 0.15945 7.9604 118.9502 13.96249
1/29/2024 1:07:25 AM 3.815 38.867 0.15915 7.9611 115.7998 13.97501
1/29/2024 1:22:25 AM 3.3325 37.9985 0.1616 7.9618 117.9004 13.98752
1/29/2024 1:37:25 AM 3.455 38.219 0.1609 7.9611 117 13.98752
1/29/2024 1:52:26 AM 3.61 38.498 0.15985 7.9611 118.9502 13.97501
1/29/2024 2:07:25 AM 3.6625 38.5925 0.1595 7.9611 116.8501 13.97501
1/29/2024 2:22:25 AM 3.6625 38.5925 0.15915 7.9611 114.75 13.96249
1/29/2024 2:37:25 AM 3.66 38.588 0.15915 7.9618 113.6997 13.97501
1/29/2024 2:52:26 AM 3.6625 38.5925 0.1588 7.9597 112.6499 13.95001
1/29/2024 3:07:26 AM 3.645 38.561 0.15845 7.959 110.5503 13.96249
1/29/2024 3:22:26 AM 3.6425 38.5565 0.1581 7.9548 112.6499 13.96249
1/29/2024 3:37:26 AM 3.66 38.588 0.1581 7.9576 113.6997 13.97501
1/29/2024 3:52:26 AM 3.6575 38.5835 0.1577501 7.9569 111.6001 13.98752
1/29/2024 4:07:25 AM 3.625 38.525 0.1577501 7.9569 111.6001 13.97501
1/29/2024 4:22:25 AM 3.6425 38.5565 0.1574 7.9513 111.6001 13.97501
1/29/2024 4:37:25 AM 3.64 38.552 0.1570499 7.9513 108.6001 13.97501
1/29/2024 4:52:25 AM 3.6275 38.5295 0.1570499 7.9506 110.5503 13.96249
1/29/2024 5:07:25 AM 3.6075 38.4935 0.1570499 7.9506 108.4497 14.04999
1/29/2024 5:22:25 AM 3.625 38.525 0.1567 7.952 108.4497 14.06247
1/29/2024 5:37:25 AM 3.625 38.525 0.1567501 7.952 108.4497 14.06247
1/29/2024 5:52:25 AM 3.6225 38.5205 0.1567 7.952 108.4497 14.06247
1/29/2024 6:07:25 AM 3.6275 38.5295 0.1567 7.9506 109.5 14.04999
1/29/2024 6:22:25 AM 3.625 38.525 0.1567 7.9499 107.3999 14.04999
1/29/2024 6:37:25 AM 3.6425 38.5565 0.1567501 7.952 109.5 14.06247
1/29/2024 6:52:25 AM 3.645 38.561 0.1567501 7.9513 109.5 14.04999
1/29/2024 7:07:25 AM 3.6425 38.5565 0.1566499 7.9499 107.3999 14.04999
1/29/2024 7:22:25 AM 3.16 37.688 0.1595 7.952 108.6001 14.06247
1/29/2024 7:37:25 AM 2.795 37.031 0.1616 7.9534 110.8501 14.08752
1/29/2024 7:52:25 AM 3.0925 37.5665 0.1599 7.9499 110.3999 14.03751
1/29/2024 8:07:25 AM 3.3175 37.9715 0.15855 7.9471 109.2002 14.04999
1/29/2024 8:22:25 AM 3.42 38.156 0.15815 7.9646 103.5 14.06247
1/29/2024 8:37:25 AM 3.2825 37.9085 0.15885 7.9562 102.4497 14.06247
1/29/2024 8:52:25 AM 3.23 37.814 0.1592 7.9562 102.3003 14.04999
1/29/2024 9:07:25 AM 3.23 37.814 0.1613 7.9527 115.9502 14.07501
1/29/2024 9:22:25 AM 3.4175 38.1515 0.15885 7.9478 110.7002 13.98752
1/29/2024 9:37:25 AM 3.4725 38.2505 0.15815 7.9471 108.4497 14.06247
1/29/2024 9:52:26 AM 3.5225 38.3405 0.15815 7.9471 108.6001 14.06247
1/29/2024 10:07:25 AM 3.5575 38.4035 0.1577501 7.9464 108.6001 14.07501
1/29/2024 10:22:25 AM 3.5775 38.4395 0.1578 7.9464 97.0498 14.04999
1/29/2024 10:37:25 AM 3.5775 38.4395 0.1577501 7.9408 97.0498 14.04999
1/29/2024 10:52:26 AM 3.59 38.462 0.1574 7.9373 98.09961 14.14999
1/29/2024 11:07:25 AM 3.59 38.462 0.1577501 7.9373 96 14.14999
1/29/2024 11:22:26 AM 3.6275 38.5295 0.1577501 7.9303 97.0498 14.13751
1/29/2024 11:37:26 AM 3.6275 38.5295 0.1577501 7.9366 96 14.125
1/29/2024 11:52:26 AM 3.6425 38.5565 0.1577501 7.9373 93.90039 14.13751
1/29/2024 12:07:26 PM 3.6425 38.5565 0.1577501 7.9373 92.8501 14.14999
1/29/2024 12:22:26 PM 3.6625 38.5925 0.1577 7.952 93.90039 14.13751
1/29/2024 12:37:26 PM 3.6775 38.6195 0.1578 7.9478 93.90039 14.14999
1/29/2024 12:52:26 PM 3.695 38.651 0.1574 7.9415 91.7998 14.14999
1/29/2024 1:07:26 PM 3.695 38.651 0.15745 7.938 91.7998 14.14999
1/29/2024 1:22:25 PM 3.7125 38.6825 0.1574 7.9352 90.8999 14.13751
1/29/2024 1:37:25 PM 3.7125 38.6825 0.15745 7.9366 89.69971 14.13751
1/29/2024 1:52:25 PM 3.7125 38.6825 0.1577501 7.938 89.55029 14.14999
1/29/2024 2:07:25 PM 3.7325 38.7185 0.1577501 7.9366 92.47501 14.13751
1/29/2024 2:22:25 PM 3.7475 38.7455 0.1577501 7.9317 93.41499 14.14999
1/29/2024 2:37:25 PM 3.75 38.75 0.1578 7.9359 91.77499 14.14999
1/29/2024 2:52:25 PM 3.7475 38.7455 0.1574 7.931 90.91 14.13751
1/29/2024 3:07:25 PM 3.7475 38.7455 0.1574 7.9366 91.77499 14.13751
1/29/2024 3:22:25 PM 3.7475 38.7455 0.1574 7.931 91.155 14.13751
1/29/2024 3:37:25 PM 3.765 38.777 0.1577501 7.938 89.375 14.14999
1/29/2024 3:52:25 PM 3.765 38.777 0.1577501 7.9401 87.995 14.13751
1/29/2024 4:07:25 PM 3.815 38.867 0.1574 7.9373 89.69971 14.14999
1/29/2024 4:22:25 PM 3.695 38.651 0.15845 7.9359 90.75 14.13751
1/29/2024 4:37:25 PM 3.1075 37.5935 0.1623 7.9373 93.52 14.14999
1/29/2024 4:52:25 PM 2.8475 37.1255 0.1644 7.9254 91.25 14.13751
1/29/2024 5:07:25 PM 2.7125 36.8825 0.16555 7.938 86.74001 14.16248
1/29/2024 5:22:25 PM 2.7475 36.9455 0.16585 7.9317 83.75999 14.17499
1/29/2024 5:37:25 PM 3.1625 37.6925 0.1634 7.931 83.03 14.14999
1/29/2024 5:52:25 PM 3.3875 38.0975 0.1623501 7.9373 84.895 14.14999
1/29/2024 6:07:25 PM 3.525 38.345 0.162 7.9366 82.53 14.13751
1/29/2024 6:22:25 PM 3.5775 38.4395 0.1619501 7.9359 81.215 14.125
1/29/2024 6:37:25 PM 3.6275 38.5295 0.162 7.9373 81.23 14.16248
1/29/2024 6:52:25 PM 3.645 38.561 0.1623 7.9359 80.675 14.16248
1/29/2024 7:07:25 PM 3.645 38.561 0.163 7.9373 79.32001 14.14999
1/29/2024 7:22:25 PM 3.6625 38.5925 0.1633 7.9352 78.55 14.13751
1/29/2024 7:37:25 PM 3.6625 38.5925 0.1636499 7.9415 77.64999 14.14999
1/29/2024 7:52:26 PM 3.6625 38.5925 0.164 7.938 78.065 14.14999
1/29/2024 8:07:25 PM 3.66 38.588 0.1643 7.9429 77.235 14.14999
1/29/2024 8:22:25 PM 3.6625 38.5925 0.165 7.9408 76.67999 14.04999
1/29/2024 8:37:25 PM 3.68 38.624 0.1654 7.9415 75.88 14.04999
1/29/2024 8:52:26 PM 3.68 38.624 0.1657501 7.9366 75.95 14.04999
1/29/2024 9:07:26 PM 3.6775 38.6195 0.1660499 7.9408 75.22 14.06247
1/29/2024 9:22:26 PM 3.6775 38.6195 0.1664 7.9408 75.60001 14.04999
1/29/2024 9:37:26 PM 3.695 38.651 0.1667501 7.9415 74.91 14.04999
1/29/2024 9:52:26 PM 3.695 38.651 0.16745 7.9415 74.595 14.06247
1/29/2024 10:07:26 PM 3.695 38.651 0.1678 7.9464 74.94 14.06247
1/29/2024 10:22:26 PM 3.7125 38.6825 0.1685 7.9415 73.47501 14.06247
1/29/2024 10:37:25 PM 3.6975 38.6555 0.1685 7.9464 74.905 14.06247
1/29/2024 10:52:25 PM 3.695 38.651 0.16885 7.9422 74.735 14.07501
1/29/2024 11:07:25 PM 3.7125 38.6825 0.1688 7.9429 74.73 14.07501
1/29/2024 11:22:25 PM 3.695 38.651 0.1692 7.9429 74.32001 14.06247
1/29/2024 11:37:25 PM 3.7125 38.6825 0.16915 7.9429 73.97501 13.98752
1/29/2024 11:52:25 PM 3.695 38.651 0.16915 7.9457 74.59 13.97501
1/30/2024 12:07:25 AM 3.695 38.651 0.1695 7.9457 73.935 13.97501
1/30/2024 12:22:25 AM 3.7125 38.6825 0.1695 7.9464 73.69501 13.97501
1/30/2024 12:37:25 AM 3.7125 38.6825 0.16985 7.945 72.855 13.96249
1/30/2024 12:52:25 AM 3.695 38.651 0.1698 7.9464 72.67999 13.97501
1/30/2024 1:07:25 AM 3.71 38.678 0.16985 7.9429 72.925 13.97501
1/30/2024 1:22:25 AM 3.6975 38.6555 0.1702 7.9464 72.19501 13.96249
1/30/2024 1:37:25 AM 3.7125 38.6825 0.1702 7.945 71.78 13.96249
1/30/2024 1:52:25 AM 3.6975 38.6555 0.17055 7.9464 70.39 13.97501
1/30/2024 2:07:25 AM 3.695 38.651 0.17085 7.9457 70.215 13.96249
1/30/2024 2:22:25 AM 3.695 38.651 0.1709 7.9513 69.89999 13.97501
1/30/2024 2:37:25 AM 3.6975 38.6555 0.1712 7.9457 70.60001 13.96249
1/30/2024 2:52:25 AM 3.695 38.651 0.1712499 7.9457 70.52499 13.97501
1/30/2024 3:07:25 AM 3.695 38.651 0.1716 7.9457 71.16 13.96249
1/30/2024 3:22:25 AM 3.6975 38.6555 0.1719501 7.9471 70.36 13.97501
1/30/2024 3:37:25 AM 3.695 38.651 0.1723 7.9457 69.595 13.96249
1/30/2024 3:52:25 AM 3.695 38.651 0.1722499 7.9464 68.34 13.97501
1/30/2024 4:07:25 AM 3.2475 37.8455 0.1750499 7.9513 68.83 13.97501
1/30/2024 4:22:25 AM 2.83 37.094 0.1779 7.9464 67.855 13.96249
1/30/2024 4:37:25 AM 2.6575 36.7835 0.1793 7.9457 68.58501 13.97501
1/30/2024 4:52:25 AM 2.955 37.319 0.1776 7.9478 68.38 13.97501
1/30/2024 5:07:25 AM 3.23 37.814 0.1758 7.9499 68.27 13.96249
1/30/2024 5:22:25 AM 3.405 38.129 0.1751 7.9499 68.53999 13.96249
1/30/2024 5:37:25 AM 3.4725 38.2505 0.17445 7.9513 68.47501 13.97501
1/30/2024 5:52:26 AM 3.5075 38.3135 0.1740499 7.9478 69.74001 13.98752
1/30/2024 6:07:25 AM 3.5425 38.3765 0.1740499 7.9506 68.59 13.97501
1/30/2024 6:22:26 AM 3.56 38.408 0.1736499 7.9464 68.07001 13.97501
1/30/2024 6:37:26 AM 3.5575 38.4035 0.1737 7.9527 67.825 13.98752
1/30/2024 6:52:26 AM 3.5575 38.4035 0.1737 7.9513 67.38 13.96249
1/30/2024 7:07:26 AM 3.56 38.408 0.1737 7.9506 67.92999 13.98752
1/30/2024 7:22:26 AM 3.5575 38.4035 0.1736499 7.9506 67.515 13.96249
1/30/2024 7:37:25 AM 3.56 38.408 0.1737 7.9527 68.10001 13.98752
1/30/2024 7:52:25 AM 3.5575 38.4035 0.1737 7.952 68.55 13.96249
1/30/2024 8:07:25 AM 3.5575 38.4035 0.174 7.9576 67.06 13.98752
1/30/2024 8:22:25 AM 3.47 38.246 0.1747501 7.966 63.935 13.97501
1/30/2024 8:37:25 AM 3.315 37.967 0.17545 7.9674 64.38499 13.98752
1/30/2024 8:52:25 AM 3.265 37.877 0.1761 7.9653 63.52499 13.97501
1/30/2024 9:07:25 AM 3.6125 38.5025 0.2073 7.9093 58.86501 13.47501
1/30/2024 9:22:25 AM 3.7875 38.8175 0.2263 7.8792 56.50999 12.78751
1/30/2024 9:37:25 AM 3.79 38.822 0.22845 7.8841 56.825 12.875
1/30/2024 9:52:25 AM 3.8575 38.9435 0.23155 7.875 56.58501 12.70001
1/30/2024 10:07:25 AM 3.8925 39.0065 0.2360499 7.8708 55.505 12.70001
1/30/2024 10:22:25 AM 3.875 38.975 0.2322 7.8701 55.22501 12.61249
1/30/2024 10:37:25 AM 3.9275 39.0695 0.23745 7.8638 53.825 12.58752
1/30/2024 10:52:25 AM 3.44 38.192 0.1776 7.9422 66.985 13.53751
1/30/2024 11:07:25 AM 3.4025 38.1245 0.1779 7.9464 69.55499 13.88751
1/30/2024 11:22:25 AM 3.37 38.066 0.17755 7.9457 64.795 13.97501
1/30/2024 11:37:25 AM 3.37 38.066 0.1772 7.9513 63.405 13.95001
1/30/2024 11:52:25 AM 3.3875 38.0975 0.1772 7.9499 62.12 13.96249
1/30/2024 12:07:25 PM 3.4025 38.1245 0.1772 7.9513 60.56 13.96249
1/30/2024 12:22:25 PM 3.42 38.156 0.1772 7.9576 62.06 13.98752
1/30/2024 12:37:25 PM 3.4375 38.1875 0.17715 7.9569 60.08501 13.97501
1/30/2024 12:52:25 PM 3.455 38.219 0.17715 7.9569 59.32001 13.98752
1/30/2024 1:07:25 PM 3.475 38.255 0.17715 7.9562 59.77 13.97501
1/30/2024 1:22:25 PM 3.4925 38.2865 0.1775 7.9576 59.35001 13.98752
1/30/2024 1:37:25 PM 3.5075 38.3135 0.1775 7.9576 59.52499 13.98752
1/30/2024 1:52:26 PM 3.145 37.661 0.1799501 7.9618 59.215 13.97501
1/30/2024 2:07:25 PM 2.97 37.346 0.181 7.9569 59.03999 13.98752
1/30/2024 2:22:25 PM 3.195 37.751 0.1796499 7.9569 59.27499 13.97501
1/30/2024 2:37:25 PM 3.4025 38.1245 0.17855 7.9555 59.065 13.95001
1/30/2024 2:52:26 PM 3.4575 38.2235 0.1782 7.9597 58.125 13.96249
1/30/2024 3:07:25 PM 3.4725 38.2505 0.1782499 7.9618 59.30499 13.97501
1/30/2024 3:22:26 PM 3.49 38.282 0.1786 7.9618 58.855 13.97501
1/30/2024 3:37:26 PM 3.525 38.345 0.1786 7.9632 58.345 14
1/30/2024 3:52:26 PM 3.525 38.345 0.1782499 7.9625 59.705 13.98752
1/30/2024 4:07:26 PM 3.5425 38.3765 0.1782 7.9604 57.58501 13.97501
1/30/2024 4:22:26 PM 3.3875 38.0975 0.1796 7.9625 58.28 13.98752
1/30/2024 4:37:25 PM 3.04 37.472 0.1817 7.9611 58.07001 13.97501
1/30/2024 4:52:25 PM 2.9725 37.3505 0.1824 7.9646 58.235 13.96249
1/30/2024 5:07:25 PM 2.885 37.193 0.1831 7.9653 58.34 13.96249
1/30/2024 5:22:25 PM 2.8325 37.0985 0.1835 7.9674 57.82001 13.98752
1/30/2024 5:37:25 PM 2.8 37.04 0.18385 7.9681 58.45 13.98752
1/30/2024 5:52:25 PM 2.8525 37.1345 0.1839 7.9674 58.38 14
1/30/2024 6:07:25 PM 3.215 37.787 0.1817501 7.9653 57.895 13.96249
1/30/2024 6:22:25 PM 3.355 38.039 0.1814 7.966 57.53999 13.97501
1/30/2024 6:37:25 PM 3.4225 38.1605 0.1810499 7.9653 58.02499 13.96249
1/30/2024 6:52:25 PM 3.4725 38.2505 0.1810499 7.966 57.745 13.97501
1/30/2024 7:07:25 PM 3.5075 38.3135 0.181 7.9667 58.2 13.97501
1/30/2024 7:22:25 PM 3.51 38.318 0.181 7.9702 58.37 13.96249
1/30/2024 7:37:25 PM 3.525 38.345 0.181 7.9639 56.42 13.96249
1/30/2024 7:52:25 PM 3.5425 38.3765 0.1813501 7.9653 57.99001 13.96249
1/30/2024 8:07:25 PM 3.56 38.408 0.1813 7.966 56.89 13.97501
1/30/2024 8:22:25 PM 3.56 38.408 0.1816499 7.966 57.655 13.97501
1/30/2024 8:37:25 PM 3.5775 38.4395 0.182 7.9758 56.39999 13.98752
1/30/2024 8:52:25 PM 3.265 37.877 0.1841 7.9709 56.685 13.97501
1/30/2024 9:07:25 PM 2.97 37.346 0.1862 7.9723 57.44 13.97501
1/30/2024 9:22:25 PM 2.8675 37.1615 0.1869501 7.9765 56.05 13.96249
1/30/2024 9:37:25 PM 2.8175 37.0715 0.1877 7.9702 55.91 13.96249
1/30/2024 9:52:25 PM 2.7825 37.0085 0.1880499 7.9765 56.39999 13.98752
1/30/2024 10:07:25 PM 2.7475 36.9455 0.1883501 7.9723 55.57001 13.88751
1/30/2024 10:22:25 PM 2.715 36.887 0.1887501 7.9786 54.94501 13.88751
1/30/2024 10:37:25 PM 2.7 36.86 0.1891 7.9779 54.77 13.88751
1/30/2024 10:52:26 PM 2.68 36.824 0.1894 7.9828 55.61 13.89999
1/30/2024 11:07:25 PM 2.6625 36.7925 0.1898 7.9772 54.95 13.91248
1/30/2024 11:22:25 PM 2.6475 36.7655 0.19015 7.9821 55.12 13.89999
1/30/2024 11:37:25 PM 2.89 37.202 0.1887501 7.9772 55.745 13.88751
1/30/2024 11:52:26 PM 3.235 37.823 0.1866499 7.9779 55.11501 13.89999
1/31/2024 12:07:25 AM 3.355 38.039 0.1859 7.9758 55.455 13.89999
1/31/2024 12:22:25 AM 3.3875 38.0975 0.18555 7.9814 55.77 13.89999
1/31/2024 12:37:26 AM 3.44 38.192 0.18555 7.9814 55.595 13.88751
1/31/2024 12:52:26 AM 3.455 38.219 0.1855 7.9744 56.03999 13.875
1/31/2024 1:07:26 AM 3.49 38.282 0.18585 7.9751 55.52 13.875
1/31/2024 1:22:26 AM 3.5075 38.3135 0.18585 7.9807 55.175 13.875
1/31/2024 1:37:26 AM 3.5075 38.3135 0.1862 7.9786 55.625 13.875
1/31/2024 1:52:25 AM 3.5225 38.3405 0.1862 7.98 55.28 13.88751
1/31/2024 2:07:25 AM 3.525 38.345 0.1865 7.9786 54.83 13.875
1/31/2024 2:22:25 AM 3.525 38.345 0.1865 7.9793 55.295 13.89999
1/31/2024 2:37:25 AM 3.54 38.372 0.18685 7.9814 54.60001 13.89999
1/31/2024 2:52:25 AM 3.5425 38.3765 0.18685 7.9807 53.8 13.88751
1/31/2024 3:07:25 AM 3.075 37.535 0.1903501 7.987 54.81 13.88751
1/31/2024 3:22:25 AM 2.8325 37.0985 0.19215 7.987 54.215 13.89999
1/31/2024 3:37:25 AM 2.75 36.95 0.1929 7.9863 54.59 13.88751
1/31/2024 3:52:25 AM 2.6775 36.8195 0.1936 7.9877 52.3 13.89999
1/31/2024 4:07:25 AM 2.6475 36.7655 0.1946499 7.9856 52.86 13.88751
1/31/2024 4:22:25 AM 2.6125 36.7025 0.195 7.992599 51.855 13.91248
1/31/2024 4:37:25 AM 2.595 36.671 0.1957 7.987 52.64999 13.81247
1/31/2024 4:52:25 AM 2.8525 37.1345 0.1939 7.991899 53 13.81247
1/31/2024 5:07:25 AM 3.1825 37.7285 0.19185 7.9863 53.10001 13.79999
1/31/2024 5:22:25 AM 3.32 37.976 0.1907501 7.989799 52.67999 13.79999
1/31/2024 5:37:25 AM 3.3725 38.0705 0.1904 7.991199 52.75 13.79999
1/31/2024 5:52:25 AM 3.405 38.129 0.1904 7.993999 52.125 13.78751
1/31/2024 6:07:25 AM 3.42 38.156 0.1904 7.989799 52.25999 13.79999
1/31/2024 6:22:25 AM 3.4375 38.1875 0.1903501 7.990499 52.36 13.79999
1/31/2024 6:37:25 AM 3.475 38.255 0.1903501 7.991199 52.78 13.78751
1/31/2024 6:52:25 AM 3.475 38.255 0.1903501 7.991199 53.405 13.78751
1/31/2024 7:07:25 AM 3.475 38.255 0.1903501 7.995399 52.36 13.79999
1/31/2024 7:22:25 AM 3.49 38.282 0.1903501 7.994699 52.64 13.78751
1/31/2024 7:37:25 AM 3.5075 38.3135 0.1899501 7.989799 52.235 13.81247
1/31/2024 7:52:25 AM 3.51 38.318 0.19 7.991899 52.92999 13.81247
1/31/2024 8:07:25 AM 3.5075 38.3135 0.1899501 7.994699 52.48 13.79999
1/31/2024 8:22:25 AM 3.4725 38.2505 0.1903 7.990499 52.86 13.79999
1/31/2024 8:37:25 AM 2.9875 37.3775 0.19385 7.996799 51.99001 13.88751
1/31/2024 8:52:26 AM 2.7975 37.0355 0.1952499 7.996799 47.925 13.81247
1/31/2024 9:07:25 AM 2.73 36.914 0.196 7.996099 49.035 13.79999
1/31/2024 9:22:26 AM 2.68 36.824 0.1963501 7.991899 48.03 13.81247
1/31/2024 9:37:26 AM 2.665 36.797 0.1967 7.991199 48.935 13.79999
1/31/2024 9:52:26 AM 2.6425 36.7565 0.1967 7.996099 48.45 13.81247
1/31/2024 10:07:26 AM 2.6275 36.7295 0.1970499 7.995399 48.345 13.81247
1/31/2024 10:22:26 AM 2.6275 36.7295 0.1970499 7.997499 47.50999 13.81247
1/31/2024 10:37:26 AM 2.6275 36.7295 0.1970499 7.996799 48.35001 13.81247
1/31/2024 10:52:25 AM 2.8025 37.0445 0.196 7.996799 48.24001 13.79999
1/31/2024 11:07:25 AM 3.2025 37.7645 0.1936 7.997499 48.13499 13.81247
1/31/2024 11:22:25 AM 3.39 38.102 0.1925 7.996799 47.75 13.81247
1/31/2024 11:37:25 AM 3.4775 38.2595 0.1918 7.994699 47.995 13.78751
1/31/2024 11:52:25 AM 3.5275 38.3495 0.1914 7.993999 47.815 13.79999
1/31/2024 12:07:25 PM 3.56 38.408 0.1914 7.993999 47.05499 13.79999
1/31/2024 12:22:25 PM 3.615 38.507 0.1910499 7.994699 47.5 13.78751
1/31/2024 12:37:25 PM 3.63 38.534 0.191 7.993999 47.33 13.77499
1/31/2024 12:52:25 PM 3.6625 38.5925 0.1907 7.999599 47.88499 13.79999
1/31/2024 1:07:25 PM 3.6825 38.6285 0.191 7.999599 48 13.79999
1/31/2024 1:22:25 PM 3.6975 38.6555 0.191 7.996099 47.50999 13.81247
1/31/2024 1:37:25 PM 3.735 38.723 0.191 7.996099 47.47501 13.79999
1/31/2024 1:52:25 PM 3.475 38.255 0.19315 7.996099 47.345 13.79999
1/31/2024 2:07:25 PM 3.145 37.661 0.19555 7.999599 46.63499 13.79999
1/31/2024 2:22:25 PM 3.06 37.508 0.1963 7.996099 47.61 13.78751
1/31/2024 2:37:25 PM 3.0075 37.4135 0.1970499 7.996799 47.72 13.81247
1/31/2024 2:52:25 PM 2.9775 37.3595 0.1974 8.000999 46.36501 13.79999
1/31/2024 3:07:25 PM 2.96 37.328 0.1977 7.994699 47.64999 13.79999
1/31/2024 3:22:25 PM 2.96 37.328 0.1977501 7.996799 47.50999 13.81247
1/31/2024 3:37:25 PM 2.975 37.355 0.1977501 7.997499 46.645 13.81247
1/31/2024 3:52:25 PM 2.96 37.328 0.1980499 8.000999 47.48 13.81247
1/31/2024 4:07:25 PM 2.96 37.328 0.19845 7.996099 46.82001 13.79999
1/31/2024 4:22:25 PM 2.96 37.328 0.1988 8.000299 46.715 13.81247
1/31/2024 4:37:25 PM 2.9575 37.3235 0.1988 7.998199 46.82001 13.82501
1/31/2024 4:52:26 PM 3.0825 37.5485 0.1977501 8.001699 47.235 13.81247
1/31/2024 5:07:25 PM 3.48 38.264 0.1949501 8.001699 47.78999 13.79999
1/31/2024 5:22:25 PM 3.685 38.633 0.1935 8.000299 46.05 13.79999
1/31/2024 5:37:25 PM 3.735 38.723 0.1932 7.993999 46.565 13.78751
1/31/2024 5:52:26 PM 3.77 38.786 0.1928 7.998899 47.095 13.78751
1/31/2024 6:07:26 PM 3.8025 38.8445 0.1927501 8.004499 46.5 13.78751
1/31/2024 6:22:26 PM 3.8225 38.8805 0.1927501 7.999599 46.63499 13.78751
1/31/2024 6:37:26 PM 3.8375 38.9075 0.1927501 8.004499 45.7 13.78751
1/31/2024 6:52:26 PM 3.855 38.939 0.1927501 8.005199 45.8 13.79999
1/31/2024 7:07:26 PM 3.8725 38.9705 0.1931 8.000999 45.77499 13.81247
1/31/2024 7:22:26 PM 3.89 39.002 0.19345 8.000299 46.89 13.79999
1/31/2024 7:37:26 PM 3.9075 39.0335 0.19345 8.000999 46.44 13.81247
1/31/2024 7:52:25 PM 3.665 38.597 0.1952 8.005899 45.845 13.82501
1/31/2024 8:07:25 PM 3.3 37.94 0.1976499 8.004499 45.97501 13.79999
1/31/2024 8:22:25 PM 3.2 37.76 0.1987501 8.000299 46.36 13.79999
1/31/2024 8:37:25 PM 3.13 37.634 0.1994 8.006599 45.67 13.81247
1/31/2024 8:52:25 PM 3.1125 37.6025 0.1998 8.002399 46.465 13.81247
1/31/2024 9:07:25 PM 3.0975 37.5755 0.20015 8.005899 45.53 13.79999
1/31/2024 9:22:25 PM 3.045 37.481 0.20085 8.000999 45.495 13.81247
1/31/2024 9:37:25 PM 3.01 37.418 0.2012 8.007299 46.25999 13.81247
1/31/2024 9:52:25 PM 2.9775 37.3595 0.20155 8.005899 46.39999 13.73752
1/31/2024 10:07:25 PM 2.9775 37.3595 0.2019501 8.006599 46.44 13.72501
1/31/2024 10:22:25 PM 2.9775 37.3595 0.2019 8.010099 45.745 13.72501
1/31/2024 10:37:25 PM 2.96 37.328 0.2022499 8.012199 44.7 13.73752
1/31/2024 10:52:25 PM 2.96 37.328 0.2026 8.011499 45.08 13.72501
1/31/2024 11:07:25 PM 2.9775 37.3595 0.2029501 8.007299 45.57001 13.71249
1/31/2024 11:22:25 PM 2.96 37.328 0.2033 8.010799 44.14999 13.72501
1/31/2024 11:37:25 PM 2.96 37.328 0.2036 8.012899 44.32001 13.73752
1/31/2024 11:52:25 PM 2.945 37.301 0.2043501 8.017099 45.265 13.73752
2/1/2024 12:07:25 AM 2.945 37.301 0.205 8.015699 44.25 13.73752
2/1/2024 12:22:25 AM 2.9425 37.2965 0.2057 8.015699 44.425 13.72501
2/1/2024 12:37:25 AM 2.96 37.328 0.2060499 8.017799 45.19 13.72501
2/1/2024 12:52:25 AM 2.9625 37.3325 0.2064 8.015699 45.74001 13.72501
2/1/2024 1:07:25 AM 2.96 37.328 0.2067501 8.021999 44.80499 13.75
2/1/2024 1:22:25 AM 2.925 37.265 0.2071 8.022699 42.935 13.73752
2/1/2024 1:37:25 AM 3.1175 37.6115 0.2060499 8.021299 42.515 13.72501
2/1/2024 1:52:25 AM 3.465 38.237 0.2036 8.020599 42.47501 13.71249
2/1/2024 2:07:25 AM 3.6525 38.5745 0.20285 8.014999 42.02499 13.72501
2/1/2024 2:22:25 AM 3.755 38.759 0.20215 8.019899 42.3 13.63751
2/1/2024 2:37:25 AM 3.77 38.786 0.20215 8.014299 43.895 13.625
2/1/2024 2:52:26 AM 3.7525 38.7545 0.2025 8.014299 42.435 13.625
2/1/2024 3:07:25 AM 3.77 38.786 0.2025 8.014999 42.23 13.63751
2/1/2024 3:22:26 AM 3.7675 38.7815 0.2025 8.018499 41.77499 13.625
2/1/2024 3:37:26 AM 3.7875 38.8175 0.2025 8.014299 41.705 13.61249
2/1/2024 3:52:26 AM 3.7875 38.8175 0.20215 8.020599 42.745 13.63751
2/1/2024 4:07:26 AM 3.8025 38.8445 0.20215 8.014999 42.36501 13.625
2/1/2024 4:22:26 AM 3.805 38.849 0.20215 8.019199 42.42999 13.625
2/1/2024 4:37:26 AM 3.8025 38.8445 0.2021 8.018499 42.61 13.61249
2/1/2024 4:52:26 AM 3.82 38.876 0.20215 8.019899 42.14999 13.625
2/1/2024 5:07:25 AM 3.82 38.876 0.2021 8.019199 41.705 13.61249
2/1/2024 5:22:25 AM 3.82 38.876 0.2021 8.019899 42.05 13.625
2/1/2024 5:37:25 AM 3.8375 38.9075 0.2021 8.014299 42.12 13.625
2/1/2024 5:52:25 AM 3.8725 38.9705 0.2018 8.034599 39 13.54999
2/1/2024 6:07:25 AM 3.8725 38.9705 0.2017501 8.028299 39.205 13.61249
2/1/2024 6:22:25 AM 3.8725 38.9705 0.2014 8.028999 39.205 13.625
2/1/2024 6:37:25 AM 3.87 38.966 0.20145 8.019899 39.03 13.625
2/1/2024 6:52:25 AM 3.8725 38.9705 0.20145 8.018499 39.69 13.61249
2/1/2024 7:07:25 AM 3.875 38.975 0.2014 8.019899 40.035 13.625
2/1/2024 7:22:25 AM 3.89 39.002 0.2017501 8.010099 39.095 13.625
2/1/2024 7:37:25 AM 3.89 39.002 0.2014 8.014999 39.69 13.625
2/1/2024 7:52:25 AM 3.89 39.002 0.20145 8.014999 39.62 13.625
2/1/2024 8:07:25 AM 3.89 39.002 0.2014 8.014299 39.345 13.625
2/1/2024 8:22:25 AM 3.89 39.002 0.2014 8.008699 38.995 13.61249
2/1/2024 8:37:25 AM 3.8875 38.9975 0.2010499 8.015699 39.13499 13.61249
2/1/2024 8:52:25 AM 3.89 39.002 0.2010499 8.012899 38.855 13.61249
2/1/2024 9:07:25 AM 3.8875 38.9975 0.2014 8.014999 39.62 13.61249
2/1/2024 9:22:25 AM 3.89 39.002 0.2011 8.014299 39.41 13.61249
2/1/2024 9:37:25 AM 3.9075 39.0335 0.20145 8.014999 39.58501 13.625
2/1/2024 9:52:25 AM 3.9075 39.0335 0.2014 8.014999 39.42 13.64999
2/1/2024 10:07:25 AM 3.9075 39.0335 0.2017501 8.016399 38.8 13.63751
2/1/2024 10:22:25 AM 3.89 39.002 0.2021 8.014999 40.74001 13.625
2/1/2024 10:37:25 AM 3.91 39.038 0.2021 8.015699 39.98 13.63751
2/1/2024 10:52:25 AM 3.9075 39.0335 0.2021 8.015699 40.77499 13.63751
2/1/2024 11:07:25 AM 3.925 39.065 0.2021 8.018499 40.53 13.63751
2/1/2024 11:22:25 AM 3.9425 39.0965 0.2021 8.019899 41.05499 13.625
2/1/2024 11:37:25 AM 3.9425 39.0965 0.2021 8.016399 40.465 13.64999
2/1/2024 11:52:26 AM 3.9425 39.0965 0.2021 8.014999 41.08501 13.625
2/1/2024 12:07:25 PM 3.945 39.101 0.20245 8.019899 41.02 13.625
2/1/2024 12:22:25 PM 3.96 39.128 0.20245 8.020599 41.575 13.63751
2/1/2024 12:37:26 PM 3.96 39.128 0.20245 8.025499 40.745 13.63751
2/1/2024 12:52:26 PM 3.96 39.128 0.2028 8.014299 40.67 13.63751
2/1/2024 1:07:26 PM 3.9775 39.1595 0.2028 8.020599 40.495 13.625
2/1/2024 1:22:26 PM 3.975 39.155 0.20245 8.024799 40.745 13.63751
2/1/2024 1:37:26 PM 3.9775 39.1595 0.2024 8.024099 40.255 13.625
2/1/2024 1:52:26 PM 3.9925 39.1865 0.20245 8.025499 39.80499 13.625
2/1/2024 2:07:25 PM 4.01 39.218 0.2024 8.019899 39.38499 13.64999
2/1/2024 2:22:25 PM 4.03 39.254 0.20245 8.019899 39.38499 13.64999
2/1/2024 2:37:25 PM 4.03 39.254 0.2028 8.020599 38.83501 13.63751
2/1/2024 2:52:25 PM 4.0475 39.2855 0.2028 8.014999 39.315 13.63751
2/1/2024 3:07:25 PM 4.0475 39.2855 0.20315 8.021999 39.52499 13.63751
2/1/2024 3:22:25 PM 4.0625 39.3125 0.20315 8.016399 39.39 13.63751
2/1/2024 3:37:25 PM 4.0625 39.3125 0.20345 8.019199 38.905 13.625
2/1/2024 3:52:25 PM 4.08 39.344 0.20345 8.019899 39.075 13.63751
2/1/2024 4:07:25 PM 4.0775 39.3395 0.20345 8.020599 39.035 13.63751
2/1/2024 4:22:25 PM 4.0975 39.3755 0.2031 8.020599 39 13.63751
2/1/2024 4:37:25 PM 4.0975 39.3755 0.20345 8.019899 38.52 13.625
2/1/2024 4:52:25 PM 4.0975 39.3755 0.2035 8.020599 38.55 13.625
2/1/2024 5:07:25 PM 4.115 39.407 0.20345 8.020599 38.97 13.64999
2/1/2024 5:22:25 PM 4.095 39.371 0.2038 8.020599 38.31 13.63751
2/1/2024 5:37:25 PM 4.115 39.407 0.2038 8.019899 37.855 13.54999
2/1/2024 5:52:25 PM 4.1125 39.4025 0.2038 8.019899 38.935 13.63751
2/1/2024 6:07:25 PM 4.115 39.407 0.2035 8.021299 38.72501 13.56247
2/1/2024 6:22:25 PM 4.1175 39.4115 0.20345 8.024099 38.58501 13.54999
2/1/2024 6:37:25 PM 4.1325 39.4385 0.20345 8.024799 38.83 13.56247
2/1/2024 6:52:26 PM 3.995 39.191 0.20455 8.021299 38.69 13.53751
2/1/2024 7:07:25 PM 3.5975 38.4755 0.2073 8.024099 39.14999 13.54999
2/1/2024 7:22:25 PM 3.475 38.255 0.2084 8.024099 39.24001 13.53751
2/1/2024 7:37:25 PM 3.425 38.165 0.2091 8.025499 39.105 13.54999
2/1/2024 7:52:26 PM 3.4075 38.1335 0.2095 8.026199 38.75999 13.54999
2/1/2024 8:07:25 PM 3.3925 38.1065 0.2098 8.024099 38.895 13.53751
2/1/2024 8:22:25 PM 3.3725 38.0705 0.21015 8.029699 38.27499 13.53751
2/1/2024 8:37:25 PM 3.36 38.048 0.21015 8.024099 39.315 13.53751
2/1/2024 8:52:26 PM 3.34 38.012 0.21055 8.021999 39.17 13.54999
2/1/2024 9:07:25 PM 3.3225 37.9805 0.21055 8.025499 38.97 13.54999
2/1/2024 9:22:25 PM 3.3225 37.9805 0.2105 8.028999 39.83501 13.53751
2/1/2024 9:37:25 PM 3.305 37.949 0.2109 8.026899 39.39 13.56247
2/1/2024 9:52:26 PM 3.3075 37.9535 0.2112 8.028999 38.375 13.54999
2/1/2024 10:07:26 PM 3.305 37.949 0.2112 8.030399 38.86501 13.54999
2/1/2024 10:22:26 PM 3.29 37.922 0.2112 8.025499 38.065 13.54999
2/1/2024 10:37:26 PM 3.2875 37.9175 0.2112499 8.026199 38.94 13.54999
2/1/2024 10:52:26 PM 3.29 37.922 0.2112 8.030399 37.895 13.53751
2/1/2024 11:07:25 PM 3.29 37.922 0.2112499 8.026199 38.59 13.54999
2/1/2024 11:22:25 PM 3.29 37.922 0.2112499 8.029699 39.63 13.54999
2/1/2024 11:37:25 PM 3.3075 37.9535 0.2112499 8.031099 38.86501 13.53751
2/1/2024 11:52:25 PM 3.3075 37.9535 0.2112499 8.029699 38.69501 13.54999
2/2/2024 12:07:25 AM 3.3075 37.9535 0.2116 8.028999 40.28999 13.54999
2/2/2024 12:22:25 AM 3.325 37.985 0.21155 8.035299 45.015 13.54999
2/2/2024 12:37:25 AM 3.325 37.985 0.2116 8.040199 44.94501 13.54999
2/2/2024 12:52:25 AM 3.325 37.985 0.2119 8.034599 42.44501 13.54999
2/2/2024 1:07:25 AM 3.3225 37.9805 0.2123 8.031799 39.84 13.47501
2/2/2024 1:22:25 AM 3.3225 37.9805 0.2126499 8.031799 40.08501 13.47501
2/2/2024 1:37:25 AM 3.3075 37.9535 0.2126499 8.031099 39.215 13.47501
2/2/2024 1:52:25 AM 3.3075 37.9535 0.2129501 8.030399 39.32001 13.46249
2/2/2024 2:07:25 AM 3.3075 37.9535 0.2129501 8.031799 38.75999 13.47501
2/2/2024 2:22:25 AM 3.3075 37.9535 0.2133501 8.030399 38.62 13.46249
2/2/2024 2:37:25 AM 3.5 38.3 0.2126499 8.029699 38.73 13.46249
2/2/2024 2:52:25 AM 3.845 38.921 0.2102 8.030399 38.75999 13.46249
2/2/2024 3:07:25 AM 4.015 39.227 0.20945 8.033899 38.13 13.45001
2/2/2024 3:22:25 AM 4.0475 39.2855 0.2090499 8.030399 38.405 13.47501
2/2/2024 3:37:25 AM 4.065 39.317 0.2090499 8.029699 38.785 13.46249
2/2/2024 3:52:25 AM 4.0825 39.3485 0.2090499 8.027599 37.61 13.45001
2/2/2024 4:07:25 AM 4.1175 39.4115 0.2090499 8.033899 38.06 13.45001
2/2/2024 4:22:25 AM 4.1325 39.4385 0.2090499 8.033899 38.235 13.45001
2/2/2024 4:37:25 AM 4.15 39.47 0.2090499 8.033199 38.61 13.45001
2/2/2024 4:52:25 AM 4.1475 39.4655 0.209 8.033899 39.34 13.45001
2/2/2024 5:07:25 AM 4.185 39.533 0.209 8.034599 38.78 13.46249
2/2/2024 5:22:25 AM 4.2 39.56 0.2093501 8.034599 39.75999 13.46249
2/2/2024 5:37:25 AM 4.2025 39.5645 0.2097 8.034599 39.425 13.46249
2/2/2024 5:52:26 AM 4.22 39.596 0.2097 8.031099 39.80499 13.47501
2/2/2024 6:07:25 AM 4.22 39.596 0.2097 8.029699 38.75999 13.46249
2/2/2024 6:22:25 AM 4.2375 39.6275 0.2097 8.035299 39.595 13.47501
2/2/2024 6:37:25 AM 4.2375 39.6275 0.2097 8.035299 39.97501 13.47501
2/2/2024 6:52:26 AM 4.2375 39.6275 0.2096499 8.033899 39.175 13.45001
2/2/2024 7:07:26 AM 4.255 39.659 0.2096499 8.034599 39.7 13.45001
2/2/2024 7:22:26 AM 4.045 39.281 0.2114 8.030399 39.42 13.375
2/2/2024 7:37:26 AM 3.665 38.597 0.2142499 8.028999 39.48 13.375
2/2/2024 7:52:26 AM 3.8225 38.8805 0.2132 8.034599 38.925 13.375
2/2/2024 8:07:26 AM 4.1 39.38 0.2111 8.028999 38.92999 13.36249
2/2/2024 8:22:25 AM 4.1675 39.5015 0.2104 8.034599 39.69 13.375
2/2/2024 8:37:25 AM 4.2025 39.5645 0.2100499 8.033899 39.38 13.35001
2/2/2024 8:52:25 AM 4.2375 39.6275 0.2097 8.033899 39.83501 13.375
2/2/2024 9:07:25 AM 4.2375 39.6275 0.2093501 8.028299 39.39 13.375
2/2/2024 9:22:25 AM 4.2575 39.6635 0.2090499 8.035299 38.27499 13.375
2/2/2024 9:37:25 AM 3.9275 39.0695 0.21145 8.033899 39.03999 13.375
2/2/2024 9:52:25 AM 3.735 38.723 0.21285 8.033899 39.73 13.36249
2/2/2024 10:07:25 AM 4.065 39.317 0.2107501 8.028999 38.685 13.375
2/2/2024 10:22:25 AM 4.1675 39.5015 0.2100499 8.033199 38.82001 13.36249
2/2/2024 10:37:25 AM 4.22 39.596 0.2097 8.033899 38.645 13.43753
2/2/2024 10:52:25 AM 4.29 39.722 0.2093501 8.040199 36.955 13.375
2/2/2024 11:07:25 AM 4.185 39.533 0.2100499 8.035999 36.85001 13.38751
2/2/2024 11:22:25 AM 3.9425 39.0965 0.2118 8.040899 36.645 13.47501
2/2/2024 11:37:25 AM 4.1 39.38 0.2107501 8.035299 36.61 13.47501
2/2/2024 11:52:25 AM 4.2225 39.6005 0.2100499 8.035299 37.13 13.46249
2/2/2024 12:07:25 PM 4.275 39.695 0.2094 8.043699 36.715 13.45001
2/2/2024 12:22:25 PM 4.325 39.785 0.209 8.045099 36.955 13.47501
2/2/2024 12:37:25 PM 4.3925 39.9065 0.209 8.039499 36.92 13.46249
2/2/2024 12:52:25 PM 4.2025 39.5645 0.2104 8.045799 37.02499 13.47501
2/2/2024 1:07:25 PM 4.05 39.29 0.21145 8.043699 36.19501 13.45001
2/2/2024 1:22:25 PM 4.2375 39.6275 0.2104 8.035299 37.44 13.46249
2/2/2024 1:37:25 PM 4.3425 39.8165 0.2097501 8.040899 35.74001 13.47501
2/2/2024 1:52:25 PM 4.4125 39.9425 0.2094 8.039499 35.67 13.45001
2/2/2024 2:07:25 PM 4.495 40.091 0.2086499 8.033899 37.685 13.46249
2/2/2024 2:22:25 PM 4.55 40.19 0.2083 8.043699 36.95 13.45001
2/2/2024 2:37:25 PM 4.5475 40.1855 0.2083 8.040199 38.55 13.38751
2/2/2024 2:52:25 PM 4.1525 39.4745 0.21145 8.038799 37.06 13.375
2/2/2024 3:07:25 PM 4.1875 39.5375 0.21145 8.039499 35.91499 13.375
2/2/2024 3:22:25 PM 4.43 39.974 0.2100499 8.040899 35.155 13.38751
2/2/2024 3:37:25 PM 4.4625 40.0325 0.2097 8.038799 35.325 13.36249
2/2/2024 3:52:26 PM 4.4975 40.0955 0.2097 8.040899 35.91499 13.38751
2/2/2024 4:07:26 PM 4.515 40.127 0.2097 8.045099 36.015 13.375
2/2/2024 4:22:26 PM 4.4975 40.0955 0.2093501 8.049299 35.91499 13.36249
2/2/2024 4:37:26 PM 4.5125 40.1225 0.209 8.043699 35.84 13.375
2/2/2024 4:52:26 PM 4.515 40.127 0.2089501 8.042999 35.565 13.38751
2/2/2024 5:07:25 PM 4.515 40.127 0.209 8.049299 35.46001 13.375
2/2/2024 5:22:25 PM 4.515 40.127 0.209 8.049299 35.91 13.375
2/2/2024 5:37:25 PM 4.515 40.127 0.209 8.043699 36.125 13.36249
2/2/2024 5:52:25 PM 4.495 40.091 0.209 8.049299 35.425 13.38751
2/2/2024 6:07:25 PM 4.515 40.127 0.209 8.045099 35.5 13.38751
2/2/2024 6:22:25 PM 4.5125 40.1225 0.209 8.044399 36.12 13.375
2/2/2024 6:37:25 PM 4.4975 40.0955 0.209 8.044399 35.535 13.36249
2/2/2024 6:52:25 PM 4.4975 40.0955 0.2086499 8.043699 36.19501 13.375
2/2/2024 7:07:25 PM 4.495 40.091 0.2086499 8.045099 36.36501 13.38751
2/2/2024 7:22:25 PM 4.495 40.091 0.2086499 8.050699 35.735 13.38751
2/2/2024 7:37:25 PM 4.48 40.064 0.2086499 8.048599 36.5 13.375
2/2/2024 7:52:25 PM 4.48 40.064 0.2086499 8.049299 35.74001 13.375
2/2/2024 8:07:25 PM 4.4925 40.0865 0.209 8.049299 36.05 13.38751
2/2/2024 8:22:25 PM 4.4975 40.0955 0.209 8.048599 35.845 13.375
2/2/2024 8:37:25 PM 4.495 40.091 0.209 8.049299 36.575 13.38751
2/2/2024 8:52:25 PM 4.48 40.064 0.2086499 8.047899 35.91 13.36249
2/2/2024 9:07:25 PM 4.4975 40.0955 0.2083 8.048599 35.675 13.36249
2/2/2024 9:22:25 PM 4.4975 40.0955 0.2083 8.049299 36.47 13.36249
2/2/2024 9:37:25 PM 4.4775 40.0595 0.2083 8.049299 36.5 13.38751
2/2/2024 9:52:25 PM 4.48 40.064 0.2082499 8.048599 35.67 13.375
2/2/2024 10:07:25 PM 3.98 39.164 0.2118 8.048599 36.75 13.375
2/2/2024 10:22:25 PM 3.755 38.759 0.2132499 8.048599 36.5 13.375
2/2/2024 10:37:25 PM 3.7375 38.7275 0.2132499 8.050699 35.94501 13.375
2/2/2024 10:52:25 PM 4.1375 39.4475 0.2101 8.049299 37.09 13.36249
2/2/2024 11:07:25 PM 4.325 39.785 0.2083501 8.048599 35.94 13.36249
2/2/2024 11:22:25 PM 4.3575 39.8435 0.2076499 8.052799 36.705 13.375
2/2/2024 11:37:25 PM 4.3925 39.9065 0.2073 8.053499 36.94501 13.36249
2/2/2024 11:52:25 PM 4.41 39.938 0.2069501 8.052799 36.495 13.36249
2/3/2024 12:07:25 AM 4.4275 39.9695 0.2066 8.049299 37.19 13.375
2/3/2024 12:22:25 AM 4.4275 39.9695 0.2062499 8.053499 38.33 13.36249
2/3/2024 12:37:25 AM 4.4625 40.0325 0.2062499 8.048599 38.75999 13.375
2/3/2024 12:52:26 AM 4.48 40.064 0.20585 8.048599 38.73 13.375
2/3/2024 1:07:25 AM 4.48 40.064 0.2059 8.049299 38.905 13.375
2/3/2024 1:22:26 AM 4.1 39.38 0.2083501 8.045099 38.97 13.38751
2/3/2024 1:37:26 AM 3.77 38.786 0.2105 8.048599 38.685 13.375
2/3/2024 1:52:26 AM 3.6525 38.5745 0.2115 8.049299 38.13499 13.36249
2/3/2024 2:07:26 AM 3.565 38.417 0.2119 8.049299 37.785 13.38751
2/3/2024 2:22:26 AM 3.86 38.948 0.2098 8.049299 38.89999 13.375
2/3/2024 2:37:25 AM 4.1875 39.5375 0.2073501 8.050699 38.965 13.375
2/3/2024 2:52:25 AM 4.29 39.722 0.2063 8.047899 38.125 13.375
2/3/2024 3:07:25 AM 4.3225 39.7805 0.2059501 8.043699 37.535 13.375
2/3/2024 3:22:25 AM 4.3425 39.8165 0.20555 8.043699 38.36501 13.375
2/3/2024 3:37:25 AM 4.3575 39.8435 0.2052499 8.043699 36.7 13.36249
2/3/2024 3:52:25 AM 4.3575 39.8435 0.20485 8.038799 37.77499 13.35001
2/3/2024 4:07:25 AM 4.375 39.875 0.2045 8.043699 37.33501 13.375
2/3/2024 4:22:25 AM 3.995 39.191 0.2069501 8.044399 37.37 13.38751
2/3/2024 4:37:25 AM 3.6325 38.5385 0.20945 8.048599 36.705 13.45001
2/3/2024 4:52:25 AM 3.495 38.291 0.2105 8.045099 37.645 13.46249
2/3/2024 5:07:25 AM 3.7575 38.7635 0.2087501 8.045099 36.815 13.46249
2/3/2024 5:22:25 AM 4.0325 39.2585 0.2066499 8.049299 36.255 13.45001
2/3/2024 5:37:25 AM 4.135 39.443 0.2059501 8.048599 36.00999 13.35001
2/3/2024 5:52:25 AM 4.15 39.47 0.2059501 8.052799 35.66 13.36249
2/3/2024 6:07:25 AM 4.15 39.47 0.2059501 8.049299 36.14999 13.375
2/3/2024 6:22:25 AM 4.1675 39.5015 0.2056 8.043699 35.52 13.36249
2/3/2024 6:37:25 AM 4.1675 39.5015 0.2052499 8.042999 35.83501 13.36249
2/3/2024 6:52:25 AM 4.1675 39.5015 0.2052499 8.048599 36.17999 13.35001
2/3/2024 7:07:25 AM 4.15 39.47 0.20485 8.047199 35.52 13.45001
2/3/2024 7:22:25 AM 4.15 39.47 0.20485 8.042299 36.045 13.45001
2/3/2024 7:37:25 AM 4.1325 39.4385 0.2052499 8.042999 34.755 13.45001
2/3/2024 7:52:25 AM 4.1175 39.4115 0.20485 8.048599 35.77 13.46249
2/3/2024 8:07:25 AM 4.0975 39.3755 0.20485 8.045799 35.36 13.47501
2/3/2024 8:22:25 AM 4.0975 39.3755 0.20485 8.044399 35.22 13.46249
2/3/2024 8:37:25 AM 4.0975 39.3755 0.20485 8.045099 36.09 13.46249
2/3/2024 8:52:26 AM 4.08 39.344 0.20485 8.044399 35.185 13.46249
2/3/2024 9:07:25 AM 4.0825 39.3485 0.20455 8.044399 35.42999 13.46249
2/3/2024 9:22:25 AM 4.0625 39.3125 0.20455 8.044399 35.25 13.47501
2/3/2024 9:37:25 AM 4.0475 39.2855 0.2045 8.044399 35.045 13.46249
2/3/2024 9:52:26 AM 4.0475 39.2855 0.20455 8.045799 35.53 13.46249
2/3/2024 10:07:26 AM 4.045 39.281 0.2045 8.045099 35.36 13.47501
2/3/2024 10:22:26 AM 4.045 39.281 0.20485 8.044399 34.35001 13.46249
2/3/2024 10:37:26 AM 4.0625 39.3125 0.2045 8.044399 34.73 13.54999
2/3/2024 10:52:26 AM 4.0625 39.3125 0.20455 8.045099 35.565 13.53751
2/3/2024 11:07:26 AM 4.065 39.317 0.2045 8.042999 35.465 13.53751
2/3/2024 11:22:26 AM 4.0975 39.3755 0.20415 8.050699 35.36 13.56247
2/3/2024 11:37:25 AM 4.1325 39.4385 0.2038 8.047899 35.185 13.53751
2/3/2024 11:52:25 AM 4.1675 39.5015 0.2038 8.048599 35.25 13.53751
2/3/2024 12:07:25 PM 4.2025 39.5645 0.20345 8.048599 35.185 13.53751
2/3/2024 12:22:25 PM 4.2375 39.6275 0.2035 8.049999 35.14999 13.56247
2/3/2024 12:37:25 PM 4.2525 39.6545 0.20345 8.048599 35.285 13.54999
2/3/2024 12:52:25 PM 4.2725 39.6905 0.20345 8.049299 35.495 13.53751
2/3/2024 1:07:25 PM 4.305 39.749 0.20315 8.049299 35.17999 13.54999
2/3/2024 1:22:25 PM 4.3375 39.8075 0.2031 8.049299 36.015 13.56247
2/3/2024 1:37:25 PM 4.3575 39.8435 0.2031 8.057699 35.46001 13.53751
2/3/2024 1:52:25 PM 4.3725 39.8705 0.2031 8.045799 35.565 13.54999
2/3/2024 2:07:25 PM 4.3725 39.8705 0.20345 8.048599 36.015 13.54999
2/3/2024 2:22:25 PM 3.925 39.065 0.2069501 8.045099 35.815 13.54999
2/3/2024 2:37:25 PM 3.9775 39.1595 0.2069501 8.047199 35.66499 13.53751
2/3/2024 2:52:25 PM 4.27 39.686 0.2049 8.043699 35.66499 13.53751
2/3/2024 3:07:25 PM 4.375 39.875 0.2045 8.042999 35.69501 13.52499
2/3/2024 3:22:25 PM 4.43 39.974 0.2042 8.044399 36.02 13.57501
2/3/2024 3:37:25 PM 4.445 40.001 0.20415 8.043699 35.28999 13.54999
2/3/2024 3:52:25 PM 4.46 40.028 0.2042 8.043699 35.91499 13.54999
2/3/2024 4:07:25 PM 4.4625 40.0325 0.2038 8.044399 35.88 13.54999
2/3/2024 4:22:25 PM 4.445 40.001 0.20415 8.045099 36.05 13.54999
2/3/2024 4:37:25 PM 4.445 40.001 0.20415 8.045799 36.25999 13.54999
2/3/2024 4:52:25 PM 4.4275 39.9695 0.20415 8.044399 35.98 13.53751
2/3/2024 5:07:25 PM 4.4075 39.9335 0.2045 8.045799 36.22501 13.54999
2/3/2024 5:22:25 PM 4.41 39.938 0.2045 8.048599 36.36 13.53751
2/3/2024 5:37:25 PM 4.3925 39.9065 0.2045 8.045099 36.22501 13.56247
2/3/2024 5:52:26 PM 4.3575 39.8435 0.20485 8.050699 36.015 13.56247
2/3/2024 6:07:25 PM 4.34 39.812 0.20485 8.047899 35.845 13.54999
2/3/2024 6:22:25 PM 4.3225 39.7805 0.20485 8.049999 36.575 13.54999
2/3/2024 6:37:25 PM 4.305 39.749 0.20485 8.048599 36.25999 13.53751
2/3/2024 6:52:26 PM 4.3075 39.7535 0.20485 8.048599 35.91499 13.53751
2/3/2024 7:07:25 PM 4.305 39.749 0.20485 8.045799 35.255 13.54999
2/3/2024 7:22:26 PM 4.305 39.749 0.20485 8.054899 35.74001 13.64999
2/3/2024 7:37:26 PM 4.2875 39.7175 0.2052 8.049999 35.91499 13.56247
2/3/2024 7:52:26 PM 4.29 39.722 0.2052499 8.049299 36.78 13.54999
2/3/2024 8:07:26 PM 4.2875 39.7175 0.2052 8.049299 35.42999 13.625
2/3/2024 8:22:26 PM 4.29 39.722 0.20555 8.054899 36.19 13.53751
2/3/2024 8:37:26 PM 4.27 39.686 0.20555 8.049999 35.605 13.56247
2/3/2024 8:52:25 PM 4.29 39.722 0.2059 8.050699 36.575 13.47501
2/3/2024 9:07:25 PM 4.29 39.722 0.2059 8.048599 36.155 13.46249
2/3/2024 9:22:25 PM 4.2875 39.7175 0.2059 8.049299 35.845 13.46249
2/3/2024 9:37:25 PM 4.29 39.722 0.2059 8.055599 35.95 13.47501
2/3/2024 9:52:25 PM 4.255 39.659 0.2062 8.049299 35.88 13.56247
2/3/2024 10:07:25 PM 4.2575 39.6635 0.2062499 8.049299 35.53 13.53751
2/3/2024 10:22:25 PM 4.255 39.659 0.2062 8.052799 35.17999 13.46249
2/3/2024 10:37:25 PM 4.2525 39.6545 0.20655 8.049299 35.875 13.54999
2/3/2024 10:52:25 PM 4.255 39.659 0.20655 8.048599 35.395 13.46249
2/3/2024 11:07:25 PM 4.2375 39.6275 0.2066 8.054199 35.745 13.46249
2/3/2024 11:22:25 PM 4.22 39.596 0.2069501 8.054199 35.28999 13.56247
2/3/2024 11:37:25 PM 4.2175 39.5915 0.2069501 8.051399 35.74001 13.56247
2/3/2024 11:52:25 PM 4.2375 39.6275 0.2069501 8.050699 35.95 13.56247
2/4/2024 12:07:25 AM 4.22 39.596 0.2073 8.050699 37.92999 13.56247
2/4/2024 12:22:25 AM 4.22 39.596 0.2072499 8.050699 42.235 13.56247
2/4/2024 12:37:25 AM 4.2375 39.6275 0.2072499 8.064699 40.63499 13.54999
2/4/2024 12:52:25 AM 3.7175 38.6915 0.21115 8.059799 37.935 13.56247
2/4/2024 1:07:25 AM 3.3525 38.0345 0.2143 8.058399 36.28999 13.53751
2/4/2024 1:22:25 AM 3.235 37.823 0.2153 8.058399 36.12 13.53751
2/4/2024 1:37:25 AM 3.6875 38.6375 0.2122 8.053499 35.14999 13.53751
2/4/2024 1:52:25 AM 3.9125 39.0425 0.21085 8.053499 34.72501 13.54999
2/4/2024 2:07:25 AM 3.9775 39.1595 0.21045 8.052799 34.31 13.53751
2/4/2024 2:22:25 AM 3.9775 39.1595 0.2104 8.052099 34.515 13.53751
2/4/2024 2:37:25 AM 3.9775 39.1595 0.21045 8.052799 33.995 13.53751
2/4/2024 2:52:26 AM 3.96 39.128 0.2100499 8.054199 34.795 13.54999
2/4/2024 3:07:25 AM 3.94 39.092 0.2104 8.052099 34.86 13.52499
2/4/2024 3:22:25 AM 3.925 39.065 0.2107501 8.053499 34.03 13.375
2/4/2024 3:37:25 AM 3.925 39.065 0.2104 8.053499 34.27 13.36249
2/4/2024 3:52:26 AM 3.9075 39.0335 0.2107501 8.047899 33.75 13.46249
2/4/2024 4:07:25 AM 3.89 39.002 0.2108 8.053499 34.375 13.46249
2/4/2024 4:22:26 AM 3.8725 38.9705 0.2108 8.053499 33.965 13.46249
2/4/2024 4:37:26 AM 3.84 38.912 0.2107501 8.047199 34.44501 13.45001
2/4/2024 4:52:26 AM 3.8375 38.9075 0.2108 8.053499 34.03 13.53751
2/4/2024 5:07:26 AM 3.8025 38.8445 0.2107501 8.052099 34.16499 13.53751
2/4/2024 5:22:26 AM 3.805 38.849 0.2111 8.052099 33.895 13.52499
2/4/2024 5:37:26 AM 3.765 38.777 0.2111 8.054199 34.24001 13.46249
2/4/2024 5:52:25 AM 3.7675 38.7815 0.21145 8.052099 33.545 13.43753
2/4/2024 6:07:25 AM 3.7525 38.7545 0.2115 8.049299 33.09 13.46249
2/4/2024 6:22:25 AM 3.7325 38.7185 0.2118 8.047199 33.99001 13.43753
2/4/2024 6:37:25 AM 3.6975 38.6555 0.21215 8.049299 33.645 13.45001
2/4/2024 6:52:25 AM 3.6825 38.6285 0.2125 8.052799 32.745 13.45001
2/4/2024 7:07:25 AM 3.665 38.597 0.2125 8.047199 33.61501 13.43753
2/4/2024 7:22:25 AM 3.6275 38.5295 0.21285 8.049299 33.575 13.45001
2/4/2024 7:37:25 AM 3.6125 38.5025 0.21285 8.047899 33.02 13.53751
2/4/2024 7:52:25 AM 3.595 38.471 0.21285 8.047899 32.88 13.53751
2/4/2024 8:07:25 AM 3.595 38.471 0.2132 8.047899 33.405 13.52499
2/4/2024 8:22:25 AM 3.56 38.408 0.2132 8.049299 33.3 13.53751
2/4/2024 8:37:25 AM 3.5425 38.3765 0.21355 8.053499 32.88499 13.52499
2/4/2024 8:52:25 AM 3.5625 38.4125 0.2132 8.052099 32.465 13.53751
2/4/2024 9:07:25 AM 3.5775 38.4395 0.21285 8.049299 32.28999 13.54999
2/4/2024 9:22:25 AM 3.595 38.471 0.21245 8.054199 32.825 13.54999
2/4/2024 9:37:25 AM 3.6125 38.5025 0.21215 8.054899 31.925 13.56247
2/4/2024 9:52:25 AM 3.63 38.534 0.21215 8.054199 32.375 13.54999
2/4/2024 10:07:25 AM 3.6475 38.5655 0.2117501 8.054899 32.06 13.63751
2/4/2024 10:22:25 AM 3.6825 38.6285 0.21145 8.052799 32.03999 13.625
2/4/2024 10:37:25 AM 3.6825 38.6285 0.2114 8.054199 32.235 13.625
2/4/2024 10:52:25 AM 3.7 38.66 0.21145 8.059099 31.99001 13.625
2/4/2024 11:07:25 AM 3.715 38.687 0.2114 8.053499 32.05499 13.625
2/4/2024 11:22:25 AM 3.735 38.723 0.2114 8.053499 31.575 13.625
2/4/2024 11:37:25 AM 3.77 38.786 0.2117501 8.052799 32.235 13.625
2/4/2024 11:52:26 AM 3.785 38.813 0.2117501 8.054199 32.095 13.625
2/4/2024 12:07:25 PM 3.8375 38.9075 0.2110499 8.054899 33.75999 13.63751
2/4/2024 12:22:25 PM 3.6625 38.5925 0.21245 8.054899 33.905 13.63751
2/4/2024 12:37:25 PM 3.335 38.003 0.2156 8.055599 33.72501 13.64999
2/4/2024 12:52:26 PM 3.18 37.724 0.2166499 8.053499 32.685 13.71249
2/4/2024 1:07:25 PM 3.145 37.661 0.2174 8.054199 33.82001 13.71249
2/4/2024 1:22:26 PM 3.1975 37.7555 0.217 8.058399 28.655 13.61249
2/4/2024 1:37:26 PM 3.235 37.823 0.2170499 8.060499 28.55 13.63751
2/4/2024 1:52:26 PM 3.285 37.913 0.2170499 8.059799 28.59 13.63751
2/4/2024 2:07:26 PM 3.305 37.949 0.2170499 8.058399 28.375 13.63751
2/4/2024 2:22:26 PM 3.3375 38.0075 0.2170499 8.058399 28.24001 13.625
2/4/2024 2:37:26 PM 3.3725 38.0705 0.2167 8.060499 28.755 13.63751
2/4/2024 2:52:25 PM 3.4075 38.1335 0.2167 8.057699 28.33501 13.71249
2/4/2024 3:07:25 PM 3.4575 38.2235 0.2167 8.059799 27.995 13.73752
2/4/2024 3:22:25 PM 3.4425 38.1965 0.2170499 8.063299 28.03 13.71249
2/4/2024 3:37:25 PM 3.495 38.291 0.2167501 8.059099 27.575 13.73752
2/4/2024 3:52:25 PM 3.4425 38.1965 0.2174 8.059799 27.92 13.72501
2/4/2024 4:07:25 PM 3.4775 38.2595 0.2170499 8.059799 27.47501 13.71249
2/4/2024 4:22:25 PM 3.475 38.255 0.2174 8.060499 28.58501 13.81247
2/4/2024 4:37:25 PM 3.495 38.291 0.2174 8.057699 28.30499 13.79999
2/4/2024 4:52:25 PM 3.425 38.165 0.2181 8.060499 27.67999 13.79999
2/4/2024 5:07:25 PM 3.36 38.048 0.21885 8.059099 27.755 13.81247
2/4/2024 5:22:25 PM 3.3225 37.9805 0.21885 8.065399 27.715 13.64999
2/4/2024 5:37:25 PM 3.27 37.886 0.21915 8.064699 27.995 13.625
2/4/2024 5:52:25 PM 3.2 37.76 0.21985 8.066099 27.715 13.72501
2/4/2024 6:07:25 PM 3.165 37.697 0.22055 8.065399 27.545 13.72501
2/4/2024 6:22:25 PM 3.13 37.634 0.2209 8.064699 27.50999 13.72501
2/4/2024 6:37:25 PM 3.4975 38.2955 0.2181 8.065399 27.96001 13.72501
2/4/2024 6:52:25 PM 3.72 38.696 0.2163501 8.068199 27.605 13.71249
2/4/2024 7:07:25 PM 3.7875 38.8175 0.2159501 8.067499 27.16 13.71249
2/4/2024 7:22:25 PM 3.8225 38.8805 0.2159501 8.067499 27.505 13.625
2/4/2024 7:37:25 PM 3.8375 38.9075 0.2156 8.066799 27.645 13.61249
2/4/2024 7:52:25 PM 3.8375 38.9075 0.2156499 8.068199 27.25999 13.72501
2/4/2024 8:07:25 PM 3.8575 38.9435 0.2156 8.069599 27.47501 13.63751
2/4/2024 8:22:25 PM 3.8725 38.9705 0.2156 8.070299 27.095 13.64999
2/4/2024 8:37:25 PM 3.89 39.002 0.2159 8.068199 27.33501 13.72501
2/4/2024 8:52:25 PM 3.595 38.471 0.2183501 8.069599 27.755 13.73752
2/4/2024 9:07:25 PM 3.18 37.724 0.22185 8.067499 27.155 13.71249
2/4/2024 9:22:25 PM 3.0275 37.4495 0.2236499 8.069599 27.435 13.72501
2/4/2024 9:37:25 PM 2.9225 37.2605 0.2247501 8.068899 27.64999 13.71249
2/4/2024 9:52:26 PM 2.8725 37.1705 0.2250499 8.070299 27.44 13.72501
2/4/2024 10:07:25 PM 2.89 37.202 0.2251 8.069599 27.50999 13.73752
2/4/2024 10:22:25 PM 3.3775 38.0795 0.2216 8.069599 27.58 13.71249
2/4/2024 10:37:26 PM 3.6675 38.6015 0.21945 8.073799 27.09 13.72501
2/4/2024 10:52:26 PM 3.755 38.759 0.21915 8.073799 26.98 13.72501
2/4/2024 11:07:26 PM 3.79 38.822 0.2190499 8.068199 27.745 13.70001
2/4/2024 11:22:26 PM 3.8025 38.8445 0.2191 8.067499 27.05 13.71249
2/4/2024 11:37:26 PM 3.8375 38.9075 0.2191 8.069599 26.63499 13.71249
2/4/2024 11:52:26 PM 3.855 38.939 0.2191 8.068899 26.91 13.71249
2/5/2024 12:07:25 AM 3.8725 38.9705 0.2190499 8.066099 27.08 13.71249
2/5/2024 12:22:25 AM 3.89 39.002 0.2190499 8.069599 26.99001 13.73752
2/5/2024 12:37:25 AM 3.3725 38.0705 0.2232 8.067499 26.955 13.71249
2/5/2024 12:52:25 AM 3.13 37.634 0.2257 8.068199 26.985 13.71249
2/5/2024 1:07:25 AM 3.01 37.418 0.2271 8.068899 25.91 13.71249
2/5/2024 1:22:25 AM 2.9225 37.2605 0.22815 8.064699 26.505 13.73752
2/5/2024 1:37:25 AM 3.065 37.517 0.2275 8.063999 26.36501 13.72501
2/5/2024 1:52:25 AM 3.495 38.291 0.2247501 8.069599 26.435 13.64999
2/5/2024 2:07:25 AM 3.7025 38.6645 0.2236499 8.068899 26.395 13.625
2/5/2024 2:22:25 AM 3.735 38.723 0.2239501 8.062599 26.05 13.625
2/5/2024 2:37:25 AM 3.77 38.786 0.2246 8.068199 26.145 13.625
2/5/2024 2:52:25 AM 3.7875 38.8175 0.225 8.068199 25.765 13.625
2/5/2024 3:07:25 AM 3.8025 38.8445 0.2256499 8.068899 25.73 13.63751
2/5/2024 3:22:25 AM 3.8025 38.8445 0.226 8.067499 25.69501 13.625
2/5/2024 3:37:25 AM 3.82 38.876 0.2263 8.067499 25.005 13.625
2/5/2024 3:52:25 AM 3.8025 38.8445 0.2266499 8.069599 25.735 13.63751
2/5/2024 4:07:25 AM 3.805 38.849 0.2273501 8.072399 24.63 13.625
2/5/2024 4:22:25 AM 3.8025 38.8445 0.2277 8.074499 25.46001 13.64999
2/5/2024 4:37:25 AM 3.3375 38.0075 0.23185 8.077999 25.00999 13.63751
2/5/2024 4:52:25 AM 3.06 37.508 0.2347 8.077299 25.28 13.625
2/5/2024 5:07:25 AM 2.94 37.292 0.2361 8.078699 25.215 13.63751
2/5/2024 5:22:25 AM 3.1325 37.6385 0.2347 8.156401 28.02 13.71249
2/5/2024 5:37:25 AM 3.4775 38.2595 0.2316 8.098301 25.49001 13.625
2/5/2024 5:52:26 AM 3.615 38.507 0.23085 8.091999 24.75999 13.63751
2/5/2024 6:07:25 AM 3.635 38.543 0.23085 8.087099 23.61501 13.625
2/5/2024 6:22:25 AM 3.65 38.57 0.23085 8.083599 24.13499 13.63751
2/5/2024 6:37:25 AM 3.665 38.597 0.2308 8.077299 24.13499 13.625
2/5/2024 6:52:26 AM 3.665 38.597 0.23115 8.071699 23.715 13.61249
2/5/2024 7:07:25 AM 3.6625 38.5925 0.2312 8.066799 24.03 13.61249
2/5/2024 7:22:25 AM 3.665 38.597 0.23185 8.072399 24.345 13.61249
2/5/2024 7:37:26 AM 3.665 38.597 0.2322 8.068199 25.07001 13.625
2/5/2024 7:52:26 AM 3.665 38.597 0.23255 8.073099 24.03 13.625
2/5/2024 8:07:26 AM 3.6625 38.5925 0.23285 8.071699 24.58501 13.625
2/5/2024 8:22:26 AM 3.665 38.597 0.23285 8.072399 24.935 13.61249
2/5/2024 8:37:26 AM 3.6825 38.6285 0.2329 8.075199 25.565 13.64999
2/5/2024 8:52:26 AM 3.6825 38.6285 0.2332499 8.077999 25.08 13.625
2/5/2024 9:07:25 AM 3.6675 38.6015 0.23355 8.078699 25.705 13.625
2/5/2024 9:22:25 AM 3.6625 38.5925 0.2335 8.077999 24.66 13.625
2/5/2024 9:37:25 AM 3.68 38.624 0.2339 8.074499 24.425 13.63751
2/5/2024 9:52:25 AM 3.665 38.597 0.2339 8.077299 25.425 13.625
2/5/2024 10:07:25 AM 3.665 38.597 0.2342499 8.084299 25.145 13.64999
2/5/2024 10:22:25 AM 3.6625 38.5925 0.2342499 8.078699 25.005 13.625
2/5/2024 10:37:25 AM 3.6475 38.5655 0.2342499 8.079399 24.83501 13.72501
2/5/2024 10:52:25 AM 3.665 38.597 0.2342499 8.082899 24.625 13.71249
2/5/2024 11:07:25 AM 3.665 38.597 0.2342 8.083599 24.625 13.72501
2/5/2024 11:22:25 AM 3.6825 38.6285 0.2339 8.082899 24.66499 13.71249
2/5/2024 11:37:25 AM 3.6825 38.6285 0.2339 8.084299 24.285 13.71249
2/5/2024 11:52:25 AM 3.7175 38.6915 0.2339 8.089199 24.8 13.73752
2/5/2024 12:07:25 PM 3.7525 38.7545 0.2339 8.083599 24.38499 13.72501
2/5/2024 12:22:25 PM 3.77 38.786 0.2342499 8.082899 26.33 13.72501
2/5/2024 12:37:25 PM 3.8025 38.8445 0.2342499 8.089199 24.52499 13.73752
2/5/2024 12:52:25 PM 3.82 38.876 0.2342499 8.084299 24.21001 13.72501
2/5/2024 1:07:25 PM 3.855 38.939 0.2342499 8.084299 24.28 13.72501
2/5/2024 1:22:25 PM 3.8725 38.9705 0.2342499 8.083599 24.035 13.71249
2/5/2024 1:37:25 PM 3.905 39.029 0.2342499 8.088499 23.83 13.73752
2/5/2024 1:52:25 PM 3.9575 39.1235 0.2342499 8.083599 24.005 13.72501
2/5/2024 2:07:25 PM 3.995 39.191 0.2339 8.089199 23.89999 13.72501
2/5/2024 2:22:25 PM 4.01 39.218 0.2339 8.088499 23.86501 13.72501
2/5/2024 2:37:25 PM 4.0475 39.2855 0.2339 8.087099 23.78999 13.71249
2/5/2024 2:52:25 PM 4.0625 39.3125 0.2339 8.084999 23.62 13.73752
2/5/2024 3:07:25 PM 4.08 39.344 0.2339 8.083599 23.895 13.71249
2/5/2024 3:22:25 PM 4.08 39.344 0.23385 8.087099 24.485 13.72501
2/5/2024 3:37:25 PM 4.1125 39.4025 0.23355 8.089199 24.8 13.72501
2/5/2024 3:52:25 PM 4.115 39.407 0.23355 8.087799 23.755 13.72501
2/5/2024 4:07:25 PM 4.1325 39.4385 0.23315 8.086399 24.52499 13.71249
2/5/2024 4:22:25 PM 4.1325 39.4385 0.23355 8.086399 24.075 13.71249
2/5/2024 4:37:26 PM 4.135 39.443 0.23355 8.087099 24.14 13.71249
2/5/2024 4:52:26 PM 4.1325 39.4385 0.2335 8.087099 24.245 13.72501
2/5/2024 5:07:25 PM 4.1175 39.4115 0.23355 8.082199 24.005 13.72501
2/5/2024 5:22:26 PM 4.08 39.344 0.23355 8.082199 24 13.72501
2/5/2024 5:37:26 PM 4.045 39.281 0.2339501 8.084299 23.92999 13.72501
2/5/2024 5:52:26 PM 4.0125 39.2225 0.2339 8.088499 24.49001 13.72501
2/5/2024 6:07:26 PM 3.9775 39.1595 0.2339 8.088499 24.55499 13.72501
2/5/2024 6:22:25 PM 3.9425 39.0965 0.2339 8.083599 24.42 13.71249
2/5/2024 6:37:25 PM 3.905 39.029 0.2339 8.093399 23.13 13.72501
2/5/2024 6:52:25 PM 3.8725 38.9705 0.2339 8.088499 24.455 13.81247
2/5/2024 7:07:25 PM 3.855 38.939 0.2339 8.087799 23.69 13.79999
2/5/2024 7:22:25 PM 3.82 38.876 0.2342499 8.091999 23.89999 13.79999
2/5/2024 7:37:25 PM 3.7875 38.8175 0.2342499 8.087799 24.11 13.79999
2/5/2024 7:52:25 PM 3.7875 38.8175 0.2342499 8.087799 24.105 13.79999
2/5/2024 8:07:25 PM 3.77 38.786 0.2342 8.088499 24.21001 13.79999
2/5/2024 8:22:25 PM 3.75 38.75 0.2346 8.086399 24.03999 13.79999
2/5/2024 8:37:25 PM 3.735 38.723 0.2346 8.091999 24.245 13.79999
2/5/2024 8:52:25 PM 3.7325 38.7185 0.2342499 8.093399 24.735 13.81247
2/5/2024 9:07:25 PM 3.7175 38.6915 0.2342499 8.088499 24.215 13.81247
2/5/2024 9:22:25 PM 3.715 38.687 0.2342499 8.092699 24.39 13.81247
2/5/2024 9:37:25 PM 3.7175 38.6915 0.2342499 8.091999 24.42 13.81247
2/5/2024 9:52:25 PM 3.6975 38.6555 0.2346 8.089199 24.17999 13.81247
2/5/2024 10:07:25 PM 3.7 38.66 0.2349501 8.094101 24.83501 13.82501
2/5/2024 10:22:25 PM 3.6825 38.6285 0.2349501 8.094801 24.17999 13.79999
2/5/2024 10:37:25 PM 3.6825 38.6285 0.2353 8.092699 24.35001 13.81247
2/5/2024 10:52:25 PM 3.6675 38.6015 0.2353 8.094101 24.14 13.81247
2/5/2024 11:07:25 PM 3.665 38.597 0.2353 8.097601 24.625 13.81247
2/5/2024 11:22:25 PM 3.6475 38.5655 0.2353 8.092699 24.215 13.79999
2/5/2024 11:37:25 PM 3.645 38.561 0.2353 8.097601 24.14 13.81247
2/5/2024 11:52:25 PM 3.6125 38.5025 0.2353 8.094101 24.245 13.79999
2/6/2024 12:07:25 AM 3.6125 38.5025 0.2353 8.098301 24.21001 13.82501
2/6/2024 12:22:25 AM 3.6125 38.5025 0.2353 8.094101 29.455 13.81247
2/6/2024 12:37:25 AM 3.6125 38.5025 0.2349501 8.086399 30.42999 13.81247
2/6/2024 12:52:25 AM 3.6125 38.5025 0.2342499 8.101101 28.97 13.79999
2/6/2024 1:07:25 AM 3.595 38.471 0.2346 8.104601 27.23 13.82501
2/6/2024 1:22:25 AM 3.0375 37.4675 0.2391 8.096901 25.60001 13.79999
2/6/2024 1:37:26 AM 2.695 36.851 0.2419501 8.096201 25.94501 13.81247
2/6/2024 1:52:26 AM 3.025 37.445 0.2392 8.098301 24.41499 13.79999
2/6/2024 2:07:26 AM 3.305 37.949 0.2364 8.091999 24.87 13.79999
2/6/2024 2:22:26 AM 3.3875 38.0975 0.2357 8.102501 24.515 13.79999
2/6/2024 2:37:26 AM 3.3875 38.0975 0.2356499 8.091999 25.595 13.78751
2/6/2024 2:52:26 AM 3.3875 38.0975 0.2357 8.092699 24.34 13.79999
2/6/2024 3:07:26 AM 3.37 38.066 0.2360499 8.102501 24.55499 13.79999
2/6/2024 3:22:25 AM 3.39 38.102 0.2357 8.091299 24.66 13.78751
2/6/2024 3:37:25 AM 3.3675 38.0615 0.236 8.097601 24.515 13.79999
2/6/2024 3:52:25 AM 3.3675 38.0615 0.236 8.091299 24.375 13.79999
2/6/2024 4:07:25 AM 3.3325 37.9985 0.236 8.090599 25 13.78751
2/6/2024 4:22:25 AM 3.315 37.967 0.236 8.091999 25.24001 13.78751
2/6/2024 4:37:25 AM 3.3 37.94 0.2360499 8.098301 25 13.79999
2/6/2024 4:52:25 AM 3.2975 37.9355 0.236 8.091999 24.34 13.79999
2/6/2024 5:07:25 AM 3.265 37.877 0.2363501 8.092699 24.27 13.79999
2/6/2024 5:22:25 AM 3.23 37.814 0.2366499 8.090599 24.48 13.78751
2/6/2024 5:37:25 AM 3.2 37.76 0.2370499 8.091299 24.375 13.78751
2/6/2024 5:52:25 AM 3.1775 37.7195 0.237 8.096901 24.72501 13.78751
2/6/2024 6:07:25 AM 3.1425 37.6565 0.2370499 8.091999 24.59 13.79999
2/6/2024 6:22:25 AM 3.125 37.625 0.2370499 8.087799 24.62 13.78751
2/6/2024 6:37:25 AM 3.09 37.562 0.2374 8.096201 24.64999 13.78751
2/6/2024 6:52:25 AM 3.075 37.535 0.2373501 8.092699 24.92999 13.79999
2/6/2024 7:07:25 AM 3.04 37.472 0.2377501 8.091999 24.86 13.79999
2/6/2024 7:22:25 AM 3.005 37.409 0.2377501 8.093399 24.78999 13.79999
2/6/2024 7:37:25 AM 2.985 37.373 0.2381 8.093399 24.625 13.88751
2/6/2024 7:52:25 AM 2.97 37.346 0.2384 8.091299 24.55 13.875
2/6/2024 8:07:25 AM 2.935 37.283 0.2388 8.087799 24.44501 13.875
2/6/2024 8:22:25 AM 2.9325 37.2785 0.2395 8.091299 25.03999 13.88751
2/6/2024 8:37:25 AM 2.935 37.283 0.2398 8.091299 24.48 13.86249
2/6/2024 8:52:25 AM 2.9525 37.3145 0.24015 8.097601 23.96001 13.88751
2/6/2024 9:07:25 AM 2.985 37.373 0.24015 8.096201 24.205 13.875
2/6/2024 9:22:25 AM 3.0025 37.4045 0.24085 8.103901 24.035 13.89999
2/6/2024 9:37:25 AM 3.005 37.409 0.2412 8.108101 23.38 13.98752
2/6/2024 9:52:25 AM 3.04 37.472 0.24185 8.106701 24.175 13.97501
2/6/2024 10:07:25 AM 3.055 37.499 0.2422 8.108101 22.13 13.97501
2/6/2024 10:22:25 AM 3.0725 37.5305 0.2429 8.113001 21.92 13.97501
2/6/2024 10:37:25 AM 3.09 37.562 0.2432499 8.113001 22.23 13.98752
2/6/2024 10:52:26 AM 3.1075 37.5935 0.2439 8.111601 21.92 13.97501
2/6/2024 11:07:26 AM 3.1425 37.6565 0.2446 8.117201 21.955 13.98752
2/6/2024 11:22:26 AM 3.16 37.688 0.2449501 8.117201 21.5 14.06247
2/6/2024 11:37:26 AM 3.1075 37.5935 0.246 8.116501 21.395 14.07501
2/6/2024 11:52:26 AM 2.6575 36.7835 0.25055 8.127001 21.53999 14.08752
2/6/2024 12:07:26 PM 2.5525 36.5945 0.2523 8.121401 21.185 14.06247
2/6/2024 12:22:25 PM 2.97 37.346 0.24915 8.124901 21.045 14.03751
2/6/2024 12:37:25 PM 3.16 37.688 0.2477501 8.124901 21.46001 14.06247
2/6/2024 12:52:25 PM 3.265 37.877 0.2470499 8.121401 21.92 14.07501
2/6/2024 1:07:25 PM 3.3525 38.0345 0.2467 8.122101 21.395 14.06247
2/6/2024 1:22:25 PM 3.4225 38.1605 0.246 8.127701 22.06 14.06247
2/6/2024 1:37:25 PM 3.47 38.246 0.2453 8.117201 22.05499 14.07501
2/6/2024 1:52:25 PM 3.5225 38.3405 0.2449501 8.122801 22.50999 14.07501
2/6/2024 2:07:25 PM 3.575 38.435 0.2439501 8.117201 22.50999 14.14999
2/6/2024 2:22:25 PM 3.3175 37.9715 0.2456499 8.117201 23.825 14.14999
2/6/2024 2:37:25 PM 3.055 37.499 0.24745 8.114401 23.52 14.16248
2/6/2024 2:52:25 PM 3.1625 37.6925 0.246 8.107401 24.32001 14.16248
2/6/2024 3:07:25 PM 3.4575 38.2235 0.2429501 8.107401 25.32001 14.14999
2/6/2024 3:22:25 PM 3.5625 38.4125 0.24155 8.107401 24.765 14.16248
2/6/2024 3:37:25 PM 3.6475 38.5655 0.2401 8.108101 26.5 14.16248
2/6/2024 3:52:25 PM 3.6825 38.6285 0.2391 8.101801 26.57001 14.14999
2/6/2024 4:07:25 PM 3.7 38.66 0.2384 8.103901 27.37 14.16248
2/6/2024 4:22:25 PM 3.7175 38.6915 0.2373 8.097601 27.58 14.14999
2/6/2024 4:37:25 PM 3.715 38.687 0.2369501 8.097601 28.13499 14.14999
2/6/2024 4:52:25 PM 3.715 38.687 0.2366499 8.096901 27.82001 14.16248
2/6/2024 5:07:25 PM 3.6975 38.6555 0.2363 8.092699 27.44 14.14999
2/6/2024 5:22:25 PM 3.6825 38.6285 0.2363 8.096201 27.825 14.14999
2/6/2024 5:37:25 PM 3.6625 38.5925 0.2359501 8.091999 28.03 14.14999
2/6/2024 5:52:26 PM 3.645 38.561 0.2359501 8.091999 26.745 14.14999
2/6/2024 6:07:25 PM 3.6275 38.5295 0.2363 8.091999 26.88499 14.17499
2/6/2024 6:22:25 PM 3.5925 38.4665 0.2363 8.092699 26.89 14.14999
2/6/2024 6:37:25 PM 3.5775 38.4395 0.2363 8.099001 26.015 14.16248
2/6/2024 6:52:26 PM 3.56 38.408 0.2363501 8.093399 25.81 14.14999
2/6/2024 7:07:25 PM 3.5425 38.3765 0.2363 8.093399 25.7 14.16248
2/6/2024 7:22:25 PM 3.5275 38.3495 0.2367 8.092699 24.8 14.14999
2/6/2024 7:37:25 PM 3.49 38.282 0.2366499 8.092699 24.87 14.14999
2/6/2024 7:52:26 PM 3.4925 38.2865 0.237 8.098301 24.455 14.13751
2/6/2024 8:07:26 PM 3.475 38.255 0.2370499 8.092699 24.87 14.14999
2/6/2024 8:22:26 PM 3.455 38.219 0.237 8.091999 24.485 14.14999
2/6/2024 8:37:26 PM 3.455 38.219 0.237 8.093399 24.52499 14.16248
2/6/2024 8:52:26 PM 3.44 38.192 0.237 8.091999 23.75999 14.14999
2/6/2024 9:07:26 PM 3.455 38.219 0.237 8.094101 23.24001 14.14999
2/6/2024 9:22:26 PM 2.955 37.319 0.2412 8.096901 24.03999 14.14999
2/6/2024 9:37:25 PM 2.6425 36.7565 0.2436499 8.096901 23.06 14.13751
2/6/2024 9:52:25 PM 2.525 36.545 0.2451 8.093399 23.30499 14.14999
2/6/2024 10:07:25 PM 2.435 36.383 0.24615 8.094101 23.52 14.16248
2/6/2024 10:22:25 PM 2.765 36.977 0.2434 8.094801 23.065 14.16248
2/6/2024 10:37:25 PM 3.095 37.571 0.2402499 8.093399 23.19501 14.13751
2/6/2024 10:52:25 PM 3.2325 37.8185 0.2395 8.098301 22.99001 14.06247
2/6/2024 11:07:25 PM 3.265 37.877 0.23915 8.093399 23.47501 14.06247
2/6/2024 11:22:25 PM 3.265 37.877 0.2391 8.091999 22.67999 14.04999
2/6/2024 11:37:25 PM 3.2825 37.9085 0.23915 8.096901 22.53999 14.06247
2/6/2024 11:52:25 PM 3.265 37.877 0.23915 8.091999 22.92 14.06247
2/7/2024 12:07:25 AM 3.285 37.913 0.2391 8.091299 23.13 14.04999
2/7/2024 12:22:25 AM 3.2825 37.9085 0.23915 8.093399 23.47501 14.04999
2/7/2024 12:37:25 AM 3.2825 37.9085 0.23915 8.092699 23.37 14.06247
2/7/2024 12:52:25 AM 3.2825 37.9085 0.23915 8.090599 22.955 14.04999
2/7/2024 1:07:25 AM 3.28 37.904 0.2391 8.097601 23.53999 14.06247
2/7/2024 1:22:25 AM 3.2825 37.9085 0.23915 8.087099 22.99001 14.04999
2/7/2024 1:37:25 AM 3.2675 37.8815 0.23915 8.091299 23.3 14.03751
2/7/2024 1:52:25 AM 3.265 37.877 0.2387501 8.091999 23.16 14.04999
2/7/2024 2:07:25 AM 3.265 37.877 0.2388 8.092699 23.405 14.06247
2/7/2024 2:22:25 AM 3.265 37.877 0.2387501 8.091299 23.265 14.03751
2/7/2024 2:37:25 AM 3.2625 37.8725 0.2387501 8.092699 23.19501 14.04999
2/7/2024 2:52:25 AM 3.245 37.841 0.2387501 8.087099 23.125 13.96249
2/7/2024 3:07:25 AM 3.2475 37.8455 0.2387501 8.086399 23.36501 13.96249
2/7/2024 3:22:25 AM 3.245 37.841 0.2388 8.087799 22.75 13.97501
2/7/2024 3:37:25 AM 3.23 37.814 0.2391 8.086399 22.92 13.96249
2/7/2024 3:52:26 AM 3.2125 37.7825 0.2395 8.086399 22.99001 13.97501
2/7/2024 4:07:25 AM 3.1925 37.7465 0.2391 8.091299 23.58 13.97501
2/7/2024 4:22:25 AM 3.1775 37.7195 0.23915 8.087099 23.27 13.96249
2/7/2024 4:37:25 AM 3.16 37.688 0.2391 8.081499 23.44 13.96249
2/7/2024 4:52:26 AM 3.16 37.688 0.23915 8.087799 22.815 13.97501
2/7/2024 5:07:26 AM 3.125 37.625 0.2395 8.080799 23.16 13.96249
2/7/2024 5:22:26 AM 3.125 37.625 0.23945 8.087799 23.265 13.97501
2/7/2024 5:37:26 AM 3.11 37.598 0.23945 8.082199 23.37 13.97501
2/7/2024 5:52:26 AM 3.0925 37.5665 0.23945 8.082899 23.33501 13.96249
2/7/2024 6:07:26 AM 3.075 37.535 0.23945 8.092699 23.405 13.96249
2/7/2024 6:22:26 AM 3.0375 37.4675 0.2395 8.083599 22.92 13.97501
2/7/2024 6:37:25 AM 3.02 37.436 0.2395 8.087799 23.645 13.97501
2/7/2024 6:52:25 AM 2.9875 37.3775 0.2395 8.082199 22.85001 13.97501
2/7/2024 7:07:25 AM 2.97 37.346 0.2398 8.083599 22.53999 13.97501
2/7/2024 7:22:25 AM 2.95 37.31 0.2398 8.077299 22.99001 14.04999
2/7/2024 7:37:25 AM 2.935 37.283 0.2398 8.076599 22.77499 14.04999
2/7/2024 7:52:25 AM 2.935 37.283 0.23985 8.083599 22.99001 14.06247
2/7/2024 8:07:25 AM 2.9175 37.2515 0.2398 8.082199 22.815 14.06247
2/7/2024 8:22:25 AM 2.9175 37.2515 0.24015 8.082899 23.02499 14.04999
2/7/2024 8:37:25 AM 2.8975 37.2155 0.2405 8.082199 22.78 14.06247
2/7/2024 8:52:25 AM 2.9 37.22 0.24085 8.087099 22.64 14.04999
2/7/2024 9:07:25 AM 2.915 37.247 0.24085 8.082199 22.815 14.04999
2/7/2024 9:22:25 AM 2.97 37.346 0.24085 8.094801 21.495 14.08752
2/7/2024 9:37:25 AM 2.9875 37.3775 0.2412 8.126301 33.175 14.07501
2/7/2024 9:52:25 AM 2.9875 37.3775 0.2415 8.107401 27.925 14.07501
2/7/2024 10:07:25 AM 3.0225 37.4405 0.2415 8.107401 26.47 14.06247
2/7/2024 10:22:25 AM 3.0375 37.4675 0.24185 8.103201 25.71001 14.07501
2/7/2024 10:37:25 AM 3.0725 37.5305 0.24185 8.094101 24.315 14.08752
2/7/2024 10:52:25 AM 3.0925 37.5665 0.2422 8.101801 23.205 14.06247
2/7/2024 11:07:25 AM 3.1425 37.6565 0.24255 8.099001 22.78999 14.16248
2/7/2024 11:22:25 AM 3.195 37.751 0.2425 8.096901 22.19501 14.14999
2/7/2024 11:37:25 AM 3.265 37.877 0.24255 8.093399 23.97 14.14999
2/7/2024 11:52:25 AM 3.2975 37.9355 0.24285 8.093399 21.91499 14.13751
2/7/2024 12:07:25 PM 3.37 38.066 0.2429 8.097601 21.955 14.13751
2/7/2024 12:22:25 PM 3.4025 38.1245 0.2432 8.098301 22.12 14.14999
2/7/2024 12:37:25 PM 3.455 38.219 0.2432 8.098301 21.42999 14.14999
2/7/2024 12:52:25 PM 3.4875 38.2775 0.24355 8.103201 21.67 14.14999
2/7/2024 1:07:25 PM 3.5225 38.3405 0.24355 8.103901 20.81 14.16248
2/7/2024 1:22:25 PM 3.5775 38.4395 0.2439501 8.098301 21.255 14.16248
2/7/2024 1:37:25 PM 3.6275 38.5295 0.2442499 8.097601 21.015 14.14999
2/7/2024 1:52:26 PM 3.6625 38.5925 0.24455 8.106701 21.045 14.13751
2/7/2024 2:07:26 PM 3.7125 38.6825 0.2449 8.099001 20.80499 14.14999
2/7/2024 2:22:26 PM 3.75 38.75 0.2453 8.107401 20.80499 14.14999
2/7/2024 2:37:26 PM 3.785 38.813 0.2456 8.096901 20.66499 14.13751
2/7/2024 2:52:26 PM 3.8 38.84 0.2459501 8.102501 20.11 14.14999
2/7/2024 3:07:26 PM 3.835 38.903 0.2463 8.102501 20.495 14.14999
2/7/2024 3:22:26 PM 3.8525 38.9345 0.2463 8.101101 20.11 14.13751
2/7/2024 3:37:25 PM 3.8875 38.9975 0.2466 8.101801 20.245 14.14999
2/7/2024 3:52:25 PM 3.905 39.029 0.2466499 8.103201 20.32001 14.14999
2/7/2024 4:07:25 PM 3.9225 39.0605 0.247 8.103201 20.11501 14.14999
2/7/2024 4:22:25 PM 3.94 39.092 0.247 8.101801 19.935 14.13751
2/7/2024 4:37:25 PM 3.9575 39.1235 0.247 8.101101 19.83501 14.13751
2/7/2024 4:52:25 PM 3.9375 39.0875 0.2473 8.102501 19.89999 14.13751
2/7/2024 5:07:25 PM 3.94 39.092 0.2473501 8.102501 20.28 14.14999
2/7/2024 5:22:25 PM 3.92 39.056 0.2473501 8.097601 19.935 14.16248
2/7/2024 5:37:25 PM 3.8875 38.9975 0.2473501 8.099001 20.425 14.16248
2/7/2024 5:52:25 PM 3.8875 38.9975 0.2477 8.097601 20.145 14.14999
2/7/2024 6:07:25 PM 3.8525 38.9345 0.2477 8.103201 20.66499 14.14999
2/7/2024 6:22:25 PM 3.835 38.903 0.2477 8.099001 20.66499 14.16248
2/7/2024 6:37:25 PM 3.835 38.903 0.2480499 8.096901 20.38499 14.13751
2/7/2024 6:52:25 PM 3.8 38.84 0.2483501 8.097601 21.015 14.13751
2/7/2024 7:07:25 PM 3.8 38.84 0.2487501 8.098301 20.94501 14.14999
2/7/2024 7:22:25 PM 3.785 38.813 0.2487501 8.091999 21.00999 14.13751
2/7/2024 7:37:25 PM 3.75 38.75 0.2490499 8.097601 21.08501 14.14999
2/7/2024 7:52:25 PM 3.73 38.714 0.2490499 8.093399 20.91 14.14999
2/7/2024 8:07:25 PM 3.715 38.687 0.2491 8.098301 21.53999 14.14999
2/7/2024 8:22:25 PM 3.695 38.651 0.2494 8.096201 21.36 14.13751
2/7/2024 8:37:25 PM 3.68 38.624 0.2497501 8.091999 21.42999 14.13751
2/7/2024 8:52:25 PM 3.6625 38.5925 0.25015 8.093399 21.465 14.14999
2/7/2024 9:07:25 PM 3.6425 38.5565 0.25015 8.098301 21.64 14.14999
2/7/2024 9:22:25 PM 3.645 38.561 0.25045 8.096901 21.63499 14.14999
2/7/2024 9:37:25 PM 3.6475 38.5655 0.25045 8.097601 21.255 14.13751
2/7/2024 9:52:26 PM 3.6475 38.5655 0.2505 8.102501 21.64 14.13751
2/7/2024 10:07:25 PM 3.6275 38.5295 0.2508 8.097601 21.395 14.14999
2/7/2024 10:22:25 PM 3.6275 38.5295 0.2508 8.102501 21.505 14.13751
2/7/2024 10:37:25 PM 3.6275 38.5295 0.25115 8.096201 21.14999 14.14999
2/7/2024 10:52:26 PM 3.645 38.561 0.25115 8.101801 21.25999 14.16248
2/7/2024 11:07:26 PM 3.645 38.561 0.25115 8.096901 21.36 14.13751
2/7/2024 11:22:26 PM 3.645 38.561 0.2512 8.091999 21.435 14.06247
2/7/2024 11:37:26 PM 3.645 38.561 0.2515 8.097601 21.465 14.04999
2/7/2024 11:52:26 PM 3.625 38.525 0.2518 8.087799 22.16499 14.06247
2/8/2024 12:07:26 AM 3.6975 38.6555 0.2515 8.097601 22.19501 14.06247
2/8/2024 12:22:26 AM 3.715 38.687 0.2515 8.097601 22.53999 14.04999
2/8/2024 12:37:26 AM 3.73 38.714 0.2515 8.102501 22.53999 14.04999
2/8/2024 12:52:25 AM 3.73 38.714 0.2515 8.102501 22.53999 14.04999
2/8/2024 1:07:25 AM 3.73 38.714 0.2515 8.102501 22.53999 14.04999
2/8/2024 1:22:25 AM 3.73 38.714 0.2515 8.102501 22.53999 14.04999
2/8/2024 1:37:25 AM 3.73 38.714 0.2515 8.102501 22.53999 14.04999
2/8/2024 1:52:25 AM 3.73 38.714 0.2515 8.102501 22.53999 14.04999
2/8/2024 2:07:25 AM 3.73 38.714 0.2515 8.102501 22.53999 14.04999
2/8/2024 2:22:25 AM 3.73 38.714 0.2515 8.102501 22.53999 14.04999
2/8/2024 2:37:25 AM 3.73 38.714 0.2515 8.102501 22.53999 14.04999
2/8/2024 2:52:25 AM 3.73 38.714 0.2515 8.102501 22.53999 14.04999
2/8/2024 3:07:25 AM 3.73 38.714 0.2515 8.102501 22.53999 14.04999
2/8/2024 3:22:25 AM 3.73 38.714 0.2515 8.102501 22.53999 14.04999
2/8/2024 3:37:25 AM 3.73 38.714 0.2515 8.102501 22.53999 14.04999
2/8/2024 3:52:25 AM 3.73 38.714 0.2515 8.102501 22.53999 14.04999
2/8/2024 4:07:25 AM 3.73 38.714 0.2515 8.102501 22.53999 14.04999
2/8/2024 4:22:25 AM 3.73 38.714 0.2515 8.102501 22.53999 14.04999
2/8/2024 4:37:25 AM 3.73 38.714 0.2515 8.102501 22.53999 14.04999
2/8/2024 4:52:25 AM 3.73 38.714 0.2515 8.102501 22.53999 14.04999
2/8/2024 5:07:25 AM 3.73 38.714 0.2515 8.102501 22.53999 14.04999
2/8/2024 5:22:25 AM 3.73 38.714 0.2515 8.102501 22.53999 14.04999
2/8/2024 5:37:25 AM 3.73 38.714 0.2515 8.102501 22.53999 14.04999
2/8/2024 5:52:25 AM 3.73 38.714 0.2515 8.102501 22.53999 14.04999
2/8/2024 6:07:25 AM 3.73 38.714 0.2515 8.102501 22.53999 14.04999
2/8/2024 6:22:25 AM 3.73 38.714 0.2515 8.102501 22.53999 14.04999
2/8/2024 6:37:25 AM 3.73 38.714 0.2515 8.102501 22.53999 14.04999
2/8/2024 6:52:26 AM 3.73 38.714 0.2515 8.102501 22.53999 14.04999
2/8/2024 7:07:25 AM 3.73 38.714 0.2515 8.102501 22.53999 14.04999
2/8/2024 7:22:25 AM 3.73 38.714 0.2515 8.102501 22.53999 14.04999
2/8/2024 7:37:25 AM 3.7475 38.7455 0.2497501 8.088499 21.5 13.89999
2/8/2024 7:52:26 AM 3.3175 37.9715 0.2532499 8.078699 21.88499 13.89999
2/8/2024 8:07:25 AM 2.8475 37.1255 0.25745 8.083599 21.745 13.89999
2/8/2024 8:22:25 AM 2.66 36.788 0.25885 8.077999 22.06 13.875
2/8/2024 8:37:26 AM 2.5925 36.6665 0.2596499 8.083599 21.605 13.89999
2/8/2024 8:52:26 AM 2.5925 36.6665 0.2596499 8.084299 21.575 13.89999
2/8/2024 9:07:26 AM 2.61 36.698 0.2596499 8.084299 21.05 13.88751
2/8/2024 9:22:26 AM 2.6425 36.7565 0.2593 8.087799 21.42999 13.89999
2/8/2024 9:37:26 AM 2.6625 36.7925 0.2593 8.083599 21.71001 13.89999
2/8/2024 9:52:25 AM 2.6775 36.8195 0.2593 8.089199 21.535 13.89999
2/8/2024 10:07:25 AM 2.73 36.914 0.2589 8.087799 21.36 13.88751
2/8/2024 10:22:25 AM 2.8175 37.0715 0.2582499 8.094101 20.005 13.88751
2/8/2024 10:37:25 AM 2.885 37.193 0.2579 8.093399 19.69501 13.88751
2/8/2024 10:52:25 AM 2.6625 36.7925 0.2603 8.098301 20.08 13.88751
2/8/2024 11:07:25 AM 3.1975 37.7555 0.2558 8.098301 19.45 13.88751
2/8/2024 11:22:25 AM 3.545 38.381 0.253 8.098301 19.69501 13.88751
2/8/2024 11:37:25 AM 3.7525 38.7545 0.25155 8.096901 19.895 13.875
2/8/2024 11:52:25 AM 3.875 38.975 0.2509 8.098301 19.42 13.89999
2/8/2024 12:07:25 PM 3.975 39.155 0.25015 8.107401 19.49001 13.88751
2/8/2024 12:22:25 PM 4.0625 39.3125 0.2497501 8.107401 19.55499 13.88751
2/8/2024 12:37:25 PM 4.13 39.434 0.2494 8.111601 19.66 13.88751
2/8/2024 12:52:25 PM 4.2 39.56 0.2494 8.106701 19.45 13.88751
2/8/2024 1:07:25 PM 4.25 39.65 0.2490499 8.106701 19.175 13.88751
2/8/2024 1:22:25 PM 4.1125 39.4025 0.2508 8.096901 19.765 13.875
2/8/2024 1:37:25 PM 3.99 39.182 0.2522 8.097601 20.81 13.89999
2/8/2024 1:52:25 PM 4.01 39.218 0.25285 8.096201 20.875 13.88751
2/8/2024 2:07:25 PM 3.9225 39.0605 0.2539 8.106701 21.88 13.88751
2/8/2024 2:22:25 PM 4.01 39.218 0.2536 8.107401 19.87 13.88751
2/8/2024 2:37:25 PM 4.08 39.344 0.2536 8.106701 19.69501 13.88751
2/8/2024 2:52:25 PM 4.1825 39.5285 0.2529 8.116501 19.97501 13.88751
2/8/2024 3:07:25 PM 4.2525 39.6545 0.25255 8.106701 19.73 13.88751
2/8/2024 3:22:25 PM 4.235 39.623 0.2529 8.107401 19.73 13.88751
2/8/2024 3:37:25 PM 4.235 39.623 0.2532499 8.107401 19.45 13.89999
2/8/2024 3:52:25 PM 4.2025 39.5645 0.2539501 8.102501 19.28 13.79999
2/8/2024 4:07:25 PM 4.2025 39.5645 0.2543 8.107401 19.52499 13.79999
2/8/2024 4:22:25 PM 4.1825 39.5285 0.2542499 8.096901 19.7 13.79999
2/8/2024 4:37:25 PM 4.185 39.533 0.2546499 8.102501 19.38 13.79999
2/8/2024 4:52:26 PM 4.08 39.344 0.2557 8.107401 19.14 13.81247
2/8/2024 5:07:25 PM 4.0625 39.3125 0.2557 8.108101 19.245 13.79999
2/8/2024 5:22:25 PM 3.9975 39.1955 0.256 8.107401 19.21001 13.81247
2/8/2024 5:37:25 PM 3.96 39.128 0.2564 8.107401 19.42 13.79999
2/8/2024 5:52:26 PM 3.945 39.101 0.2564 8.112301 19.14 13.81247
2/8/2024 6:07:26 PM 3.89 39.002 0.2564 8.117901 19.7 13.81247
2/8/2024 6:22:26 PM 3.875 38.975 0.2567501 8.112301 19.80499 13.81247
2/8/2024 6:37:26 PM 3.8225 38.8805 0.2571 8.113001 19.67 13.81247
2/8/2024 6:52:26 PM 3.8025 38.8445 0.2575 8.112301 19.69 13.79999
2/8/2024 7:07:25 PM 3.77 38.786 0.25785 8.112301 19.52 13.79999
2/8/2024 7:22:25 PM 3.7375 38.7275 0.2582 8.117201 19.625 13.79999
2/8/2024 7:37:25 PM 3.685 38.633 0.25885 8.121401 19.42 13.79999
2/8/2024 7:52:25 PM 3.6825 38.6285 0.2589 8.121401 19.94 13.71249
2/8/2024 8:07:25 PM 3.6675 38.6015 0.2589 8.131201 20.07001 13.71249
2/8/2024 8:22:25 PM 3.6325 38.5385 0.2589 8.136101 19.55499 13.71249
2/8/2024 8:37:25 PM 3.6 38.48 0.2596 8.136101 19.73 13.71249
2/8/2024 8:52:25 PM 3.5825 38.4485 0.2596 8.141001 19.97501 13.71249
2/8/2024 9:07:25 PM 3.545 38.381 0.2599 8.150801 20.11 13.71249
2/8/2024 9:22:25 PM 3.53 38.354 0.2599501 8.150801 19.73 13.71249
2/8/2024 9:37:25 PM 3.495 38.291 0.2603 8.151501 19.94 13.71249
2/8/2024 9:52:25 PM 3.4625 38.2325 0.2606499 8.155701 19.52 13.71249
2/8/2024 10:07:25 PM 3.4275 38.1695 0.261 8.156401 19.83501 13.72501
2/8/2024 10:22:25 PM 3.3925 38.1065 0.261 8.165501 19.94 13.71249
2/8/2024 10:37:25 PM 3.36 38.048 0.261 8.170401 19.63 13.72501
2/8/2024 10:52:25 PM 3.3225 37.9805 0.261 8.164801 19.765 13.71249
2/8/2024 11:07:25 PM 3.2875 37.9175 0.2614 8.171101 19.80499 13.72501
2/8/2024 11:22:25 PM 3.2375 37.8275 0.2617501 8.166201 20.08 13.72501
2/8/2024 11:37:25 PM 3.2175 37.7915 0.2617 8.166201 19.91 13.72501
2/8/2024 11:52:25 PM 3.22 37.796 0.2621 8.166201 19.38 13.72501
2/9/2024 12:07:25 AM 3.185 37.733 0.2621 8.166201 19.7 13.72501
2/9/2024 12:22:25 AM 3.635 38.543 0.2579 8.161301 20.42 13.71249
2/9/2024 12:37:25 AM 3.9625 39.1325 0.2550499 8.159901 21.185 13.71249
2/9/2024 12:52:26 AM 4.1525 39.4745 0.2529501 8.159901 21.325 13.71249
2/9/2024 1:07:25 AM 4.2375 39.6275 0.2522499 8.179501 20.94 13.71249
2/9/2024 1:22:25 AM 4.22 39.596 0.2522499 8.174601 20.11 13.72501
2/9/2024 1:37:25 AM 4.2375 39.6275 0.2522499 8.175301 19.52 13.625
2/9/2024 1:52:26 AM 4.2525 39.6545 0.25185 8.174601 19.035 13.625
2/9/2024 2:07:25 AM 4.27 39.686 0.2519 8.171101 19 13.63751
2/9/2024 2:22:26 AM 4.2875 39.7175 0.2515 8.169701 18.92999 13.625
2/9/2024 2:37:26 AM 4.305 39.749 0.25115 8.169701 18.925 13.625
2/9/2024 2:52:26 AM 4.3225 39.7805 0.2508 8.174601 19 13.625
2/9/2024 3:07:26 AM 4.3375 39.8075 0.2508 8.169701 19.105 13.625
2/9/2024 3:22:26 AM 4.355 39.839 0.2501 8.169701 19.485 13.625
2/9/2024 3:37:26 AM 4.355 39.839 0.2497501 8.169001 19.065 13.625
2/9/2024 3:52:26 AM 4.375 39.875 0.2497501 8.169001 18.94501 13.53751
2/9/2024 4:07:25 AM 4.39 39.902 0.2494 8.169001 19.14 13.53751
2/9/2024 4:22:25 AM 4.3725 39.8705 0.2494 8.168301 19.105 13.53751
2/9/2024 4:37:25 AM 4.375 39.875 0.2497501 8.169701 19.345 13.53751
2/9/2024 4:52:25 AM 4.3725 39.8705 0.2497501 8.169701 19.24001 13.53751
2/9/2024 5:07:25 AM 4.3725 39.8705 0.2494 8.164801 19.28 13.54999
2/9/2024 5:22:25 AM 4.3725 39.8705 0.2494 8.164101 18.92999 13.53751
2/9/2024 5:37:25 AM 4.3725 39.8705 0.2490499 8.165501 19.27499 13.53751
2/9/2024 5:52:25 AM 4.3725 39.8705 0.2491 8.165501 18.895 13.54999
2/9/2024 6:07:25 AM 4.3725 39.8705 0.2487 8.164801 19.175 13.53751
2/9/2024 6:22:25 AM 4.3725 39.8705 0.2487501 8.165501 18.895 13.53751
2/9/2024 6:37:25 AM 4.3725 39.8705 0.2487 8.159901 19.31 13.45001
2/9/2024 6:52:25 AM 4.355 39.839 0.2483501 8.154301 19 13.45001
2/9/2024 7:07:25 AM 4.3725 39.8705 0.2483501 8.155001 18.86 13.45001
2/9/2024 7:22:25 AM 4.375 39.875 0.248 8.155001 19.41499 13.45001
2/9/2024 7:37:25 AM 4.39 39.902 0.2477 8.155001 19.105 13.45001
2/9/2024 7:52:25 AM 4.3875 39.8975 0.2476499 8.155001 19.41 13.45001
2/9/2024 8:07:25 AM 4.39 39.902 0.2477 8.155001 19.31 13.46249
2/9/2024 8:22:25 AM 4.39 39.902 0.2473 8.155701 19.41499 13.45001
2/9/2024 8:37:25 AM 3.995 39.191 0.2508 8.155701 19.175 13.46249
2/9/2024 8:52:25 AM 3.735 38.723 0.2529501 8.160601 19.145 13.46249
2/9/2024 9:07:25 AM 3.665 38.597 0.2536499 8.160601 19.205 13.45001
2/9/2024 9:22:25 AM 3.665 38.597 0.254 8.159901 17.955 13.45001
2/9/2024 9:37:25 AM 3.6825 38.6285 0.2540499 8.160601 18.06 13.45001
2/9/2024 9:52:25 AM 3.7175 38.6915 0.2537 8.159901 17.925 13.45001
2/9/2024 10:07:25 AM 3.7525 38.7545 0.2536499 8.164801 18.37 13.45001
2/9/2024 10:22:25 AM 3.84 38.912 0.253 8.164801 18.17 13.45001
2/9/2024 10:37:25 AM 3.84 38.912 0.2533501 8.164801 18.61501 13.45001
2/9/2024 10:52:26 AM 3.9425 39.0965 0.2526499 8.164101 18.72 13.45001
2/9/2024 11:07:25 AM 4.065 39.317 0.2519501 8.165501 18.33501 13.45001
2/9/2024 11:22:25 AM 4.1675 39.5015 0.25155 8.164801 18.125 13.45001
2/9/2024 11:37:26 AM 4.2025 39.5645 0.2519501 8.169001 18.685 13.45001
2/9/2024 11:52:26 AM 4.2525 39.6545 0.2519 8.169701 18.23 13.45001
2/9/2024 12:07:26 PM 4.29 39.722 0.2523 8.160601 18.05499 13.45001
2/9/2024 12:22:26 PM 4.375 39.875 0.2519501 8.164801 18.125 13.45001
2/9/2024 12:37:26 PM 4.4275 39.9695 0.2519 8.169701 18.37 13.45001
2/9/2024 12:52:26 PM 4.48 40.064 0.2523 8.169001 18.23 13.45001
2/9/2024 1:07:26 PM 4.6875 40.4375 0.2509 8.169701 18.16 13.45001
2/9/2024 1:22:25 PM 4.9125 40.8425 0.24985 8.169001 17.92 13.45001
2/9/2024 1:37:25 PM 5.0525 41.0945 0.24945 8.169701 18.17 13.46249
2/9/2024 1:52:25 PM 5.1575 41.2835 0.2491 8.170401 18.17 13.46249
2/9/2024 2:07:25 PM 5.2425 41.4365 0.2491 8.170401 18.17 13.46249
2/9/2024 2:22:25 PM 5.3275 41.5895 0.24915 8.171101 17.89 13.46249
2/9/2024 2:37:25 PM 5.3975 41.7155 0.2491 8.169701 18.13 13.45001
2/9/2024 2:52:25 PM 5.4675 41.8415 0.2491 8.170401 18.095 13.375
2/9/2024 3:07:25 PM 5.5175 41.9315 0.2490499 8.169701 18.2 13.375
2/9/2024 3:22:25 PM 5.57 42.026 0.2491 8.170401 18.13 13.375
2/9/2024 3:37:25 PM 5.605 42.089 0.2491 8.170401 18.34 13.36249
2/9/2024 3:52:25 PM 5.6375 42.1475 0.24945 8.170401 18.375 13.375
2/9/2024 4:07:25 PM 5.6575 42.1835 0.24945 8.170401 18.02499 13.375
2/9/2024 4:22:25 PM 5.6725 42.2105 0.24945 8.175301 18.515 13.375
2/9/2024 4:37:25 PM 5.69 42.242 0.2497501 8.169701 17.955 13.36249
2/9/2024 4:52:25 PM 5.6925 42.2465 0.2497501 8.169701 18.03 13.375
2/9/2024 5:07:25 PM 5.6925 42.2465 0.2498 8.174601 17.82001 13.375
2/9/2024 5:22:25 PM 5.675 42.215 0.2497501 8.173901 17.92 13.36249
2/9/2024 5:37:25 PM 5.6925 42.2465 0.2501 8.174601 17.855 13.28751
2/9/2024 5:52:25 PM 5.6725 42.2105 0.2501 8.173901 18.06 13.28751
2/9/2024 6:07:25 PM 5.6725 42.2105 0.2501 8.169701 18.13 13.28751
2/9/2024 6:22:25 PM 5.66 42.188 0.25045 8.169001 18.235 13.28751
2/9/2024 6:37:25 PM 5.6575 42.1835 0.25045 8.174601 17.92 13.27499
2/9/2024 6:52:26 PM 5.64 42.152 0.2508 8.169001 18.34 13.27499
2/9/2024 7:07:25 PM 5.6225 42.1205 0.2508 8.170401 17.99001 13.28751
2/9/2024 7:22:25 PM 5.6025 42.0845 0.2512 8.174601 18.13 13.28751
2/9/2024 7:37:25 PM 5.605 42.089 0.25115 8.174601 18.58 13.28751
2/9/2024 7:52:25 PM 5.585 42.053 0.2511 8.174601 18.3 13.20001
2/9/2024 8:07:25 PM 5.57 42.026 0.2515 8.174601 18.37 13.18753
2/9/2024 8:22:25 PM 5.5525 41.9945 0.25115 8.174601 18.58 13.18753
2/9/2024 8:37:25 PM 5.5525 41.9945 0.2515 8.173901 18.72 13.20001
2/9/2024 8:52:26 PM 5.535 41.963 0.2515 8.173901 18.27499 13.20001
2/9/2024 9:07:26 PM 5.535 41.963 0.2515 8.173901 18.895 13.18753
2/9/2024 9:22:26 PM 5.5175 41.9315 0.25155 8.174601 18.44501 13.20001
2/9/2024 9:37:26 PM 5.5175 41.9315 0.2515 8.173901 18.47501 13.18753
2/9/2024 9:52:26 PM 5.52 41.936 0.25155 8.173901 18.64999 13.20001
2/9/2024 10:07:26 PM 5.52 41.936 0.2515 8.173901 18.895 13.20001
2/9/2024 10:22:25 PM 5.535 41.963 0.2515 8.173901 18.75999 13.20001
2/9/2024 10:37:25 PM 5.5325 41.9585 0.2515 8.174601 18.655 13.20001
2/9/2024 10:52:25 PM 5.535 41.963 0.25115 8.178101 18.75999 13.20001
2/9/2024 11:07:25 PM 5.535 41.963 0.25115 8.178801 18.62 13.18753
2/9/2024 11:22:25 PM 5.535 41.963 0.2515 8.178801 19.105 13.20001
2/9/2024 11:37:25 PM 5.5525 41.9945 0.25115 8.178801 18.83 13.11249
2/9/2024 11:52:25 PM 5.5875 42.0575 0.25115 8.179501 18.64999 13.10001
2/10/2024 12:07:25 AM 5.4475 41.8055 0.2522 8.179501 18.375 13.11249
2/10/2024 12:22:25 AM 5.015 41.027 0.2560499 8.159901 20.60001 13.11249
2/10/2024 12:37:25 AM 4.8275 40.6895 0.2577501 8.165501 23 13.11249
2/10/2024 12:52:25 AM 4.705 40.469 0.2588 8.164101 21.98 13.10001
2/10/2024 1:07:25 AM 4.6375 40.3475 0.2592 8.180201 20.28 13.10001
2/10/2024 1:22:25 AM 4.62 40.316 0.25955 8.178801 19.31 13.11249
2/10/2024 1:37:25 AM 4.5875 40.2575 0.2596 8.175301 19.175 13.11249
2/10/2024 1:52:25 AM 4.57 40.226 0.2599501 8.175301 18.86 13.03751
2/10/2024 2:07:25 AM 4.555 40.199 0.2599501 8.175301 18.235 13.02499
2/10/2024 2:22:25 AM 4.5525 40.1945 0.2599501 8.175301 18.72 13.02499
2/10/2024 2:37:25 AM 4.5375 40.1675 0.2599501 8.176001 18.86 13.02499
2/10/2024 2:52:25 AM 4.5225 40.1405 0.2596 8.175301 18.30499 13.02499
2/10/2024 3:07:25 AM 4.5025 40.1045 0.2596 8.176001 18.795 13.03751
2/10/2024 3:22:25 AM 4.4875 40.0775 0.2596 8.175301 18.75999 13.02499
2/10/2024 3:37:25 AM 4.4675 40.0415 0.2596 8.176001 18.58 13.03751
2/10/2024 3:52:25 AM 4.45 40.01 0.2596 8.175301 18.41 12.95001
2/10/2024 4:07:25 AM 4.4325 39.9785 0.2596 8.175301 18.72501 12.95001
2/10/2024 4:22:25 AM 4.4175 39.9515 0.2596499 8.171101 18.48 12.95001
2/10/2024 4:37:25 AM 4.4 39.92 0.2599501 8.170401 18.86501 12.93753
2/10/2024 4:52:25 AM 4.4025 39.9245 0.2603501 8.171101 18.45 12.95001
2/10/2024 5:07:25 AM 4.385 39.893 0.2603501 8.171101 18.72501 12.95001
2/10/2024 5:22:25 AM 4.7275 40.5095 0.2572 8.170401 18.62 12.93753
2/10/2024 5:37:25 AM 5.0525 41.0945 0.2544 8.169701 18.62 12.95001
2/10/2024 5:52:26 AM 5.1925 41.3465 0.253 8.169701 18.64999 12.93753
2/10/2024 6:07:26 AM 5.2775 41.4995 0.2522499 8.164801 18.575 12.85001
2/10/2024 6:22:26 AM 5.31 41.558 0.25155 8.164101 18.405 12.85001
2/10/2024 6:37:26 AM 5.345 41.621 0.2512 8.165501 18.30499 12.86249
2/10/2024 6:52:26 AM 5.345 41.621 0.2512 8.160601 18.34 12.86249
2/10/2024 7:07:26 AM 5.3625 41.6525 0.2508 8.160601 18.58501 12.85001
2/10/2024 7:22:26 AM 5.3625 41.6525 0.25085 8.166901 18.44501 12.85001
2/10/2024 7:37:25 AM 5.36 41.648 0.2505 8.165501 18.58 12.86249
2/10/2024 7:52:25 AM 5.38 41.684 0.25045 8.164801 18.785 12.85001
2/10/2024 8:07:25 AM 5.3775 41.6795 0.25045 8.150801 18.27 12.85001
2/10/2024 8:22:25 AM 5.43 41.774 0.2494 8.150101 20.145 12.85001
2/10/2024 8:37:25 AM 5.5 41.9 0.2491 8.150101 20.595 12.85001
2/10/2024 8:52:25 AM 5.5175 41.9315 0.2487 8.150101 20.145 12.85001
2/10/2024 9:07:25 AM 5.4975 41.8955 0.2490499 8.155001 19.935 12.85001
2/10/2024 9:22:25 AM 4.9825 40.9685 0.2536 8.165501 20.14999 12.85001
2/10/2024 9:37:25 AM 4.74 40.532 0.2557 8.165501 19.52499 12.86249
2/10/2024 9:52:25 AM 4.6525 40.3745 0.2567501 8.165501 19.62 12.85001
2/10/2024 10:07:25 AM 4.6225 40.3205 0.25715 8.164101 19.485 12.85001
2/10/2024 10:22:25 AM 4.64 40.352 0.25715 8.170401 19.345 12.85001
2/10/2024 10:37:25 AM 4.655 40.379 0.25715 8.169701 19.27499 12.93753
2/10/2024 10:52:25 AM 4.705 40.469 0.25715 8.169701 19.62 12.93753
2/10/2024 11:07:25 AM 4.755 40.559 0.2571 8.170401 19.205 12.93753
2/10/2024 11:22:25 AM 4.825 40.685 0.2567501 8.169001 19.62 12.92499
2/10/2024 11:37:25 AM 4.93 40.874 0.2561 8.170401 19.065 12.95001
2/10/2024 11:52:25 AM 5.035 41.063 0.2557 8.173901 19.095 12.93753
2/10/2024 12:07:25 PM 5.12 41.216 0.2554 8.173901 19.27499 12.93753
2/10/2024 12:22:25 PM 5.1725 41.3105 0.255 8.173901 19.27499 12.92499
2/10/2024 12:37:25 PM 5.2225 41.4005 0.255 8.174601 19.30499 12.92499
2/10/2024 12:52:25 PM 5.2925 41.5265 0.2546499 8.173901 19.16499 12.92499
2/10/2024 1:07:25 PM 5.3825 41.6885 0.2543 8.173901 18.995 12.92499
2/10/2024 1:22:25 PM 5.3975 41.7155 0.2547 8.174601 18.995 12.93753
2/10/2024 1:37:25 PM 5.3975 41.7155 0.255 8.173901 18.855 12.92499
2/10/2024 1:52:26 PM 5.45 41.81 0.2547 8.169001 18.67999 12.92499
2/10/2024 2:07:25 PM 5.45 41.81 0.255 8.169001 18.92999 12.91248
2/10/2024 2:22:25 PM 5.675 42.215 0.2529501 8.173901 18.925 12.92499
2/10/2024 2:37:25 PM 5.78 42.404 0.2522499 8.176001 18.89999 12.95001
2/10/2024 2:52:26 PM 5.8475 42.5255 0.2519 8.179501 18.69 12.93753
2/10/2024 3:07:25 PM 5.9 42.62 0.25155 8.180201 18.655 12.93753
2/10/2024 3:22:26 PM 5.935 42.683 0.2515 8.179501 18.41 12.93753
2/10/2024 3:37:26 PM 5.97 42.746 0.25115 8.179501 18.64999 12.93753
2/10/2024 3:52:26 PM 5.9875 42.7775 0.25085 8.179501 18.86 12.93753
2/10/2024 4:07:26 PM 6.02 42.836 0.25045 8.179501 19.14 12.93753
2/10/2024 4:22:26 PM 6.04 42.872 0.2501 8.184401 19.13499 12.93753
2/10/2024 4:37:25 PM 6.055 42.899 0.2497501 8.178801 19.315 12.93753
2/10/2024 4:52:25 PM 5.8825 42.5885 0.2518 8.179501 19.935 12.93753
2/10/2024 5:07:25 PM 5.64 42.152 0.2532499 8.179501 23.17 12.93753
2/10/2024 5:22:25 PM 5.52 41.936 0.2536 8.180201 27.23 12.95001
2/10/2024 5:37:25 PM 5.4325 41.7785 0.2539501 8.180201 28.69501 12.95001
2/10/2024 5:52:25 PM 5.365 41.657 0.2543 8.175301 28.8 12.93753
2/10/2024 6:07:25 PM 5.315 41.567 0.2547 8.176701 28.105 12.95001
2/10/2024 6:22:25 PM 5.2425 41.4365 0.2550499 8.169701 28.095 12.93753
2/10/2024 6:37:25 PM 5.1925 41.3465 0.2554 8.169701 28.34 12.93753
2/10/2024 6:52:25 PM 5.1575 41.2835 0.2560499 8.169701 30.03999 12.93753
2/10/2024 7:07:25 PM 5.105 41.189 0.2564 8.164801 30.005 12.93753
2/10/2024 7:22:25 PM 5.055 41.099 0.25715 8.164801 28.785 12.93753
2/10/2024 7:37:25 PM 5.0025 41.0045 0.25785 8.159901 27.61501 12.93753
2/10/2024 7:52:25 PM 4.935 40.883 0.2582 8.160601 25.875 12.93753
2/10/2024 8:07:25 PM 4.9 40.82 0.25855 8.160601 24.17 12.93753
2/10/2024 8:22:25 PM 4.8625 40.7525 0.25885 8.159901 23.55 12.93753
2/10/2024 8:37:25 PM 4.865 40.757 0.25885 8.165501 22.85001 12.93753
2/10/2024 8:52:25 PM 4.88 40.784 0.25885 8.164101 21.77 12.93753
2/10/2024 9:07:25 PM 4.8625 40.7525 0.25885 8.164101 21.46001 12.93753
2/10/2024 9:22:25 PM 4.8825 40.7885 0.25885 8.165501 21.14999 12.93753
2/10/2024 9:37:25 PM 4.8275 40.6895 0.25885 8.159901 20.56 12.93753
2/10/2024 9:52:25 PM 4.775 40.595 0.2592499 8.159901 20.595 13.02499
2/10/2024 10:07:25 PM 4.7425 40.5365 0.25955 8.159901 20.49001 13.01248
2/10/2024 10:22:25 PM 4.69 40.442 0.2599 8.164801 19.97 13.02499
2/10/2024 10:37:25 PM 4.69 40.442 0.25955 8.169001 19.97 13.01248
2/10/2024 10:52:25 PM 4.7425 40.5365 0.25885 8.169701 19.89999 13.02499
2/10/2024 11:07:25 PM 4.7575 40.5635 0.25885 8.173901 20.11 13.02499
2/10/2024 11:22:25 PM 5.105 41.189 0.2557501 8.173901 19.92999 13.01248
2/10/2024 11:37:25 PM 5.345 41.621 0.2533 8.173901 19.86501 13.01248
2/10/2024 11:52:26 PM 5.4675 41.8415 0.25255 8.179501 19.49001 13.02499
2/11/2024 12:07:25 AM 5.5175 41.9315 0.25185 8.174601 19.49001 13.02499
2/11/2024 12:22:25 AM 5.205 41.369 0.2546499 8.174601 19.315 13.03751
2/11/2024 12:37:26 AM 4.8275 40.6895 0.2581 8.174601 19.55499 13.03751
2/11/2024 12:52:26 AM 4.6875 40.4375 0.25955 8.179501 19.455 13.02499
2/11/2024 1:07:26 AM 4.6025 40.2845 0.2602499 8.179501 19.27 13.02499
2/11/2024 1:22:26 AM 4.5675 40.2215 0.2606 8.179501 19.69501 13.02499
2/11/2024 1:37:25 AM 4.535 40.163 0.2609501 8.180201 19.89999 13.02499
2/11/2024 1:52:25 AM 4.5175 40.1315 0.2613 8.174601 20.075 13.01248
2/11/2024 2:07:25 AM 4.5325 40.1585 0.2613501 8.175301 20.005 13.02499
2/11/2024 2:22:25 AM 4.6025 40.2845 0.2602499 8.174601 20.21001 13.02499
2/11/2024 2:37:25 AM 4.865 40.757 0.25785 8.179501 20.39 13.02499
2/11/2024 2:52:25 AM 5.1925 41.3465 0.2547 8.183701 21.00999 13.01248
2/11/2024 3:07:25 AM 5.3625 41.6525 0.2532499 8.183701 21.95 13.01248
2/11/2024 3:22:25 AM 5.4475 41.8055 0.2522 8.184401 21.22501 13.02499
2/11/2024 3:37:25 AM 5.5175 41.9315 0.2515 8.184401 21.28999 13.02499
2/11/2024 3:52:25 AM 5.085 41.153 0.2553 8.184401 21.39999 12.93753
2/11/2024 4:07:25 AM 4.7575 40.5635 0.2581 8.185101 21.825 12.95001
2/11/2024 4:22:25 AM 4.6175 40.3115 0.25955 8.178801 21.81 12.93753
2/11/2024 4:37:25 AM 4.5875 40.2575 0.2599 8.184401 21.67 12.93753
2/11/2024 4:52:25 AM 4.5525 40.1945 0.2603 8.184401 21.92 12.93753
2/11/2024 5:07:25 AM 4.69 40.442 0.2589 8.178801 21.64 12.93753
2/11/2024 5:22:25 AM 5.105 41.189 0.2550499 8.179501 21.705 12.93753
2/11/2024 5:37:25 AM 5.33 41.594 0.2529501 8.178801 20.89999 12.92499
2/11/2024 5:52:25 AM 5.435 41.783 0.2519 8.179501 21.39999 12.95001
2/11/2024 6:07:25 AM 5.5 41.9 0.2515 8.183701 21.25999 12.93753
2/11/2024 6:22:25 AM 5.5175 41.9315 0.2508 8.178801 21.11501 12.93753
2/11/2024 6:37:25 AM 5.035 41.063 0.255 8.184401 20.735 12.95001
2/11/2024 6:52:25 AM 4.7225 40.5005 0.2578 8.180201 20.63499 12.95001
2/11/2024 7:07:25 AM 4.6025 40.2845 0.2585 8.179501 20.455 12.92499
2/11/2024 7:22:25 AM 4.5525 40.1945 0.25885 8.178801 20.94501 12.93753
2/11/2024 7:37:25 AM 4.5175 40.1315 0.2592499 8.179501 20.7 12.93753
2/11/2024 7:52:25 AM 4.5 40.1 0.2592499 8.179501 20.32001 12.93753
2/11/2024 8:07:25 AM 4.4825 40.0685 0.2592499 8.179501 20.285 12.92499
2/11/2024 8:22:25 AM 4.4675 40.0415 0.2596 8.176001 19.41499 12.93753
2/11/2024 8:37:25 AM 4.45 40.01 0.2596 8.174601 19.21001 12.93753
2/11/2024 8:52:26 AM 4.45 40.01 0.2599501 8.175301 19.49001 12.93753
2/11/2024 9:07:26 AM 4.4325 39.9785 0.2603 8.180201 19.38 12.93753
2/11/2024 9:22:26 AM 4.4325 39.9785 0.2606499 8.180201 19.35001 12.93753
2/11/2024 9:37:26 AM 4.47 40.046 0.2603 8.180201 19.245 12.93753
2/11/2024 9:52:26 AM 4.865 40.757 0.25685 8.180201 18.795 12.93753
2/11/2024 10:07:26 AM 5.125 41.225 0.2551 8.179501 18.895 12.93753
2/11/2024 10:22:26 AM 5.225 41.405 0.2543501 8.179501 19.24001 12.93753
2/11/2024 10:37:26 AM 5.2925 41.5265 0.2536499 8.179501 19.24001 12.93753
2/11/2024 10:52:25 AM 5.3475 41.6255 0.2533 8.180201 19.31 12.95001
2/11/2024 11:07:25 AM 5.3825 41.6885 0.2532499 8.185101 19.52499 12.93753
2/11/2024 11:22:25 AM 5.3975 41.7155 0.2532499 8.184401 19.625 12.93753
2/11/2024 11:37:25 AM 5.43 41.774 0.2532499 8.184401 19.345 12.93753
2/11/2024 11:52:25 AM 5.45 41.81 0.2532499 8.183701 19.205 12.93753
2/11/2024 12:07:25 PM 5.4675 41.8415 0.2532 8.189301 19.35001 12.93753
2/11/2024 12:22:25 PM 5.4825 41.8685 0.2532499 8.190001 19.13499 12.93753
2/11/2024 12:37:25 PM 5.5 41.9 0.2529 8.189301 19.345 12.93753
2/11/2024 12:52:25 PM 5.535 41.963 0.25285 8.189301 19.59 12.93753
2/11/2024 1:07:25 PM 5.57 42.026 0.2529 8.188601 19.035 12.93753
2/11/2024 1:22:25 PM 5.5875 42.0575 0.2529 8.188601 19.55499 12.93753
2/11/2024 1:37:25 PM 5.6225 42.1205 0.25285 8.193501 19.345 12.93753
2/11/2024 1:52:25 PM 5.655 42.179 0.25255 8.194201 19.485 12.93753
2/11/2024 2:07:25 PM 5.6725 42.2105 0.25285 8.192801 18.96001 12.93753
2/11/2024 2:22:25 PM 5.69 42.242 0.2529 8.192801 19.17 12.93753
2/11/2024 2:37:25 PM 5.725 42.305 0.25285 8.193501 19.03 13.02499
2/11/2024 2:52:25 PM 5.76 42.368 0.25285 8.193501 18.965 13.01248
2/11/2024 3:07:25 PM 5.795 42.431 0.2532 8.193501 19.205 13.02499
2/11/2024 3:22:25 PM 5.8125 42.4625 0.2532499 8.1984 19 13.02499
2/11/2024 3:37:25 PM 5.83 42.494 0.2532 8.197701 19.035 13.01248
2/11/2024 3:52:25 PM 5.8825 42.5885 0.2532 8.1984 18.515 13.02499
2/11/2024 4:07:25 PM 5.64 42.152 0.2556499 8.1984 19.205 13.03751
2/11/2024 4:22:25 PM 5.295 41.531 0.25845 8.1991 18.89999 13.03751
2/11/2024 4:37:25 PM 5.1575 41.2835 0.26055 8.1991 19.21001 13.02499
2/11/2024 4:52:25 PM 5.105 41.189 0.2609501 8.197701 19.035 13.02499
2/11/2024 5:07:25 PM 5.0725 41.1305 0.2613501 8.1991 18.86 13.02499
2/11/2024 5:22:25 PM 5.02 41.036 0.2617 8.1998 19.105 13.01248
2/11/2024 5:37:25 PM 4.9525 40.9145 0.2613 8.1991 19.28 13.02499
2/11/2024 5:52:26 PM 4.9025 40.8245 0.262 8.1984 19.24001 13.02499
2/11/2024 6:07:25 PM 4.8825 40.7885 0.2624 8.1991 19.105 13.02499
2/11/2024 6:22:26 PM 4.85 40.73 0.2624 8.1998 19.245 13.02499
2/11/2024 6:37:26 PM 4.7975 40.6355 0.2627 8.2005 19.595 13.02499
2/11/2024 6:52:26 PM 5.1625 41.2925 0.2592 8.1991 19.345 13.02499
2/11/2024 7:07:26 PM 5.4375 41.7875 0.25645 8.1984 19.73 12.93753
2/11/2024 7:22:26 PM 5.5225 41.9405 0.2554 8.1998 19.45 12.93753
2/11/2024 7:37:26 PM 5.555 41.999 0.2550499 8.1984 19.515 13.02499
2/11/2024 7:52:25 PM 5.555 41.999 0.2543 8.1984 19.655 13.01248
2/11/2024 8:07:25 PM 5.5575 42.0035 0.2539501 8.1991 19.73 13.02499
2/11/2024 8:22:25 PM 5.5375 41.9675 0.2539501 8.1991 19.8 13.02499
2/11/2024 8:37:25 PM 5.5175 41.9315 0.25355 8.194201 19.55499 13.02499
2/11/2024 8:52:25 PM 5.5025 41.9045 0.2536 8.194201 19.69 13.02499
2/11/2024 9:07:25 PM 5.485 41.873 0.2536 8.194201 19.625 13.02499
2/11/2024 9:22:25 PM 5.465 41.837 0.2536 8.188601 19.59 13.02499
2/11/2024 9:37:25 PM 5.45 41.81 0.2536 8.189301 19.73 13.02499
2/11/2024 9:52:25 PM 5.4325 41.7785 0.2536 8.189301 19.55499 13.02499
2/11/2024 10:07:25 PM 5.43 41.774 0.2536 8.189301 19.45 13.02499
2/11/2024 10:22:25 PM 5.415 41.747 0.25355 8.193501 19.625 13.02499
2/11/2024 10:37:25 PM 5.3975 41.7155 0.2536 8.193501 19.625 13.02499
2/11/2024 10:52:25 PM 5.38 41.684 0.25355 8.197701 19.52499 13.02499
2/11/2024 11:07:25 PM 5.3775 41.6795 0.25355 8.197701 19.935 13.02499
2/11/2024 11:22:25 PM 5.3625 41.6525 0.2536 8.197701 19.315 13.02499
2/11/2024 11:37:25 PM 5.3575 41.6435 0.25355 8.2082 19.485 13.02499
2/11/2024 11:52:25 PM 5.345 41.621 0.2539 8.2068 19.485 13.02499
2/12/2024 12:07:25 AM 5.345 41.621 0.25355 8.2026 19.49001 13.02499
2/12/2024 12:22:25 AM 5.3625 41.6525 0.2536 8.2033 19.87 13.03751
2/12/2024 12:37:25 AM 5.3625 41.6525 0.2536 8.2019 20.00999 13.01248
2/12/2024 12:52:26 AM 5.3625 41.6525 0.2532499 8.2026 20.285 13.02499
2/12/2024 1:07:25 AM 5.36 41.648 0.2532499 8.2075 20.03999 13.02499
2/12/2024 1:22:25 AM 5.3625 41.6525 0.2532 8.2082 19.73 13.02499
2/12/2024 1:37:25 AM 5.38 41.684 0.2532499 8.2082 19.765 13.02499
2/12/2024 1:52:25 AM 5.3625 41.6525 0.25285 8.2068 19.89999 13.02499
2/12/2024 2:07:25 AM 5.36 41.648 0.25285 8.2026 19.83 13.02499
2/12/2024 2:22:25 AM 5.3625 41.6525 0.25255 8.2026 19.935 13.02499
2/12/2024 2:37:25 AM 5.36 41.648 0.25215 8.2075 19.55499 13.01248
2/12/2024 2:52:26 AM 5.36 41.648 0.25185 8.2026 19.58501 13.02499
2/12/2024 3:07:25 AM 5.345 41.621 0.2515 8.2075 20.03999 13.02499
2/12/2024 3:22:25 AM 5.325 41.585 0.25115 8.2068 19.69 13.02499
2/12/2024 3:37:26 AM 5.3275 41.5895 0.2508 8.2033 20.21001 13.02499
2/12/2024 3:52:26 AM 5.31 41.558 0.25045 8.2026 20.075 13.02499
2/12/2024 4:07:26 AM 5.3075 41.5535 0.2497501 8.2026 20.11 13.01248
2/12/2024 4:22:26 AM 5.29 41.522 0.2490499 8.1984 20.355 13.02499
2/12/2024 4:37:26 AM 5.2725 41.4905 0.2484 8.1984 20.145 13.02499
2/12/2024 4:52:26 AM 5.2575 41.4635 0.2477 8.192801 20.25 13.02499
2/12/2024 5:07:25 AM 5.2425 41.4365 0.2466499 8.192801 20.28 13.02499
2/12/2024 5:22:25 AM 5.22 41.396 0.246 8.189301 20.735 13.02499
2/12/2024 5:37:25 AM 5.205 41.369 0.2452499 8.183701 20.77 13.02499
2/12/2024 5:52:25 AM 5.19 41.342 0.2442499 8.183001 20.94 13.02499
2/12/2024 6:07:25 AM 5.17 41.306 0.24355 8.179501 20.83501 13.02499
2/12/2024 6:22:25 AM 5.17 41.306 0.24285 8.178101 20.84 13.02499
2/12/2024 6:37:25 AM 5.1525 41.2745 0.24215 8.179501 20.83501 13.10001
2/12/2024 6:52:25 AM 5.135 41.243 0.24145 8.178801 20.77 13.11249
2/12/2024 7:07:25 AM 5.1175 41.2115 0.2407501 8.173901 21.00999 13.11249
2/12/2024 7:22:25 AM 5.1 41.18 0.2400499 8.173201 20.94 13.11249
2/12/2024 7:37:25 AM 5.0825 41.1485 0.2397 8.169001 20.84 13.10001
2/12/2024 7:52:25 AM 5.065 41.117 0.2390499 8.169001 20.49001 13.11249
2/12/2024 8:07:25 AM 5.0475 41.0855 0.2387 8.159201 20.28 13.10001
2/12/2024 8:22:25 AM 5.03 41.054 0.2383501 8.159901 20.595 13.11249
2/12/2024 8:37:25 AM 5.0475 41.0855 0.238 8.164801 20.52499 13.11249
2/12/2024 8:52:25 AM 5.0325 41.0585 0.2376499 8.164101 20.145 13.11249
2/12/2024 9:07:25 AM 5.03 41.054 0.2376499 8.164801 20.565 13.11249
2/12/2024 9:22:25 AM 5.03 41.054 0.2373 8.155001 20.315 13.20001
2/12/2024 9:37:25 AM 5.015 41.027 0.2373 8.159201 20.25 13.20001
2/12/2024 9:52:25 AM 5.0125 41.0225 0.2373 8.164801 20.03999 13.20001
2/12/2024 10:07:25 AM 5.0125 41.0225 0.2369501 8.169001 19.83 13.18753
2/12/2024 10:22:25 AM 4.615 40.307 0.2397501 8.169701 5.139999 13.18753
2/12/2024 10:37:25 AM 4.22 39.596 0.2429 8.170401 17.515 13.21249
2/12/2024 10:52:26 AM 4.0475 39.2855 0.2443 8.169701 17.88499 13.18753
2/12/2024 11:07:25 AM 3.98 39.164 0.2450499 8.170401 17.39999 13.20001
2/12/2024 11:22:25 AM 3.965 39.137 0.2450499 8.169701 17.505 13.18753
2/12/2024 11:37:25 AM 3.93 39.074 0.2450499 8.171101 17.265 13.20001
2/12/2024 11:52:26 AM 3.915 39.047 0.24545 8.171101 17.82001 13.20001
2/12/2024 12:07:25 PM 3.895 39.011 0.2454 8.171101 17.64999 13.28751
2/12/2024 12:22:25 PM 3.8975 39.0155 0.24545 8.170401 17.37 13.28751
2/12/2024 12:37:26 PM 3.88 38.984 0.24545 8.171101 17.47 13.28751
2/12/2024 12:52:26 PM 3.8975 39.0155 0.24545 8.171801 17.33501 13.28751
2/12/2024 1:07:26 PM 3.8975 39.0155 0.24515 8.171801 17.37 13.28751
2/12/2024 1:22:26 PM 4.175 39.515 0.243 8.170401 17.545 13.28751
2/12/2024 1:37:26 PM 4.5525 40.1945 0.23985 8.170401 17.36501 13.28751
2/12/2024 1:52:26 PM 4.7225 40.5005 0.23845 8.169701 17.22501 13.28751
2/12/2024 2:07:25 PM 4.8275 40.6895 0.2377501 8.169001 17.36 13.27499
2/12/2024 2:22:25 PM 4.9125 40.8425 0.237 8.169001 18.05499 13.27499
2/12/2024 2:37:25 PM 4.9825 40.9685 0.2363 8.170401 17.855 13.28751
2/12/2024 2:52:25 PM 5.015 41.027 0.2359501 8.169701 18.13499 13.28751
2/12/2024 3:07:25 PM 5.05 41.09 0.2359501 8.170401 17.61 13.375
2/12/2024 3:22:25 PM 5.085 41.153 0.2359501 8.169701 17.53999 13.375
2/12/2024 3:37:25 PM 5.0825 41.1485 0.2356 8.170401 17.37 13.375
2/12/2024 3:52:25 PM 5.1025 41.1845 0.2356 8.174601 17.645 13.36249
2/12/2024 4:07:25 PM 5.1175 41.2115 0.2356 8.174601 17.715 13.375
2/12/2024 4:22:25 PM 5.135 41.243 0.2352499 8.175301 17.44 13.36249
2/12/2024 4:37:25 PM 5.135 41.243 0.2352499 8.174601 17.265 13.36249
2/12/2024 4:52:25 PM 4.705 40.469 0.2383501 8.174601 17.25999 13.375
2/12/2024 5:07:25 PM 4.36 39.848 0.24155 8.176001 17.715 13.38751
2/12/2024 5:22:25 PM 4.2025 39.5645 0.2426 8.174601 17.39999 13.36249
2/12/2024 5:37:25 PM 4.135 39.443 0.2433501 8.174601 17.64 13.375
2/12/2024 5:52:25 PM 4.0675 39.3215 0.2437 8.179501 17.25999 13.375
2/12/2024 6:07:25 PM 4.015 39.227 0.2444 8.175301 17.37 13.375
2/12/2024 6:22:25 PM 3.9675 39.1415 0.2447501 8.180901 17.58 13.375
2/12/2024 6:37:25 PM 3.915 39.047 0.2451 8.175301 17.33501 13.375
2/12/2024 6:52:25 PM 3.8625 38.9525 0.24545 8.176001 17.58 13.375
2/12/2024 7:07:25 PM 3.825 38.885 0.2458 8.171101 17.2 13.375
2/12/2024 7:22:25 PM 4.295 39.731 0.2416499 8.171101 17.545 13.375
2/12/2024 7:37:25 PM 4.5875 40.2575 0.23915 8.164801 17.33 13.375
2/12/2024 7:52:25 PM 4.7075 40.4735 0.2377501 8.169701 17.715 13.375
2/12/2024 8:07:25 PM 4.775 40.595 0.2370499 8.164801 17.505 13.36249
2/12/2024 8:22:25 PM 4.81 40.658 0.2367 8.170401 17.61 13.38751
2/12/2024 8:37:25 PM 4.81 40.658 0.2363 8.175301 17.645 13.375
2/12/2024 8:52:25 PM 4.8075 40.6535 0.2359501 8.174601 17.855 13.375
2/12/2024 9:07:25 PM 4.8075 40.6535 0.2359501 8.175301 17.645 13.375
2/12/2024 9:22:25 PM 4.8075 40.6535 0.2356 8.174601 17.96001 13.375
2/12/2024 9:37:25 PM 4.8075 40.6535 0.2356 8.174601 18.17 13.375
2/12/2024 9:52:26 PM 4.805 40.649 0.2356 8.173901 18.16499 13.375
2/12/2024 10:07:26 PM 4.8075 40.6535 0.2356 8.169701 17.64999 13.36249
2/12/2024 10:22:26 PM 4.805 40.649 0.2352499 8.169701 17.67999 13.36249
2/12/2024 10:37:26 PM 4.8075 40.6535 0.2352 8.169701 17.89 13.375
2/12/2024 10:52:26 PM 4.805 40.649 0.2352 8.169701 17.96001 13.375
2/12/2024 11:07:25 PM 4.7875 40.6175 0.2352 8.169701 18.02499 13.36249
2/12/2024 11:22:25 PM 4.79 40.622 0.2352499 8.169701 18.095 13.36249
2/12/2024 11:37:25 PM 4.77 40.586 0.2352499 8.169001 18.095 13.375
2/12/2024 11:52:25 PM 4.7525 40.5545 0.23555 8.169001 18.13 13.36249
2/13/2024 12:07:25 AM 4.7725 40.5905 0.2356 8.164101 18.375 13.36249
2/13/2024 12:22:25 AM 4.7525 40.5545 0.2356 8.164801 19.17 13.36249
2/13/2024 12:37:25 AM 4.08 39.344 0.2408 8.164801 19.42 13.36249
2/13/2024 12:52:25 AM 3.7525 38.7545 0.2439501 8.169701 19.345 13.36249
2/13/2024 1:07:25 AM 3.6 38.48 0.24545 8.171101 18.37 13.36249
2/13/2024 1:22:25 AM 3.635 38.543 0.2454 8.164801 18.61501 13.375
2/13/2024 1:37:25 AM 4.1025 39.3845 0.24155 8.164801 18.06 13.36249
2/13/2024 1:52:25 AM 4.3425 39.8165 0.23945 8.164101 18.09 13.36249
2/13/2024 2:07:25 AM 4.4425 39.9965 0.2387501 8.164101 18.19501 13.36249
2/13/2024 2:22:25 AM 4.515 40.127 0.2380499 8.165501 17.995 13.375
2/13/2024 2:37:25 AM 4.55 40.19 0.2377 8.165501 18.13 13.375
2/13/2024 2:52:25 AM 4.5825 40.2485 0.2376499 8.165501 18.69 13.375
2/13/2024 3:07:25 AM 4.5975 40.2755 0.2376499 8.165501 18.48 13.375
2/13/2024 3:22:25 AM 4.615 40.307 0.2376499 8.164801 18.27 13.27499
2/13/2024 3:37:25 AM 4.635 40.343 0.2377 8.164801 18.30499 13.28751
2/13/2024 3:52:25 AM 4.6325 40.3385 0.238 8.165501 18.235 13.28751
2/13/2024 4:07:25 AM 4.65 40.37 0.2383501 8.164101 18.10001 13.28751
2/13/2024 4:22:25 AM 4.6675 40.4015 0.2387 8.159201 18.13 13.28751
2/13/2024 4:37:25 AM 4.6675 40.4015 0.2390499 8.159901 17.61 13.28751
2/13/2024 4:52:25 AM 4.6675 40.4015 0.2394 8.159201 17.785 13.27499
2/13/2024 5:07:25 AM 4.665 40.397 0.2400499 8.159201 17.99001 13.27499
2/13/2024 5:22:25 AM 4.6675 40.4015 0.2404 8.159901 17.745 13.27499
2/13/2024 5:37:25 AM 4.15 39.47 0.2453 8.160601 17.39999 13.28751
2/13/2024 5:52:26 AM 3.77 38.786 0.2488 8.161301 17.645 13.29999
2/13/2024 6:07:25 AM 3.63 38.534 0.2509 8.164801 17.815 13.27499
2/13/2024 6:22:25 AM 3.5475 38.3855 0.2523 8.164801 17.09 13.28751
2/13/2024 6:37:25 AM 3.495 38.291 0.2534 8.166201 17.19501 13.28751
2/13/2024 6:52:26 AM 3.4625 38.2325 0.2541 8.166201 17.09 13.28751
2/13/2024 7:07:26 AM 3.62 38.516 0.2534 8.165501 16.985 13.28751
2/13/2024 7:22:26 AM 4.085 39.353 0.24955 8.165501 16.88 13.18753
2/13/2024 7:37:26 AM 4.31 39.758 0.2481 8.164801 16.705 13.18753
2/13/2024 7:52:26 AM 4.4075 39.9335 0.2474 8.164801 16.97501 13.18753
2/13/2024 8:07:26 AM 4.4275 39.9695 0.2474 8.169001 16.66499 13.18753
2/13/2024 8:22:25 AM 3.925 39.065 0.2519 8.169001 16.355 13.18753
2/13/2024 8:37:25 AM 3.7175 38.6915 0.254 8.169701 16.325 13.18753
2/13/2024 8:52:25 AM 3.65 38.57 0.2551 8.170401 16.015 13.18753
2/13/2024 9:07:25 AM 3.6675 38.6015 0.2551 8.170401 15.91 13.20001
2/13/2024 9:22:25 AM 3.5975 38.4755 0.2557501 8.170401 16.185 13.20001
2/13/2024 9:37:25 AM 3.5475 38.3855 0.25685 8.170401 15.7 13.28751
2/13/2024 9:52:25 AM 3.755 38.759 0.2551 8.175301 15.94 13.28751
2/13/2024 10:07:25 AM 3.8075 38.8535 0.2548 8.175301 16.015 13.28751
2/13/2024 10:22:25 AM 3.86 38.948 0.2547501 8.176001 15.94501 13.28751
2/13/2024 10:52:25 AM 4.0675 39.3215 0.2537501 8.180201 15.80499 13.28751
2/13/2024 11:07:25 AM 4.05 39.29 0.2540499 8.166901 15.7 13.28751
2/13/2024 11:22:25 AM 3.93 39.074 0.25515 8.166901 15.425 13.29999
2/13/2024 11:37:25 AM 3.915 39.047 0.2565 8.152901 22.125 13.29999
2/13/2024 11:52:25 AM 3.9125 39.0425 0.25615 8.152201 17.19 13.20001
2/13/2024 12:07:25 PM 3.965 39.137 0.25615 8.157101 15.315 13.28751
2/13/2024 12:22:25 PM 4.1225 39.4205 0.25545 8.162001 14.905 13.28751
2/13/2024 12:37:25 PM 4.1025 39.3845 0.2558 8.147301 14.83501 13.28751
2/13/2024 12:52:25 PM 4.225 39.605 0.2547501 8.152201 14.97501 13.28751
2/13/2024 1:07:25 PM 4.5 40.1 0.2527 8.152201 14.69501 13.28751
2/13/2024 1:22:25 PM 4.6025 40.2845 0.2516 8.150801 14.72501 13.28751
2/13/2024 1:37:25 PM 4.67 40.406 0.2512499 8.145901 14.72 13.28751
2/13/2024 1:52:25 PM 4.705 40.469 0.25085 8.151501 15.08 13.28751
2/13/2024 2:07:25 PM 4.705 40.469 0.2512 8.152201 14.905 13.28751
2/13/2024 2:22:25 PM 4.7225 40.5005 0.25085 8.155701 14.66499 13.28751
2/13/2024 2:37:25 PM 4.7375 40.5275 0.25085 8.156401 14.73 13.28751
2/13/2024 2:52:26 PM 4.755 40.559 0.25115 8.156401 14.69501 13.28751
2/13/2024 3:07:25 PM 4.775 40.595 0.2512 8.155701 14.59 13.28751
2/13/2024 3:22:25 PM 4.79 40.622 0.2512 8.160601 14.655 13.28751
2/13/2024 3:37:26 PM 4.8075 40.6535 0.25115 8.155001 14.655 13.27499
2/13/2024 3:52:26 PM 4.825 40.685 0.25085 8.160601 14.52 13.28751
2/13/2024 4:07:26 PM 4.86 40.748 0.25085 8.160601 14.7 13.28751
2/13/2024 4:22:26 PM 4.8925 40.8065 0.25085 8.165501 14.59 13.28751
2/13/2024 4:37:26 PM 4.9275 40.8695 0.25085 8.165501 14.485 13.28751
2/13/2024 4:52:26 PM 4.9475 40.9055 0.2508 8.159901 14.73 13.28751
2/13/2024 5:07:25 PM 4.945 40.901 0.2508 8.164801 14.69501 13.28751
2/13/2024 5:22:25 PM 4.9275 40.8695 0.2508 8.164801 14.73 13.27499
2/13/2024 5:37:25 PM 4.8925 40.8065 0.25115 8.165501 14.66 13.28751
2/13/2024 5:52:25 PM 4.86 40.748 0.25085 8.165501 14.38 13.28751
2/13/2024 6:07:25 PM 4.825 40.685 0.2508 8.164801 14.55499 13.28751
2/13/2024 6:22:25 PM 4.79 40.622 0.2508 8.164101 14.765 13.28751
2/13/2024 6:37:25 PM 4.79 40.622 0.25045 8.164101 15 13.28751
2/13/2024 6:52:25 PM 4.7725 40.5905 0.2501 8.164801 14.8 13.28751
2/13/2024 7:07:25 PM 4.755 40.559 0.25015 8.165501 14.66 13.28751
2/13/2024 7:22:25 PM 4.7375 40.5275 0.25015 8.164801 14.66 13.28751
2/13/2024 7:37:25 PM 4.7025 40.4645 0.2501 8.165501 14.69501 13.27499
2/13/2024 7:52:25 PM 4.685 40.433 0.25045 8.164801 14.83501 13.28751
2/13/2024 8:07:25 PM 4.685 40.433 0.2501 8.159901 14.66 13.27499
2/13/2024 8:22:25 PM 4.6675 40.4015 0.2501 8.164801 14.935 13.27499
2/13/2024 8:37:25 PM 4.65 40.37 0.25015 8.170401 14.83 13.375
2/13/2024 8:52:25 PM 4.6175 40.3115 0.2501 8.164801 14.97501 13.375
2/13/2024 9:07:25 PM 4.5825 40.2485 0.25045 8.159901 15.075 13.375
2/13/2024 9:22:25 PM 4.565 40.217 0.25045 8.164801 14.89999 13.375
2/13/2024 9:37:25 PM 4.565 40.217 0.25045 8.165501 15.145 13.375
2/13/2024 9:52:25 PM 4.545 40.181 0.25015 8.160601 15.005 13.375
2/13/2024 10:07:25 PM 4.5275 40.1495 0.2501 8.164101 15.185 13.375
2/13/2024 10:22:25 PM 4.5125 40.1225 0.2501 8.164801 15.17999 13.375
2/13/2024 10:37:25 PM 4.495 40.091 0.25015 8.159901 15.11 13.375
2/13/2024 10:52:25 PM 4.4775 40.0595 0.2501 8.164801 15.17999 13.375
2/13/2024 11:07:25 PM 4.445 40.001 0.25015 8.159201 15.175 13.375
2/13/2024 11:22:25 PM 4.41 39.938 0.2501 8.164801 15.075 13.375
2/13/2024 11:37:25 PM 4.39 39.902 0.2501 8.159901 14.935 13.375
2/13/2024 11:52:25 PM 4.39 39.902 0.2497501 8.159901 15.285 13.375
2/14/2024 12:07:25 AM 4.375 39.875 0.2498 8.155701 15.495 13.375
2/14/2024 12:22:25 AM 4.4275 39.9695 0.2490499 8.159901 16.91499 13.375
2/14/2024 12:37:25 AM 4.4275 39.9695 0.2491 8.159201 16.845 13.375
2/14/2024 12:52:26 AM 4.4075 39.9335 0.2491 8.159901 16.57001 13.375
2/14/2024 1:07:25 AM 4.355 39.839 0.2494 8.174601 16.42999 13.375
2/14/2024 1:22:26 AM 4.285 39.713 0.2501 8.169701 15.63 13.375
2/14/2024 1:37:26 AM 4.235 39.623 0.25045 8.164801 15.11 13.36249
2/14/2024 1:52:26 AM 4.215 39.587 0.2508 8.164801 15.425 13.375
2/14/2024 2:07:26 AM 4.1825 39.5285 0.25115 8.164101 15.425 13.36249
2/14/2024 2:22:26 AM 4.1825 39.5285 0.25115 8.164101 15.145 13.375
2/14/2024 2:37:25 AM 4.1675 39.5015 0.2515 8.159901 15.355 13.375
2/14/2024 2:52:25 AM 4.15 39.47 0.25185 8.159901 15.66499 13.375
2/14/2024 3:07:25 AM 4.1125 39.4025 0.2522 8.164801 15.39 13.375
2/14/2024 3:22:25 AM 4.1125 39.4025 0.2522 8.159901 15.565 13.375
2/14/2024 3:37:25 AM 4.095 39.371 0.25255 8.164801 15.39 13.375
2/14/2024 3:52:25 AM 4.0625 39.3125 0.25255 8.165501 15.215 13.46249
2/14/2024 4:07:25 AM 4.045 39.281 0.25285 8.160601 15.075 13.47501
2/14/2024 4:22:25 AM 4.0075 39.2135 0.2532499 8.166201 15.145 13.46249
2/14/2024 4:37:25 AM 3.9925 39.1865 0.2532499 8.170401 15.25 13.47501
2/14/2024 4:52:25 AM 3.9575 39.1235 0.2536 8.164801 15.285 13.46249
2/14/2024 5:07:25 AM 3.94 39.092 0.2539 8.164801 15.355 13.46249
2/14/2024 5:22:25 AM 3.9225 39.0605 0.2543 8.160601 15.215 13.46249
2/14/2024 5:37:25 AM 3.905 39.029 0.2546499 8.164101 15.11 13.46249
2/14/2024 5:52:25 AM 3.8725 38.9705 0.2546499 8.165501 15.32001 13.46249
2/14/2024 6:07:25 AM 3.855 38.939 0.255 8.165501 16.05 13.46249
2/14/2024 6:22:25 AM 3.82 38.876 0.2553 8.165501 15.355 13.46249
2/14/2024 6:37:25 AM 3.8025 38.8445 0.2553 8.164801 15.00999 13.46249
2/14/2024 6:52:25 AM 3.785 38.813 0.2553 8.164801 15.215 13.46249
2/14/2024 7:07:25 AM 3.75 38.75 0.2557 8.165501 15.005 13.46249
2/14/2024 7:22:25 AM 3.715 38.687 0.2564 8.165501 15.39 13.46249
2/14/2024 7:37:25 AM 3.6825 38.6285 0.2564 8.165501 15.145 13.46249
2/14/2024 7:52:25 AM 3.6625 38.5925 0.2567 8.165501 15.005 13.46249
2/14/2024 8:07:25 AM 3.6475 38.5655 0.2567501 8.171101 14.83 13.54999
2/14/2024 8:22:25 AM 3.63 38.534 0.2570499 8.164801 14.87 13.54999
2/14/2024 8:37:25 AM 3.6125 38.5025 0.2570499 8.164801 15.045 13.54999
2/14/2024 8:52:26 AM 3.6125 38.5025 0.2567501 8.169701 15.11 13.54999
2/14/2024 9:07:25 AM 3.6275 38.5295 0.2567 8.164801 14.73 13.54999
2/14/2024 9:22:25 AM 3.63 38.534 0.2567501 8.169701 14.97501 13.54999
2/14/2024 9:37:26 AM 3.61 38.498 0.2567501 8.175301 14.625 13.54999
2/14/2024 9:52:26 AM 3.63 38.534 0.2567501 8.2306 14.31 13.54999
2/14/2024 10:07:26 AM 3.595 38.471 0.2574 8.1984 18.31 13.54999
2/14/2024 10:22:26 AM 3.56 38.408 0.2574 8.193501 16.82001 13.63751
2/14/2024 10:37:26 AM 3.525 38.345 0.2577501 8.194901 16.05 13.63751
2/14/2024 10:52:26 AM 3.5275 38.3495 0.2581 8.1984 14.97501 13.63751
2/14/2024 11:07:26 AM 3.49 38.282 0.2585 8.1991 14.69501 13.63751
2/14/2024 11:22:26 AM 3.49 38.282 0.25815 8.193501 14.105 13.63751
2/14/2024 11:37:26 AM 3.51 38.318 0.25845 8.192801 14.28 13.625
2/14/2024 11:52:25 AM 3.525 38.345 0.25845 8.192801 14 13.71249
2/14/2024 12:07:25 PM 3.575 38.435 0.2581 8.193501 13.795 13.72501
2/14/2024 12:22:25 PM 3.6125 38.5025 0.25815 8.192801 13.895 13.71249
2/14/2024 12:37:25 PM 3.6475 38.5655 0.2581 8.197701 13.78999 13.72501
2/14/2024 12:52:25 PM 3.7325 38.7185 0.2577501 8.197701 13.685 13.72501
2/14/2024 1:07:25 PM 3.82 38.876 0.2581 8.197001 13.795 13.71249
2/14/2024 1:22:25 PM 3.905 39.029 0.2581 8.2033 13.825 13.79999
2/14/2024 1:37:25 PM 3.9775 39.1595 0.2581 8.2026 13.92999 13.79999
2/14/2024 1:52:25 PM 4.045 39.281 0.2581 8.2026 13.965 13.79999
2/14/2024 2:07:25 PM 4.115 39.407 0.2581 8.2026 13.895 13.81247
2/14/2024 2:22:25 PM 4.165 39.497 0.2581 8.2026 14.07001 13.81247
2/14/2024 2:37:25 PM 4.2 39.56 0.2580499 8.197701 13.755 13.81247
2/14/2024 2:52:25 PM 4.2175 39.5915 0.2581 8.197701 13.86 13.79999
2/14/2024 3:07:25 PM 4.2525 39.6545 0.2580499 8.197701 13.72501 13.79999
2/14/2024 3:22:25 PM 4.2525 39.6545 0.2581 8.193501 13.965 13.79999
2/14/2024 3:37:25 PM 4.255 39.659 0.2580499 8.192801 13.755 13.81247
2/14/2024 3:52:25 PM 4.2525 39.6545 0.2584 8.192801 13.92999 13.81247
2/14/2024 4:07:25 PM 4.235 39.623 0.2587501 8.193501 13.83501 13.81247
2/14/2024 4:22:25 PM 4.235 39.623 0.2587501 8.192801 13.895 13.79999
2/14/2024 4:37:25 PM 4.22 39.596 0.2587501 8.192801 13.755 13.81247
2/14/2024 4:52:26 PM 4.2 39.56 0.2587501 8.192801 13.825 13.79999
2/14/2024 5:07:25 PM 4.185 39.533 0.2591 8.192801 13.965 13.79999
2/14/2024 5:22:25 PM 4.15 39.47 0.2591 8.193501 13.89999 13.81247
2/14/2024 5:37:25 PM 4.0975 39.3755 0.25945 8.192801 13.83 13.79999
2/14/2024 5:52:25 PM 4.08 39.344 0.2595 8.193501 13.895 13.79999
2/14/2024 6:07:25 PM 4.0475 39.2855 0.25985 8.193501 13.86501 13.79999
2/14/2024 6:22:25 PM 4.025 39.245 0.2598 8.1984 13.86 13.81247
2/14/2024 6:37:25 PM 3.995 39.191 0.2598 8.197701 14.21001 13.79999
2/14/2024 6:52:26 PM 3.9775 39.1595 0.25985 8.1984 13.83501 13.79999
2/14/2024 7:07:26 PM 3.9425 39.0965 0.25985 8.2033 13.69 13.79999
2/14/2024 7:22:26 PM 3.9075 39.0335 0.2602 8.2033 13.75999 13.81247
2/14/2024 7:37:26 PM 3.8875 38.9975 0.26015 8.2068 14.105 13.79999
2/14/2024 7:52:26 PM 3.8925 39.0065 0.25985 8.2068 13.825 13.81247
2/14/2024 8:07:26 PM 3.8375 38.9075 0.2602 8.1984 14.765 13.79999
2/14/2024 8:22:26 PM 3.8225 38.8805 0.2595 8.2026 16.78 13.81247
2/14/2024 8:37:25 PM 3.4925 38.2865 0.2619501 8.2089 16.57001 13.88751
2/14/2024 8:52:25 PM 2.9375 37.2875 0.26715 8.2138 15.91 13.88751
2/14/2024 9:07:25 PM 2.715 36.887 0.2693 8.2327 15.91 13.88751
2/14/2024 9:22:25 PM 2.975 37.355 0.2669 8.246 14.765 13.88751
2/14/2024 9:37:25 PM 3.32 37.976 0.2634 8.2362 14.625 13.88751
2/14/2024 9:52:25 PM 3.425 38.165 0.2623 8.2327 13.995 13.88751
2/14/2024 10:07:25 PM 3.44 38.192 0.2623501 8.2334 14.2 13.875
2/14/2024 10:22:25 PM 3.44 38.192 0.2619501 8.2327 14.205 13.88751
2/14/2024 10:37:25 PM 3.4375 38.1875 0.2619501 8.232 14.31 13.88751
2/14/2024 10:52:25 PM 3.4375 38.1875 0.2623 8.2376 14.13499 13.875
2/14/2024 11:07:25 PM 3.4375 38.1875 0.2623 8.232 13.96001 13.875
2/14/2024 11:22:25 PM 3.4375 38.1875 0.2623 8.232 14.065 13.88751
2/14/2024 11:37:25 PM 3.44 38.192 0.2623 8.2271 13.96001 13.88751
2/14/2024 11:52:25 PM 3.42 38.156 0.2623 8.2271 14.03 13.875
2/15/2024 12:07:25 AM 3.4225 38.1605 0.2626499 8.2278 14.13 13.875
2/15/2024 12:22:25 AM 3.4025 38.1245 0.2626499 8.2278 13.995 13.88751
2/15/2024 12:37:25 AM 3.385 38.093 0.2629501 8.2264 13.58 13.875
2/15/2024 12:52:25 AM 3.3875 38.0975 0.263 8.2271 14.06 13.875
2/15/2024 1:07:25 AM 3.3675 38.0615 0.263 8.2271 13.925 13.875
2/15/2024 1:22:25 AM 3.37 38.066 0.263 8.2271 13.855 13.875
2/15/2024 1:37:25 AM 3.3525 38.0345 0.263 8.2278 13.89 13.88751
2/15/2024 1:52:25 AM 3.35 38.03 0.2633501 8.2271 13.785 13.86249
2/15/2024 2:07:25 AM 3.335 38.003 0.2633 8.2264 13.96001 13.875
2/15/2024 2:22:25 AM 3.2975 37.9355 0.2637 8.2271 14.03 13.88751
2/15/2024 2:37:25 AM 3.285 37.913 0.2636499 8.2313 13.75 13.88751
2/15/2024 2:52:25 AM 3.2675 37.8815 0.2637 8.2306 13.645 13.88751
2/15/2024 3:07:25 AM 3.23 37.814 0.2640499 8.2264 13.925 13.88751
2/15/2024 3:22:25 AM 3.195 37.751 0.2643501 8.2299 14.065 13.875
2/15/2024 3:37:25 AM 3.1775 37.7195 0.2643501 8.2271 14.065 13.875
2/15/2024 3:52:25 AM 3.1425 37.6565 0.2643501 8.2271 14.10001 13.88751
2/15/2024 4:07:26 AM 3.125 37.625 0.2647 8.2257 13.75 13.875
2/15/2024 4:22:25 AM 3.1075 37.5935 0.2650499 8.2215 13.75 13.96249
2/15/2024 4:37:26 AM 3.075 37.535 0.2647 8.2208 13.715 13.96249
2/15/2024 4:52:26 AM 3.055 37.499 0.2650499 8.2208 13.645 13.96249
2/15/2024 5:07:26 AM 3.0375 37.4675 0.2650499 8.2264 13.785 13.96249
2/15/2024 5:22:26 AM 3.0025 37.4045 0.2650499 8.2222 13.715 13.96249
2/15/2024 5:37:26 AM 3.005 37.409 0.2651 8.2215 13.75 13.97501
2/15/2024 5:52:25 AM 2.97 37.346 0.26545 8.2215 13.53999 13.96249
2/15/2024 6:07:25 AM 2.9525 37.3145 0.2650499 8.2208 13.575 13.96249
2/15/2024 6:22:25 AM 2.915 37.247 0.2654 8.225 13.715 13.97501
2/15/2024 6:37:25 AM 2.9175 37.2515 0.2654 8.2068 13.89 13.96249
2/15/2024 6:52:25 AM 2.8975 37.2155 0.2654 8.2033 13.89 13.97501
2/15/2024 7:07:25 AM 2.88 37.184 0.2654 8.197701 14.13 13.96249
2/15/2024 7:22:25 AM 2.865 37.157 0.2653501 8.192801 14.31 13.96249
2/15/2024 7:37:25 AM 2.83 37.094 0.2654 8.183001 14.03 13.97501
2/15/2024 7:52:25 AM 2.8125 37.0625 0.2654 8.183701 14.10001 13.96249
2/15/2024 8:07:25 AM 2.7925 37.0265 0.2654 8.178101 13.855 13.96249
2/15/2024 8:22:25 AM 2.795 37.031 0.26545 8.179501 13.58 13.97501
2/15/2024 8:37:25 AM 2.795 37.031 0.2654 8.178101 13.785 13.96249
2/15/2024 8:52:25 AM 2.8125 37.0625 0.2650499 8.178801 13.645 14.04999
2/15/2024 9:07:25 AM 2.8125 37.0625 0.265 8.173201 13.82001 14.04999
2/15/2024 9:22:25 AM 2.845 37.121 0.2643501 8.174601 13.96001 14.04999
2/15/2024 9:37:25 AM 2.845 37.121 0.2643501 8.175301 13.75999 14.07501
2/15/2024 9:52:25 AM 2.83 37.094 0.2647 8.180201 13.89999 14.06247
2/15/2024 10:07:25 AM 2.8325 37.0985 0.2643501 8.180201 14.005 14.07501
2/15/2024 10:22:25 AM 2.81 37.058 0.2643501 8.185101 13.58501 14.06247
2/15/2024 10:37:25 AM 2.83 37.094 0.264 8.180201 13.27499 14.16248
2/15/2024 10:52:25 AM 2.8125 37.0625 0.264 8.185101 13.16499 14.14999
2/15/2024 11:07:25 AM 2.6925 36.8465 0.2647 8.185101 13.48 14.14999
2/15/2024 11:22:25 AM 2.24 36.032 0.2692 8.184401 13.405 14.14999
2/15/2024 11:37:25 AM 2.275 36.095 0.2692499 8.184401 13.61501 14.13751
2/15/2024 11:52:25 AM 2.64 36.752 0.2658 8.190001 13.44 14.14999
2/15/2024 12:07:25 PM 2.795 37.031 0.2647501 8.189301 13.265 14.14999
2/15/2024 12:22:25 PM 2.8325 37.0985 0.2644 8.188601 13.545 14.22501
2/15/2024 12:37:25 PM 2.9 37.22 0.2640499 8.1991 13.405 14.22501
2/15/2024 12:52:26 PM 2.95 37.31 0.2636499 8.193501 13.265 14.22501
2/15/2024 1:07:25 PM 2.9875 37.3775 0.264 8.189301 13.505 14.22501
2/15/2024 1:22:26 PM 3.02 37.436 0.2640499 8.188601 13.505 14.22501
2/15/2024 1:37:26 PM 3.0375 37.4675 0.2640499 8.188601 13.715 14.22501
2/15/2024 1:52:26 PM 3.11 37.598 0.2633 8.194901 15.53 14.23752
2/15/2024 2:07:26 PM 3.1275 37.6295 0.2633 8.190001 16.05 14.23752
2/15/2024 2:22:26 PM 3.1075 37.5935 0.2636499 8.1998 15.98 14.23752
2/15/2024 2:37:26 PM 3.125 37.625 0.2636499 8.1998 14.41499 14.23752
2/15/2024 2:52:25 PM 3.145 37.661 0.2637 8.1998 13.895 14.23752
2/15/2024 3:07:25 PM 3.16 37.688 0.264 8.1991 13.685 14.23752
2/15/2024 3:22:25 PM 3.1625 37.6925 0.264 8.194901 13.86501 14.23752
2/15/2024 3:37:25 PM 3.16 37.688 0.264 8.194901 13.78999 14.23752
2/15/2024 3:52:25 PM 3.1625 37.6925 0.2640499 8.189301 14 14.23752
2/15/2024 4:07:25 PM 3.1625 37.6925 0.264 8.189301 13.69 14.23752
2/16/2024 6:22:25 AM 2.865 37.157 0.2726499 8.218 12.645 14.06247
2/16/2024 6:37:25 AM 2.795 37.031 0.2733501 8.2313 12.36501 14.07501
2/16/2024 6:52:25 AM 2.76 36.968 0.2736499 8.232 12.405 14.07501
2/16/2024 7:07:25 AM 2.745 36.941 0.2736499 8.2306 12.47 14.06247
2/16/2024 7:22:25 AM 2.725 36.905 0.2737 8.2264 12.61 14.06247
2/16/2024 7:52:25 AM 2.69 36.842 0.2740499 8.2264 12.50999 14.07501
2/16/2024 8:07:25 AM 2.69 36.842 0.2740499 8.2271 12.50999 14.06247
2/16/2024 8:22:25 AM 2.675 36.815 0.2743501 8.2271 12.44 14.06247
2/16/2024 8:37:25 AM 2.6725 36.8105 0.2743501 8.2313 12.33501 14.06247
2/16/2024 8:52:25 AM 2.675 36.815 0.2743501 8.232 12.05499 14.06247
2/16/2024 9:07:25 AM 2.6925 36.8465 0.2747 8.2306 12.12 14.06247
2/16/2024 9:22:25 AM 2.71 36.878 0.2747 8.2369 12.265 14.07501
2/16/2024 9:37:25 AM 2.71 36.878 0.2747501 8.2411 12.09 14.06247
2/16/2024 9:52:25 AM 2.725 36.905 0.2747501 8.2411 12.16 14.07501
2/16/2024 10:07:25 AM 2.7425 36.9365 0.2747 8.2446 12.02 14.06247
2/16/2024 10:22:25 AM 2.7425 36.9365 0.2747 8.2467 11.91499 14.06247
2/16/2024 10:37:25 AM 2.76 36.968 0.2747 8.246 12.3 14.14999
2/16/2024 10:52:25 AM 2.7775 36.9995 0.2747501 8.2509 12.02 14.14999
2/16/2024 11:07:25 AM 2.8125 37.0625 0.2747 8.2502 11.955 14.14999
2/16/2024 11:22:25 AM 2.8275 37.0895 0.2743501 8.2502 11.91499 14.14999
2/16/2024 11:37:25 AM 2.8625 37.1525 0.274 8.2558 11.88 14.14999
2/16/2024 11:52:25 AM 2.9 37.22 0.274 8.2551 11.88499 14.14999
2/16/2024 12:07:25 PM 2.9525 37.3145 0.2736499 8.2558 11.985 14.14999
2/16/2024 12:22:25 PM 3.0025 37.4045 0.2733 8.2551 11.92 14.14999
2/16/2024 12:37:25 PM 3.075 37.535 0.2729501 8.2558 11.815 14.14999
2/16/2024 12:52:25 PM 3.1275 37.6295 0.273 8.2558 11.91499 14.14999
2/16/2024 1:07:25 PM 3.1775 37.7195 0.2726 8.2551 11.705 14.14999
2/16/2024 1:22:25 PM 3.2125 37.7825 0.2723 8.2516 11.57001 14.16248
2/16/2024 1:37:25 PM 3.245 37.841 0.2722499 8.2502 11.88499 14.14999
2/16/2024 1:52:25 PM 3.3 37.94 0.2722499 8.2502 11.705 14.14999
2/16/2024 2:07:25 PM 3.3175 37.9715 0.2719501 8.2495 11.95 14.14999
2/16/2024 2:22:25 PM 3.35 38.03 0.2719501 8.2509 11.77499 14.16248
2/16/2024 2:37:25 PM 3.385 38.093 0.2722499 8.2509 11.81 14.14999
2/16/2024 2:52:25 PM 3.42 38.156 0.2722499 8.2502 11.605 14.14999
2/16/2024 3:07:25 PM 3.4375 38.1875 0.2722499 8.2509 11.845 14.16248
2/16/2024 3:22:25 PM 3.455 38.219 0.2722499 8.2502 11.63499 14.23752
2/16/2024 3:37:25 PM 3.4725 38.2505 0.2726 8.2495 11.74001 14.14999
2/16/2024 3:52:25 PM 3.5075 38.3135 0.2726 8.2502 11.88499 14.14999
2/16/2024 4:06:11 PM 3.5425 38.3765 0.2726 8.2509 11.74001 14.14999
2/16/2024 4:21:10 PM 3.5425 38.3765 0.273 8.2509 11.745 14.16248
2/16/2024 4:37:18 PM 3.56 38.408 0.2733501 8.2502 11.605 14.14999
2/16/2024 4:52:24 PM 3.56 38.408 0.2737 8.2502 11.42999 14.14999
2/16/2024 5:07:25 PM 3.5625 38.4125 0.2740499 8.2509 11.36501 14.14999
2/16/2024 5:22:25 PM 3.58 38.444 0.2743501 8.2502 11.395 14.14999
2/16/2024 5:37:25 PM 3.5775 38.4395 0.2747501 8.2509 11.5 14.14999
2/16/2024 5:52:25 PM 3.6125 38.5025 0.2747 8.2502 11.435 14.14999
2/16/2024 6:07:25 PM 3.5775 38.4395 0.2753501 8.2509 11.5 14.14999
2/16/2024 6:22:25 PM 3.56 38.408 0.2757501 8.2502 11.36 14.06247
2/16/2024 6:37:25 PM 3.5425 38.3765 0.2761 8.2502 11.325 14.06247
2/16/2024 6:52:25 PM 3.525 38.345 0.2764 8.2509 11.36501 14.06247
2/16/2024 7:07:25 PM 3.49 38.282 0.2768 8.2551 11.22501 14.06247
2/16/2024 7:22:25 PM 3.4575 38.2235 0.27715 8.2558 11.25999 14.07501
2/16/2024 7:37:25 PM 3.4225 38.1605 0.27745 8.26 11.12 14.07501
2/16/2024 7:52:25 PM 3.405 38.129 0.27785 8.2593 11.28999 14.06247
2/16/2024 8:07:25 PM 3.385 38.093 0.27815 8.2607 11.255 14.07501
2/16/2024 8:22:25 PM 3.3875 38.0975 0.27855 8.26 11.28999 14.07501
2/16/2024 8:37:25 PM 3.37 38.066 0.2789 8.2593 11.42999 14.06247
2/16/2024 8:52:25 PM 3.37 38.066 0.27885 8.2607 11.22501 14.07501
2/16/2024 9:07:25 PM 3.3525 38.0345 0.2792 8.2607 11.25999 14.06247
2/16/2024 9:22:25 PM 3.37 38.066 0.2792 8.2607 11.25999 14.07501
2/16/2024 9:37:25 PM 3.37 38.066 0.27955 8.26 11.185 14.07501
2/16/2024 9:52:25 PM 3.3675 38.0615 0.2799 8.2607 11.155 14.07501
2/16/2024 10:07:25 PM 3.3675 38.0615 0.2799 8.2607 11.22501 14.07501
2/16/2024 10:22:25 PM 3.3525 38.0345 0.2802 8.26 11.155 14.06247
2/16/2024 10:37:25 PM 3.3525 38.0345 0.2803 8.2593 11.28999 13.97501
2/16/2024 10:52:25 PM 3.3525 38.0345 0.2806 8.2551 11.295 13.98752
2/16/2024 11:07:25 PM 3.3525 38.0345 0.2806 8.2551 11.255 13.97501
2/16/2024 11:22:25 PM 3.3175 37.9715 0.2809501 8.2558 11.19 13.98752
2/16/2024 11:37:25 PM 3.3 37.94 0.2813 8.2551 11.14999 13.98752
2/16/2024 11:52:25 PM 3.265 37.877 0.2816 8.2558 11.08501 13.98752
2/17/2024 12:07:25 AM 3.2475 37.8455 0.2816499 8.2551 11.015 13.97501
2/17/2024 12:22:25 AM 3.2325 37.8185 0.2816499 8.26 11.11501 13.97501
2/17/2024 12:37:25 AM 3.2125 37.7825 0.2816499 8.2607 11.12 13.98752
2/17/2024 12:52:25 AM 3.1775 37.7195 0.2819501 8.2607 10.98 13.98752
2/17/2024 1:07:25 AM 3.16 37.688 0.2819501 8.26 10.98 13.97501
2/17/2024 1:22:25 AM 3.145 37.661 0.282 8.26 11.12 13.98752
2/17/2024 1:37:25 AM 3.1425 37.6565 0.2819501 8.26 11.05 13.98752
2/17/2024 1:52:25 AM 3.1275 37.6295 0.282 8.2607 11.05 13.98752
2/17/2024 2:07:25 AM 3.11 37.598 0.282 8.2607 11.015 13.98752
2/17/2024 2:22:25 AM 3.0925 37.5665 0.282 8.2607 10.845 13.97501
2/17/2024 2:37:25 AM 3.075 37.535 0.282 8.2607 10.94501 13.97501
2/17/2024 2:52:25 AM 3.075 37.535 0.282 8.2607 10.84 13.97501
2/17/2024 3:07:25 AM 3.0575 37.5035 0.282 8.26 10.67 13.98752
2/17/2024 3:22:25 AM 3.04 37.472 0.282 8.2656 10.84 13.98752
2/17/2024 3:37:25 AM 3.005 37.409 0.2816499 8.2607 10.7 13.97501
2/17/2024 3:52:25 AM 3.005 37.409 0.2816499 8.2607 10.77 13.98752
2/17/2024 4:07:25 AM 2.9875 37.3775 0.282 8.26 10.84 13.98752
2/17/2024 4:22:25 AM 2.9875 37.3775 0.282 8.2607 10.875 13.98752
2/17/2024 4:37:25 AM 2.97 37.346 0.282 8.2558 10.80499 13.98752
2/17/2024 4:52:25 AM 2.97 37.346 0.282 8.2558 10.77499 13.98752
2/17/2024 5:07:25 AM 2.9675 37.3415 0.2819501 8.2544 10.74001 13.97501
2/17/2024 5:22:25 AM 2.955 37.319 0.2819501 8.2558 10.91499 13.98752
2/17/2024 5:37:25 AM 2.935 37.283 0.282 8.2558 10.67 13.98752
2/17/2024 5:52:25 AM 2.935 37.283 0.282 8.2558 10.52499 13.98752
2/17/2024 6:07:25 AM 2.9175 37.2515 0.2819501 8.2502 10.63499 13.98752
2/17/2024 6:22:25 AM 2.9175 37.2515 0.282 8.2516 10.63499 13.98752
2/17/2024 6:37:25 AM 2.9175 37.2515 0.2819501 8.2502 10.63499 13.98752
2/17/2024 6:52:25 AM 2.9175 37.2515 0.2816499 8.2509 10.565 13.97501
2/17/2024 7:07:25 AM 2.92 37.256 0.2816499 8.2509 10.735 13.98752
2/17/2024 7:22:25 AM 2.9 37.22 0.2816499 8.2502 10.875 13.89999
2/17/2024 7:37:25 AM 2.9 37.22 0.2813 8.2509 10.7 13.89999
2/17/2024 7:52:25 AM 2.885 37.193 0.2813501 8.2509 10.66499 13.89999
2/17/2024 8:07:25 AM 2.8825 37.1885 0.2813 8.2509 10.66499 13.89999
2/17/2024 8:22:25 AM 2.9 37.22 0.2809501 8.2516 10.565 13.89999
2/17/2024 8:37:25 AM 2.9025 37.2245 0.2809501 8.2516 10.7 13.89999
2/17/2024 8:52:25 AM 2.92 37.256 0.2809501 8.2509 10.66499 13.88751
2/17/2024 9:07:25 AM 2.95 37.31 0.2806 8.2551 10.565 13.88751
2/17/2024 9:22:25 AM 2.9875 37.3775 0.2802499 8.2551 10.63499 13.89999
2/17/2024 9:37:25 AM 3.02 37.436 0.2799 8.2607 10.49001 13.89999
2/17/2024 9:52:25 AM 3.055 37.499 0.2799 8.2607 10.455 13.88751
2/17/2024 10:07:25 AM 3.075 37.535 0.27955 8.26 10.39 13.88751
2/17/2024 10:22:25 AM 3.1075 37.5935 0.27955 8.2607 10.32001 13.89999
2/17/2024 10:37:25 AM 3.1225 37.6205 0.2792 8.2551 10.53 13.88751
2/17/2024 10:52:25 AM 3.1425 37.6565 0.2792 8.2551 10.42 13.88751
2/17/2024 11:07:25 AM 3.1425 37.6565 0.27885 8.26 10.39 13.89999
2/17/2024 11:22:25 AM 3.16 37.688 0.27885 8.26 10.285 13.88751
2/17/2024 11:37:25 AM 3.16 37.688 0.2785 8.26 10.39 13.88751
2/17/2024 11:52:25 AM 3.195 37.751 0.27815 8.2607 10.14999 13.89999
2/17/2024 12:07:25 PM 3.2125 37.7825 0.27815 8.26 10.245 13.88751
2/17/2024 12:22:25 PM 3.2475 37.8455 0.27815 8.2607 10.17999 13.98752
2/17/2024 12:37:25 PM 3.2825 37.9085 0.27785 8.26 10.38499 13.97501
2/17/2024 12:52:25 PM 3.2975 37.9355 0.27785 8.26 10.25 13.97501
2/17/2024 1:07:25 PM 3.2975 37.9355 0.2778 8.26 10.28 13.97501
2/17/2024 1:22:25 PM 3.315 37.967 0.27745 8.26 10.25 13.98752
2/17/2024 1:37:25 PM 3.3525 38.0345 0.27715 8.2551 10.32001 13.98752
2/17/2024 1:52:25 PM 3.3525 38.0345 0.27715 8.26 10.39 13.98752
2/17/2024 2:07:25 PM 3.37 38.066 0.2775 8.2607 10.315 13.98752
2/17/2024 2:22:25 PM 3.3875 38.0975 0.27745 8.2649 10.495 13.97501
2/17/2024 2:37:25 PM 3.4225 38.1605 0.2775 8.2656 10.35001 13.97501
2/17/2024 2:52:25 PM 3.44 38.192 0.27785 8.26 10.215 13.98752
2/17/2024 3:07:25 PM 3.4725 38.2505 0.27785 8.2649 10.39 13.97501
2/17/2024 3:22:25 PM 3.525 38.345 0.27785 8.26 10.38499 13.97501
2/17/2024 3:37:25 PM 3.51 38.318 0.27785 8.26 10.315 13.97501
2/17/2024 3:52:25 PM 3.4925 38.2865 0.2778 8.26 10.455 13.97501
2/17/2024 4:07:25 PM 3.51 38.318 0.27815 8.26 10.60001 13.98752
2/17/2024 4:22:25 PM 3.4925 38.2865 0.27815 8.26 10.77 13.98752
2/17/2024 4:37:25 PM 3.4925 38.2865 0.27855 8.2649 10.7 13.97501
2/17/2024 4:52:25 PM 3.4925 38.2865 0.27855 8.2649 10.56 13.97501
2/17/2024 5:07:25 PM 3.49 38.282 0.27855 8.26 10.735 13.98752
2/17/2024 5:22:25 PM 3.4725 38.2505 0.27885 8.2656 10.56 13.97501
2/17/2024 5:37:25 PM 3.44 38.192 0.2792 8.26 10.63 13.98752
2/17/2024 5:52:25 PM 3.4225 38.1605 0.2792 8.2607 10.63499 13.98752
2/17/2024 6:07:25 PM 3.4025 38.1245 0.2796 8.2558 10.595 13.98752
2/17/2024 6:22:25 PM 3.39 38.102 0.27955 8.2558 10.74001 13.98752
2/17/2024 6:37:25 PM 3.3725 38.0705 0.2795 8.2544 10.91 13.97501
2/17/2024 6:52:25 PM 3.335 38.003 0.27955 8.2558 11.05 13.98752
2/17/2024 7:07:25 PM 3.3175 37.9715 0.2799 8.2509 10.94501 13.98752
2/17/2024 7:22:25 PM 3.2825 37.9085 0.2799 8.2551 10.98 13.97501
2/17/2024 7:37:25 PM 3.2475 37.8455 0.2799 8.2558 10.97501 13.97501
2/17/2024 7:52:25 PM 3.2125 37.7825 0.2799501 8.2558 10.95 13.98752
2/17/2024 8:07:25 PM 3.18 37.724 0.2802499 8.2558 10.94501 13.98752
2/17/2024 8:22:25 PM 3.125 37.625 0.2802499 8.2558 10.84 13.97501
2/17/2024 8:37:25 PM 3.11 37.598 0.2802499 8.26 10.91 13.98752
2/17/2024 8:52:25 PM 3.0725 37.5305 0.2803 8.26 11.08501 13.98752
2/17/2024 9:07:25 PM 3.0575 37.5035 0.2802499 8.2607 10.94501 13.98752
2/17/2024 9:22:25 PM 3.0225 37.4405 0.2806 8.2649 10.98 13.97501
2/17/2024 9:37:25 PM 2.9875 37.3775 0.2806 8.2649 11.015 13.98752
2/17/2024 9:52:25 PM 2.9875 37.3775 0.2802499 8.2649 10.845 13.98752
2/17/2024 10:07:25 PM 2.97 37.346 0.2802499 8.2705 11.015 13.98752
2/17/2024 10:22:25 PM 2.9375 37.2875 0.2806499 8.2649 10.94501 13.97501
2/17/2024 10:37:25 PM 2.9025 37.2245 0.2809501 8.2698 11.12 13.98752
2/17/2024 10:52:25 PM 2.885 37.193 0.2813 8.2698 11.05 13.98752
2/17/2024 11:07:25 PM 2.85 37.13 0.2816499 8.2705 10.80499 13.97501
2/17/2024 11:22:25 PM 2.8325 37.0985 0.282 8.2705 10.84 13.98752
2/17/2024 11:37:25 PM 2.815 37.067 0.2823501 8.2712 10.94501 13.98752
2/17/2024 11:52:25 PM 2.8 37.04 0.2830499 8.2705 10.875 13.98752
2/18/2024 12:07:25 AM 2.78 37.004 0.2837501 8.26 11.505 14.06247
2/18/2024 12:22:25 AM 2.7625 36.9725 0.2847501 8.2607 12.44 14.07501
2/18/2024 12:37:25 AM 2.7625 36.9725 0.2858 8.2607 12.61501 14.07501
2/18/2024 12:52:25 AM 2.745 36.941 0.28685 8.2607 12.33501 14.06247
2/18/2024 1:07:25 AM 2.71 36.878 0.2879 8.2607 12.125 14.07501
2/18/2024 1:22:25 AM 2.71 36.878 0.2886 8.26 12.265 14.07501
2/18/2024 1:37:25 AM 2.6925 36.8465 0.2896 8.2593 11.64 14.06247
2/18/2024 1:52:25 AM 2.675 36.815 0.2906499 8.2656 11.5 14.06247
2/18/2024 2:07:25 AM 2.6425 36.7565 0.2917 8.2607 11.435 14.06247
2/18/2024 2:22:25 AM 2.64 36.752 0.292 8.2607 11.395 14.07501
2/18/2024 2:37:25 AM 2.6225 36.7205 0.2927501 8.2607 11.28999 14.07501
2/18/2024 2:52:25 AM 2.605 36.689 0.2930499 8.2607 11.25999 14.07501
2/18/2024 3:07:25 AM 2.57 36.626 0.29345 8.2663 11.5 14.07501
2/18/2024 3:22:25 AM 2.57 36.626 0.2937501 8.2698 11.155 14.07501
2/18/2024 3:37:25 AM 2.5325 36.5585 0.2940499 8.2747 11.22501 14.06247
2/18/2024 3:52:25 AM 2.535 36.563 0.2941 8.2698 11.295 14.06247
2/18/2024 4:07:25 AM 2.5 36.5 0.29445 8.2754 10.595 14.06247
2/18/2024 4:22:25 AM 2.4825 36.4685 0.2944 8.2705 10.63 14.14999
2/18/2024 4:37:25 AM 2.465 36.437 0.2948 8.2698 10.39 14.06247
2/18/2024 4:52:25 AM 2.43 36.374 0.29445 8.2705 10.39 14.07501
2/18/2024 5:07:25 AM 2.3975 36.3155 0.2948 8.2698 10.60001 14.16248
2/18/2024 5:22:25 AM 2.38 36.284 0.2948 8.2705 10.22 14.16248
2/18/2024 5:37:25 AM 2.3625 36.2525 0.29445 8.2656 10.285 14.16248
2/18/2024 5:52:25 AM 2.3275 36.1895 0.29445 8.2656 10.28999 14.14999
2/18/2024 6:07:25 AM 2.31 36.158 0.2941 8.2712 10.22 14.16248
2/18/2024 6:22:25 AM 2.275 36.095 0.2937501 8.2698 10.39 14.16248
2/18/2024 6:37:25 AM 2.2425 36.0365 0.2934 8.2656 10.39 14.14999
2/18/2024 6:52:25 AM 2.205 35.969 0.2930499 8.2656 10.355 14.16248
2/18/2024 7:07:25 AM 2.1725 35.9105 0.2924 8.2656 10.39 14.16248
2/18/2024 7:22:25 AM 2.155 35.879 0.2920499 8.2663 10.185 14.16248
2/18/2024 7:37:25 AM 2.1375 35.8475 0.2913501 8.2656 10.425 14.16248
2/18/2024 7:52:25 AM 2.1025 35.7845 0.2906499 8.2649 10.25 14.14999
2/18/2024 8:07:25 AM 2.085 35.753 0.2903 8.2607 10.32001 14.16248
2/18/2024 8:22:25 AM 2.0825 35.7485 0.2899501 8.2607 10.255 14.16248
2/18/2024 8:37:25 AM 2.0875 35.7575 0.2893 8.26 10.215 14.25
2/18/2024 8:52:25 AM 2.0675 35.7215 0.2889501 8.2565 10.255 14.25
2/18/2024 9:07:25 AM 2.0675 35.7215 0.2886 8.2656 10.425 14.23752
2/18/2024 9:22:25 AM 2.07 35.726 0.2879501 8.2656 10.285 14.23752
2/18/2024 9:37:25 AM 2.0675 35.7215 0.2879 8.2705 10.395 14.23752
2/18/2024 9:52:25 AM 2.05 35.69 0.2876 8.2705 10.32001 14.23752
2/18/2024 10:07:25 AM 2.05 35.69 0.28685 8.2747 10.22 14.23752
2/18/2024 10:22:25 AM 2.05 35.69 0.28655 8.2754 10.285 14.25
2/18/2024 10:37:25 AM 2.0675 35.7215 0.2865 8.2705 10.285 14.25
2/18/2024 10:52:25 AM 2.085 35.753 0.2858 8.2747 10.185 14.25
2/18/2024 11:07:25 AM 2.1025 35.7845 0.2858 8.2747 10.28999 14.25
2/18/2024 11:22:25 AM 2.12 35.816 0.28545 8.2754 10.25 14.25
2/18/2024 11:37:25 AM 2.155 35.879 0.2851 8.2747 10.215 14.32501
2/18/2024 11:52:25 AM 2.1875 35.9375 0.2847501 8.2754 10.08 14.32501
2/18/2024 12:07:25 PM 2.2075 35.9735 0.2844 8.2754 10.32001 14.33752
2/18/2024 12:22:25 PM 2.24 36.032 0.2841 8.2747 10.215 14.33752
2/18/2024 12:37:25 PM 2.26 36.068 0.2841 8.2747 10.285 14.33752
2/18/2024 12:52:25 PM 2.275 36.095 0.2837501 8.2754 10.355 14.33752
2/18/2024 1:07:25 PM 2.2925 36.1265 0.2837 8.2747 10.075 14.32501
2/18/2024 1:22:25 PM 2.2925 36.1265 0.2837501 8.2754 10.285 14.32501
2/18/2024 1:37:25 PM 2.3125 36.1625 0.2837501 8.2747 10.145 14.33752
2/18/2024 1:52:25 PM 2.345 36.221 0.2841 8.2754 10.32001 14.32501
2/18/2024 2:07:25 PM 2.3975 36.3155 0.2837 8.2747 10.36 14.32501
2/18/2024 2:22:25 PM 2.43 36.374 0.2837501 8.274 10.105 14.32501
2/18/2024 2:37:25 PM 2.4825 36.4685 0.2837501 8.274 10.285 14.41248
2/18/2024 2:52:25 PM 2.535 36.563 0.2837501 8.2754 10.285 14.41248
2/18/2024 3:07:25 PM 2.6225 36.7205 0.2837501 8.2796 10.25 14.41248
2/18/2024 3:22:25 PM 2.675 36.815 0.2840499 8.2747 10.03999 14.41248
2/18/2024 3:37:25 PM 2.725 36.905 0.2843501 8.2747 10.075 14.41248
2/18/2024 3:52:25 PM 2.76 36.968 0.2847 8.2747 10.25 14.41248
2/18/2024 4:07:25 PM 2.795 37.031 0.2847501 8.2747 10.17999 14.41248
2/18/2024 4:22:25 PM 2.8325 37.0985 0.28545 8.2747 10.11 14.41248
2/18/2024 4:37:25 PM 2.865 37.157 0.28545 8.2747 10.32001 14.41248
2/18/2024 4:52:25 PM 2.8675 37.1615 0.2858 8.2747 10.285 14.32501
2/18/2024 5:07:25 PM 2.885 37.193 0.2858 8.2698 10.32001 14.32501
2/18/2024 5:22:25 PM 2.8825 37.1885 0.2865 8.2705 10.185 14.33752
2/18/2024 5:37:25 PM 2.8825 37.1885 0.28685 8.2649 10.325 14.32501
2/18/2024 5:52:25 PM 2.8825 37.1885 0.2868 8.2649 10.39 14.32501
2/18/2024 6:07:25 PM 2.865 37.157 0.28685 8.2663 10.32001 14.33752
2/18/2024 6:22:25 PM 2.8475 37.1255 0.2872 8.2607 10.425 14.33752
2/18/2024 6:37:25 PM 2.8475 37.1255 0.2868 8.2558 10.32001 14.32501
2/18/2024 6:52:25 PM 2.8475 37.1255 0.2872 8.2551 10.355 14.32501
2/18/2024 7:07:25 PM 2.83 37.094 0.2872 8.2551 10.355 14.32501
2/18/2024 7:22:25 PM 2.83 37.094 0.28755 8.2558 10.425 14.32501
2/18/2024 7:37:25 PM 2.8125 37.0625 0.2875 8.2551 10.53 14.32501
2/18/2024 7:52:25 PM 2.815 37.067 0.28755 8.2558 10.60001 14.32501
2/18/2024 8:07:25 PM 2.8125 37.0625 0.2875 8.2551 10.52499 14.32501
2/18/2024 8:22:25 PM 2.7975 37.0355 0.28715 8.2558 10.53 14.32501
2/18/2024 8:37:25 PM 2.78 37.004 0.2872 8.2558 10.595 14.32501
2/18/2024 8:52:25 PM 2.78 37.004 0.2872 8.2551 10.77 14.33752
2/18/2024 9:07:25 PM 2.7425 36.9365 0.2872 8.2551 10.63 14.32501
2/18/2024 9:22:25 PM 2.7275 36.9095 0.2872 8.2551 10.735 14.32501
2/18/2024 9:37:25 PM 2.725 36.905 0.2865 8.2509 10.74001 14.32501
2/18/2024 9:52:25 PM 2.71 36.878 0.2865 8.2509 10.81 14.32501
2/18/2024 10:07:25 PM 2.6925 36.8465 0.2865 8.2516 10.77 14.33752
2/18/2024 10:22:25 PM 2.6575 36.7835 0.2865 8.2558 10.875 14.33752
2/18/2024 10:37:25 PM 2.64 36.752 0.28615 8.2558 10.705 14.33752
2/18/2024 10:52:25 PM 2.6225 36.7205 0.28615 8.2551 10.735 14.33752
2/18/2024 11:07:25 PM 2.605 36.689 0.2858 8.2558 10.705 14.32501
2/18/2024 11:22:25 PM 2.6225 36.7205 0.2858 8.2558 10.80499 14.33752
2/18/2024 11:37:25 PM 2.605 36.689 0.28545 8.2558 10.875 14.32501
2/18/2024 11:52:25 PM 2.605 36.689 0.2858 8.2551 10.905 14.32501
2/19/2024 12:07:25 AM 2.5875 36.6575 0.28545 8.2558 10.91 14.32501
2/19/2024 12:22:25 AM 2.5875 36.6575 0.2858 8.2607 10.77 14.33752
2/19/2024 12:37:25 AM 2.5875 36.6575 0.28545 8.2607 10.91 14.32501
2/19/2024 12:52:25 AM 2.6025 36.6845 0.28545 8.2607 10.81 14.33752
2/19/2024 1:07:25 AM 2.605 36.689 0.28545 8.26 10.98 14.33752
2/19/2024 1:22:25 AM 2.5875 36.6575 0.2858 8.2607 10.735 14.33752
2/19/2024 1:37:25 AM 2.605 36.689 0.28585 8.2649 10.98 14.33752
2/19/2024 1:52:25 AM 2.6225 36.7205 0.2858 8.2649 10.80499 14.32501
2/19/2024 2:07:26 AM 2.62 36.716 0.2858 8.2649 10.77 14.32501
2/19/2024 2:22:25 AM 2.6375 36.7475 0.2857501 8.2593 10.80499 14.25
2/19/2024 2:37:25 AM 2.6575 36.7835 0.2858 8.26 10.845 14.23752
2/19/2024 2:52:26 AM 2.6575 36.7835 0.2858 8.2558 10.98 14.25
2/19/2024 3:07:25 AM 2.655 36.779 0.2858 8.2551 10.84 14.23752
2/19/2024 3:22:25 AM 2.6575 36.7835 0.2858 8.2509 11.015 14.23752
2/19/2024 3:37:25 AM 2.675 36.815 0.2858 8.2509 10.84 14.23752
2/19/2024 3:52:26 AM 2.6575 36.7835 0.2858 8.246 10.735 14.25
2/19/2024 4:07:25 AM 2.6575 36.7835 0.28615 8.2453 11.05 14.23752
2/19/2024 4:22:25 AM 2.64 36.752 0.2865 8.2467 11.12 14.25
2/19/2024 4:37:25 AM 2.6375 36.7475 0.2865 8.2404 10.875 14.23752
2/19/2024 4:52:26 AM 2.6225 36.7205 0.28685 8.2418 10.94501 14.25
2/19/2024 5:07:26 AM 2.6225 36.7205 0.28685 8.2418 10.74001 14.25
2/19/2024 5:22:26 AM 2.5875 36.6575 0.2872 8.2411 10.80499 14.25
2/19/2024 5:37:26 AM 2.5875 36.6575 0.2872 8.2418 10.81 14.25
2/19/2024 5:52:26 AM 2.57 36.626 0.2875 8.2411 10.84 14.25
2/19/2024 6:07:26 AM 2.57 36.626 0.28715 8.2404 10.80499 14.25
2/19/2024 6:22:26 AM 2.5525 36.5945 0.28755 8.246 10.84 14.23752
2/19/2024 6:37:26 AM 2.535 36.563 0.28755 8.2453 10.91 14.25
2/19/2024 6:52:26 AM 2.5175 36.5315 0.28755 8.246 10.91499 14.25
2/19/2024 7:07:26 AM 2.5025 36.5045 0.2872 8.246 10.98 14.23752
2/19/2024 7:22:26 AM 2.485 36.473 0.28685 8.2404 10.845 14.25
2/19/2024 7:37:26 AM 2.4675 36.4415 0.28685 8.2404 10.91 14.25
2/19/2024 7:52:26 AM 2.4325 36.3785 0.2865 8.2418 10.985 14.23752
2/19/2024 8:07:25 AM 2.4325 36.3785 0.28615 8.2411 11.12 14.25
2/19/2024 8:22:25 AM 2.43 36.374 0.28545 8.2411 10.985 14.25
2/19/2024 8:37:25 AM 2.4175 36.3515 0.2851 8.2411 10.98 14.25
2/19/2024 8:52:25 AM 2.415 36.347 0.2848 8.2411 10.98 14.23752
2/19/2024 9:07:25 AM 2.4325 36.3785 0.28445 8.2418 10.88 14.23752
2/19/2024 9:22:25 AM 2.4475 36.4055 0.2841 8.246 10.98 14.25
2/19/2024 9:37:25 AM 2.4675 36.4415 0.2837 8.2467 11.08 14.23752
2/19/2024 9:52:25 AM 2.4675 36.4415 0.2837 8.2502 10.94501 14.23752
2/19/2024 10:07:25 AM 2.4825 36.4685 0.2837501 8.2502 10.98 14.32501
2/19/2024 10:22:25 AM 2.4825 36.4685 0.2837 8.2509 10.95 14.33752
2/19/2024 10:37:25 AM 2.5025 36.5045 0.2837501 8.2502 10.875 14.32501
2/19/2024 10:52:25 AM 2.5025 36.5045 0.2837 8.2551 10.94501 14.32501
2/19/2024 11:07:25 AM 2.5375 36.5675 0.2837501 8.2551 10.81 14.32501
2/19/2024 11:22:25 AM 2.5525 36.5945 0.2837 8.2558 10.94501 14.32501
2/19/2024 11:37:25 AM 2.5875 36.6575 0.2841 8.2607 10.94501 14.32501
2/19/2024 11:52:26 AM 2.6225 36.7205 0.2844 8.2649 10.875 14.32501
2/19/2024 12:07:25 PM 2.655 36.779 0.2844 8.2705 10.67 14.33752
2/19/2024 12:22:25 PM 2.69 36.842 0.2847501 8.2698 10.735 14.32501
2/19/2024 12:37:25 PM 2.7425 36.9365 0.28545 8.2691 10.67 14.33752
2/19/2024 12:52:25 PM 2.8125 37.0625 0.2851 8.2698 10.565 14.32501
2/19/2024 1:07:25 PM 2.9 37.22 0.2855 8.2698 10.735 14.33752
2/19/2024 1:22:25 PM 3.005 37.409 0.2857501 8.2698 10.56 14.32501
2/19/2024 1:37:26 PM 3.1075 37.5935 0.2858 8.2698 10.56 14.32501
2/19/2024 1:52:26 PM 3.1775 37.7195 0.2861 8.2705 10.7 14.32501
2/19/2024 2:07:26 PM 3.2475 37.8455 0.2865 8.2698 10.49001 14.32501
2/19/2024 2:22:26 PM 3.2975 37.9355 0.2868 8.2698 10.63 14.32501
2/19/2024 2:37:26 PM 3.335 38.003 0.28715 8.2698 10.56 14.32501
2/19/2024 2:52:26 PM 3.3675 38.0615 0.2875 8.2754 10.52499 14.32501
2/19/2024 3:07:26 PM 3.4225 38.1605 0.2875 8.2747 10.46001 14.32501
2/19/2024 3:22:26 PM 3.4375 38.1875 0.28785 8.2754 10.355 14.32501
2/19/2024 3:37:26 PM 3.42 38.156 0.2882 8.274 10.425 14.32501
2/19/2024 3:52:26 PM 3.4225 38.1605 0.2885 8.2796 10.145 14.32501
2/19/2024 4:07:26 PM 3.4225 38.1605 0.2896 8.2796 10.145 14.32501
2/19/2024 4:22:26 PM 3.455 38.219 0.2896 8.2796 10.22 14.32501
2/19/2024 4:37:26 PM 3.475 38.255 0.2899501 8.2796 10.355 14.32501
2/19/2024 4:52:25 PM 3.525 38.345 0.2899501 8.2796 10.32001 14.32501
2/19/2024 5:07:25 PM 3.5425 38.3765 0.2903 8.2803 10.285 14.32501
2/19/2024 5:37:25 PM 3.5425 38.3765 0.2909501 8.2852 10.03999 14.32501
2/19/2024 5:52:25 PM 3.525 38.345 0.2916499 8.2852 10.22 14.32501
2/19/2024 6:07:25 PM 3.51 38.318 0.2923501 8.2845 10.005 14.32501
2/19/2024 6:22:25 PM 3.51 38.318 0.2927 8.2845 10.11 14.23752
2/19/2024 6:37:25 PM 3.49 38.282 0.2930499 8.2803 10.11501 14.25
2/19/2024 6:52:25 PM 3.4725 38.2505 0.2934 8.2705 10.03999 14.25
2/19/2024 7:07:25 PM 3.44 38.192 0.2937501 8.2649 10.03999 14.25
2/19/2024 7:22:25 PM 3.405 38.129 0.29445 8.2607 10.075 14.25
2/19/2024 7:37:25 PM 3.3875 38.0975 0.29445 8.2558 10.00999 14.23752
2/19/2024 7:52:25 PM 3.3525 38.0345 0.29515 8.2502 9.904999 14.23752
2/19/2024 8:07:25 PM 3.3175 37.9715 0.2958 8.2502 9.835007 14.23752
2/19/2024 8:22:25 PM 3.3025 37.9445 0.29615 8.246 9.979996 14.25
2/19/2024 8:37:25 PM 3.2825 37.9085 0.2969 8.2467 9.800003 14.23752
2/19/2024 8:52:25 PM 3.265 37.877 0.2972 8.246 9.835007 14.23752
2/19/2024 9:07:25 PM 3.23 37.814 0.29755 8.246 9.800003 14.25
2/19/2024 9:22:25 PM 3.18 37.724 0.2982499 8.2418 9.729996 14.25
2/19/2024 9:37:25 PM 3.1625 37.6925 0.2986 8.2453 9.835007 14.25
2/19/2024 9:52:25 PM 3.1275 37.6295 0.2989501 8.246 9.695007 14.25
2/19/2024 10:07:25 PM 3.0925 37.5665 0.2992499 8.2418 9.729996 14.25
2/19/2024 10:22:25 PM 3.0575 37.5035 0.2996499 8.2411 9.625 14.25
2/19/2024 10:37:26 PM 3.0225 37.4405 0.2999501 8.2418 9.630005 14.25
2/19/2024 10:52:26 PM 3.005 37.409 0.3003501 8.2418 9.524994 14.25
2/19/2024 11:07:26 PM 2.97 37.346 0.3003501 8.2411 9.695007 14.25
2/19/2024 11:22:26 PM 2.955 37.319 0.3007 8.2404 9.729996 14.23752
2/19/2024 11:37:26 PM 2.9525 37.3145 0.3007 8.246 9.559998 14.25
2/19/2024 11:52:26 PM 2.935 37.283 0.301 8.2418 9.554993 14.23752
2/20/2024 12:07:26 AM 2.9 37.22 0.3014 8.2467 9.975006 14.25
2/20/2024 12:22:26 AM 2.9025 37.2245 0.3010499 8.2467 11.05 14.25
2/20/2024 12:37:26 AM 2.9025 37.2245 0.3010499 8.2509 10.74001 14.25
2/20/2024 12:52:26 AM 2.8675 37.1615 0.3013501 8.2474 9.865005 14.25
2/20/2024 1:07:26 AM 2.8675 37.1615 0.3017501 8.2467 9.380005 14.23752
2/20/2024 1:22:26 AM 2.8325 37.0985 0.3021 8.2467 9.279999 14.25
2/20/2024 1:37:26 AM 2.8325 37.0985 0.3024 8.246 9.175003 14.16248
2/20/2024 1:52:26 AM 2.7975 37.0355 0.3028 8.2418 9.210007 14.25
2/20/2024 2:07:25 AM 2.78 37.004 0.3027501 8.2467 9.210007 14.16248
2/20/2024 2:22:25 AM 2.7625 36.9725 0.30315 8.246 9.175003 14.14999
2/20/2024 2:37:25 AM 2.7275 36.9095 0.3031 8.2467 9.175003 14.25
2/20/2024 2:52:25 AM 2.71 36.878 0.30315 8.2467 9.139999 14.25
2/20/2024 3:07:25 AM 2.69 36.842 0.30345 8.2474 9.059998 14.23752
2/20/2024 3:22:25 AM 2.675 36.815 0.30345 8.2474 9.065002 14.22501
2/20/2024 3:37:25 AM 2.64 36.752 0.30385 8.2474 9.205002 14.22501
2/20/2024 3:52:25 AM 2.6225 36.7205 0.3038 8.2467 9.164993 14.22501
2/20/2024 4:07:25 AM 2.5875 36.6575 0.3038 8.246 9.130005 14.22501
2/20/2024 4:22:25 AM 2.57 36.626 0.30385 8.2523 9.100006 14.22501
2/20/2024 4:37:25 AM 2.5525 36.5945 0.30385 8.2467 9.199997 14.22501
2/20/2024 4:52:25 AM 2.535 36.563 0.30385 8.2467 9.134995 14.22501
2/20/2024 5:07:25 AM 2.5025 36.5045 0.30385 8.246 9.205002 14.22501
2/20/2024 5:22:25 AM 2.465 36.437 0.30385 8.246 9.134995 14.23752
2/20/2024 5:37:25 AM 2.45 36.41 0.3038 8.246 9.205002 14.23752
2/20/2024 5:52:25 AM 2.4125 36.3425 0.3035 8.2502 9.065002 14.23752
2/20/2024 6:07:25 AM 2.3775 36.2795 0.3035 8.246 9.164993 14.22501
2/20/2024 6:22:25 AM 2.43 36.374 0.3028 8.2509 9.235001 14.22501
2/20/2024 6:37:25 AM 2.45 36.41 0.30215 8.2467 9.199997 14.23752
2/20/2024 6:52:25 AM 2.4475 36.4055 0.3017501 8.246 9.059998 14.22501
2/20/2024 7:07:25 AM 2.415 36.347 0.3021 8.246 9.100006 14.22501
2/20/2024 7:22:25 AM 2.31 36.158 0.3028 8.2453 9.304993 14.22501
2/20/2024 7:37:25 AM 2.2575 36.0635 0.3028 8.246 9.169998 14.22501
2/20/2024 7:52:26 AM 2.24 36.032 0.30315 8.2509 9.199997 14.32501
2/20/2024 8:07:26 AM 2.205 35.969 0.30315 8.2544 9.100006 14.31247
2/20/2024 8:22:26 AM 2.2075 35.9735 0.30285 8.26 9.065002 14.32501
2/20/2024 8:37:26 AM 2.2225 36.0005 0.30245 8.2649 9.065002 14.31247
2/20/2024 8:52:26 AM 2.2225 36.0005 0.3021 8.2649 9.100006 14.31247
2/20/2024 9:07:26 AM 2.24 36.032 0.3017501 8.2593 8.994995 14.31247
2/20/2024 9:22:26 AM 2.275 36.095 0.3014 8.26 8.960007 14.29999
2/20/2024 9:37:26 AM 2.31 36.158 0.3007 8.2544 9.065002 14.31247
2/20/2024 9:52:26 AM 2.33 36.194 0.3004 8.2558 8.960007 14.31247
2/20/2024 10:07:26 AM 2.36 36.248 0.3003501 8.2516 8.960007 14.29999
2/20/2024 10:22:26 AM 2.395 36.311 0.3 8.2523 8.889999 14.31247
2/20/2024 10:37:26 AM 2.43 36.374 0.2996499 8.2509 8.994995 14.39999
2/20/2024 10:52:26 AM 2.4675 36.4415 0.2996499 8.2509 9.024994 14.39999
2/20/2024 11:07:25 AM 2.5 36.5 0.2996499 8.2467 8.960007 14.39999
2/20/2024 11:22:25 AM 2.5525 36.5945 0.2993 8.2516 8.889999 14.39999
2/20/2024 11:37:25 AM 2.6025 36.6845 0.2993 8.2509 8.960007 14.38751
2/20/2024 11:52:25 AM 2.6575 36.7835 0.2993 8.253 8.964996 14.42499
2/20/2024 12:07:25 PM 2.7075 36.8735 0.2992499 8.253 8.759995 14.41248
2/20/2024 12:22:25 PM 2.7775 36.9995 0.2993 8.2516 8.964996 14.41248
2/20/2024 12:37:25 PM 2.85 37.13 0.2996 8.2523 9.654999 14.41248
2/20/2024 12:52:25 PM 2.915 37.247 0.2993 8.2565 8.929993 14.41248
2/20/2024 1:07:25 PM 2.985 37.373 0.2992499 8.2509 8.789993 14.41248
2/20/2024 1:22:25 PM 3.0375 37.4675 0.2996 8.2509 8.895004 14.41248
2/20/2024 1:37:25 PM 3.1075 37.5935 0.2996 8.2523 8.895004 14.41248
2/20/2024 1:52:25 PM 3.1775 37.7195 0.2992499 8.2509 8.304993 14.39999
2/20/2024 2:07:25 PM 3.23 37.814 0.2993 8.2509 8.235001 14.41248
2/20/2024 2:22:25 PM 3.3 37.94 0.2992499 8.2509 8.339996 14.39999
2/20/2024 2:37:25 PM 3.3325 37.9985 0.2992499 8.2509 8.410004 14.39999
2/20/2024 2:52:26 PM 3.3875 38.0975 0.2996 8.2509 8.475006 14.48752
2/20/2024 3:07:25 PM 3.42 38.156 0.2996 8.2509 8.304993 14.5
2/20/2024 3:22:25 PM 3.4725 38.2505 0.2992499 8.2509 8.445007 14.5
2/20/2024 3:37:25 PM 3.51 38.318 0.2993 8.246 8.410004 14.5
2/20/2024 3:52:25 PM 3.56 38.408 0.2993 8.2509 8.475006 14.5
2/20/2024 4:07:25 PM 3.595 38.471 0.2992499 8.2509 8.514999 14.5
2/20/2024 4:22:25 PM 3.6275 38.5295 0.2992499 8.246 8.339996 14.5
2/20/2024 4:37:25 PM 3.665 38.597 0.2992499 8.2467 8.514999 14.51248
2/20/2024 4:52:26 PM 3.68 38.624 0.2989501 8.2453 8.339996 14.5
2/20/2024 5:07:25 PM 3.7175 38.6915 0.29855 8.2453 8.479996 14.41248
2/20/2024 5:22:25 PM 3.7175 38.6915 0.2989 8.2411 8.410004 14.5
2/20/2024 5:37:25 PM 3.7175 38.6915 0.29855 8.2411 8.410004 14.41248
2/20/2024 5:52:26 PM 3.735 38.723 0.2986 8.2411 8.475006 14.5
2/20/2024 6:07:26 PM 3.7175 38.6915 0.2986 8.2362 8.615005 14.5
2/20/2024 6:22:26 PM 3.715 38.687 0.2982 8.2362 8.544998 14.5
2/20/2024 6:37:26 PM 3.7 38.66 0.2986 8.2362 8.550003 14.5
2/20/2024 6:52:26 PM 3.6825 38.6285 0.2982499 8.2362 8.585007 14.39999
2/20/2024 7:07:26 PM 3.665 38.597 0.2982499 8.2313 8.544998 14.39999
2/20/2024 7:22:26 PM 3.63 38.534 0.2979 8.232 8.544998 14.41248
2/20/2024 7:37:26 PM 3.595 38.471 0.2982499 8.2313 8.585007 14.41248
2/20/2024 7:52:26 PM 3.5775 38.4395 0.2979 8.2313 8.585007 14.41248
2/20/2024 8:07:25 PM 3.5425 38.3765 0.2979 8.2313 8.654999 14.41248
2/20/2024 8:22:25 PM 3.525 38.345 0.2982 8.2313 8.725006 14.41248
2/20/2024 8:37:25 PM 3.5075 38.3135 0.2979 8.2313 8.725006 14.42499
2/20/2024 8:52:25 PM 3.475 38.255 0.2982 8.2271 8.755005 14.41248
2/20/2024 9:07:25 PM 3.44 38.192 0.2986 8.2264 8.789993 14.42499
2/20/2024 9:22:25 PM 3.405 38.129 0.2986 8.2271 8.895004 14.41248
2/20/2024 9:37:25 PM 3.3875 38.0975 0.29855 8.2264 8.830002 14.39999
2/20/2024 9:52:25 PM 3.3525 38.0345 0.2989501 8.2313 9.035004 14.32501
2/20/2024 10:07:25 PM 3.3 37.94 0.2992499 8.2264 8.789993 14.32501
2/20/2024 10:22:25 PM 3.285 37.913 0.2993 8.2222 8.895004 14.32501
2/20/2024 10:37:25 PM 3.2475 37.8455 0.2993 8.2271 8.860001 14.32501
2/20/2024 10:52:25 PM 3.2125 37.7825 0.2996 8.2271 8.860001 14.32501
2/20/2024 11:07:25 PM 3.18 37.724 0.2996 8.2264 8.860001 14.32501
2/20/2024 11:22:25 PM 3.145 37.661 0.2996499 8.2215 8.824997 14.32501
2/20/2024 11:37:25 PM 3.125 37.625 0.2996 8.2222 8.860001 14.32501
2/20/2024 11:52:26 PM 3.1125 37.6025 0.3 8.2271 8.794998 14.33752
2/21/2024 12:07:25 AM 3.0725 37.5305 0.3 8.2131 8.895004 14.32501
2/21/2024 12:22:25 AM 3.0575 37.5035 0.2996 8.2166 9.800003 14.32501
2/21/2024 12:37:25 AM 3.04 37.472 0.2993 8.2264 10.32001 14.32501
2/21/2024 12:52:26 AM 3.005 37.409 0.2996499 8.2215 9.664993 14.32501
2/21/2024 1:07:25 AM 3.005 37.409 0.2996 8.2215 9.139999 14.32501
2/21/2024 1:22:25 AM 2.97 37.346 0.2996 8.2173 8.895004 14.32501
2/21/2024 1:37:25 AM 2.97 37.346 0.2996499 8.2215 8.759995 14.32501
2/21/2024 1:52:26 AM 2.9525 37.3145 0.3 8.2215 8.720001 14.32501
2/21/2024 2:07:26 AM 2.955 37.319 0.2999501 8.2173 8.720001 14.32501
2/21/2024 2:22:25 AM 2.9175 37.2515 0.2999501 8.2166 8.759995 14.32501
2/21/2024 2:37:26 AM 2.92 37.256 0.2999501 8.2173 8.654999 14.33752
2/21/2024 2:52:26 AM 2.92 37.256 0.3 8.2173 8.755005 14.32501
2/21/2024 3:07:26 AM 2.9025 37.2245 0.3 8.218 8.690002 14.33752
2/21/2024 3:22:26 AM 2.885 37.193 0.3003 8.2124 8.654999 14.32501
2/21/2024 3:37:26 AM 2.8825 37.1885 0.3003501 8.2131 8.615005 14.32501
2/21/2024 3:52:26 AM 2.8675 37.1615 0.3003501 8.2131 8.410004 14.32501
2/21/2024 4:07:26 AM 2.8475 37.1255 0.3003501 8.2131 8.585007 14.32501
2/21/2024 4:22:26 AM 2.8475 37.1255 0.3003501 8.2117 8.445007 14.32501
2/21/2024 4:37:26 AM 2.815 37.067 0.3003501 8.2131 8.514999 14.33752
2/21/2024 4:52:26 AM 2.815 37.067 0.3003501 8.2124 8.550003 14.23752
2/21/2024 5:07:26 AM 2.8 37.04 0.3003 8.2124 8.649994 14.32501
2/21/2024 5:22:25 AM 2.7625 36.9725 0.3 8.2117 8.550003 14.33752
2/21/2024 5:37:25 AM 2.745 36.941 0.3 8.2075 8.550003 14.32501
2/21/2024 5:52:25 AM 2.7425 36.9365 0.3 8.2082 8.585007 14.33752
2/21/2024 6:07:25 AM 2.7275 36.9095 0.3 8.2082 8.550003 14.32501
2/21/2024 6:22:25 AM 2.71 36.878 0.2999501 8.2075 8.375 14.32501
2/21/2024 6:37:25 AM 2.6925 36.8465 0.3 8.2075 8.514999 14.32501
2/21/2024 6:52:25 AM 2.675 36.815 0.3 8.2075 8.479996 14.32501
2/21/2024 7:07:25 AM 2.6575 36.7835 0.2999501 8.2075 8.479996 14.33752
2/21/2024 7:22:25 AM 2.66 36.788 0.2999501 8.2075 8.514999 14.33752
2/21/2024 7:37:25 AM 2.64 36.752 0.3 8.2082 8.514999 14.32501
2/21/2024 7:52:25 AM 2.6225 36.7205 0.3003501 8.2075 8.410004 14.32501
2/21/2024 8:07:25 AM 2.6225 36.7205 0.3003501 8.2026 8.550003 14.32501
2/21/2024 8:22:25 AM 2.6375 36.7475 0.2999501 8.2075 8.445007 14.33752
2/21/2024 8:37:25 AM 2.6925 36.8465 0.2996499 8.2075 8.585007 14.32501
2/21/2024 8:52:25 AM 2.7075 36.8735 0.2989501 8.2131 8.619995 14.33752
2/21/2024 9:07:25 AM 2.76 36.968 0.2982499 8.2075 8.445007 14.32501
2/21/2024 9:22:25 AM 2.7975 37.0355 0.2979 8.2075 8.479996 14.32501
2/21/2024 9:37:25 AM 2.8125 37.0625 0.29755 8.2082 8.544998 14.33752
2/21/2024 9:52:26 AM 2.865 37.157 0.29685 8.2124 8.410004 14.32501
2/21/2024 10:07:25 AM 2.8825 37.1885 0.29685 8.2075 8.475006 14.32501
2/21/2024 10:22:25 AM 2.9175 37.2515 0.2965 8.2124 8.514999 14.32501
2/21/2024 10:37:25 AM 2.955 37.319 0.2962 8.2089 8.445007 14.32501
2/21/2024 10:52:26 AM 2.9875 37.3775 0.2958 8.2082 7.925003 14.32501
2/21/2024 11:07:25 AM 3.0375 37.4675 0.2958 8.2376 15.17999 14.25
2/21/2024 11:22:25 AM 2.985 37.373 0.2962 8.2313 13.44501 14.32501
2/21/2024 11:37:26 AM 3.02 37.436 0.29615 8.2271 11.74001 14.32501
2/21/2024 11:52:26 AM 3.055 37.499 0.2958 8.2271 10.285 14.33752
2/21/2024 12:07:25 PM 3.1075 37.5935 0.2958 8.2271 9.240005 14.31247
2/21/2024 12:22:26 PM 3.1925 37.7465 0.2958 8.2271 8.824997 14.32501
2/21/2024 12:37:26 PM 3.265 37.877 0.29615 8.2222 8.684998 14.32501
2/21/2024 12:52:26 PM 3.37 38.066 0.2958 8.2229 8.544998 14.32501
2/21/2024 1:07:26 PM 3.4575 38.2235 0.29615 8.2229 8.445007 14.32501
2/21/2024 1:22:26 PM 3.525 38.345 0.29615 8.2229 8.304993 14.31247
2/21/2024 1:37:26 PM 3.5925 38.4665 0.29615 8.2229 8.440002 14.32501
2/21/2024 1:52:26 PM 3.6625 38.5925 0.2968 8.2222 8.410004 14.32501
2/21/2024 2:07:26 PM 3.73 38.714 0.2971 8.2229 8.335007 14.31247
2/21/2024 2:22:25 PM 3.82 38.876 0.2972 8.2229 8.304993 14.32501
2/21/2024 2:37:25 PM 3.87 38.966 0.29785 8.2229 8.300003 14.31247
2/21/2024 2:52:25 PM 3.9225 39.0605 0.2982 8.2222 8.304993 14.32501
2/21/2024 3:07:25 PM 3.9775 39.1595 0.29855 8.2222 8.375 14.32501
2/21/2024 3:22:25 PM 4.0275 39.2495 0.2989 8.2229 8.479996 14.31247
2/21/2024 3:37:25 PM 4.095 39.371 0.2992 8.2222 8.479996 14.31247
2/21/2024 3:52:25 PM 4.15 39.47 0.2996 8.218 8.580002 14.31247
2/21/2024 4:07:25 PM 4.2 39.56 0.3002499 8.218 8.544998 14.32501
2/21/2024 4:22:25 PM 4.2 39.56 0.3009501 8.2411 15.91 14.23752
2/21/2024 4:37:25 PM 4.1475 39.4655 0.302 7.1064 40.84 12.25
2/21/2024 4:52:25 PM 4.1675 39.5015 0.3023501 8.2516 651.9004 13.54999
2/21/2024 5:07:25 PM 4.1825 39.5285 0.3027 8.2124 9.380005 14.41248
2/21/2024 5:22:25 PM 4.1675 39.5015 0.3030499 8.2082 9.205002 14.41248
2/21/2024 5:37:25 PM 4.185 39.533 0.3034 8.193501 8.964996 14.39999
2/21/2024 5:52:25 PM 4.1825 39.5285 0.3033501 8.189301 8.929993 14.39999
2/21/2024 6:07:25 PM 4.1825 39.5285 0.3037501 8.189301 8.785004 14.39999
2/21/2024 6:22:25 PM 4.165 39.497 0.3041 8.188601 8.824997 14.41248
2/21/2024 6:37:25 PM 4.165 39.497 0.3044 8.194201 9.169998 14.41248
2/21/2024 6:52:26 PM 4.15 39.47 0.30445 8.194201 8.824997 14.32501
2/21/2024 7:07:25 PM 4.15 39.47 0.30445 8.193501 8.759995 14.32501
2/21/2024 7:22:25 PM 4.115 39.407 0.3047501 8.194201 8.860001 14.32501
2/21/2024 7:37:25 PM 4.095 39.371 0.3047501 8.1984 8.720001 14.32501
2/21/2024 7:52:25 PM 4.0975 39.3755 0.3051 8.1984 8.789993 14.32501
2/21/2024 8:07:25 PM 4.08 39.344 0.3051 8.197701 8.684998 14.32501
2/21/2024 8:22:25 PM 4.0625 39.3125 0.3055 8.194201 8.895004 14.32501
2/21/2024 8:37:25 PM 4.0625 39.3125 0.3058 8.193501 8.860001 14.32501
2/21/2024 8:52:26 PM 4.045 39.281 0.3058 8.192801 8.789993 14.23752
2/21/2024 9:07:26 PM 4.0275 39.2495 0.30615 8.1984 8.684998 14.23752
2/21/2024 9:22:26 PM 4.01 39.218 0.30615 8.1984 8.615005 14.23752
2/21/2024 9:37:26 PM 3.9925 39.1865 0.30615 8.197701 8.789993 14.23752
2/21/2024 9:52:26 PM 3.975 39.155 0.30655 8.1984 8.725006 14.23752
2/21/2024 10:07:26 PM 3.94 39.092 0.3065 8.1984 8.755005 14.23752
2/21/2024 10:22:26 PM 3.925 39.065 0.3065 8.192801 8.720001 14.23752
2/21/2024 10:37:26 PM 3.9225 39.0605 0.3065 8.192801 8.929993 14.23752
2/21/2024 10:52:26 PM 3.9075 39.0335 0.30685 8.197701 9.029999 14.23752
2/21/2024 11:07:26 PM 3.87 38.966 0.30685 8.193501 8.789993 14.23752
2/21/2024 11:22:25 PM 3.855 38.939 0.30685 8.192801 8.789993 14.23752
2/21/2024 11:37:25 PM 3.835 38.903 0.3072 8.193501 8.889999 14.14999
2/21/2024 11:52:25 PM 3.8175 38.8715 0.30755 8.193501 8.755005 14.14999
2/22/2024 12:07:25 AM 3.82 38.876 0.3072 8.192801 8.824997 14.14999
2/22/2024 12:22:25 AM 3.8175 38.8715 0.3072 8.192801 8.755005 14.14999
2/22/2024 12:37:25 AM 3.8175 38.8715 0.30755 8.197701 8.789993 14.14999
2/22/2024 12:52:25 AM 3.8025 38.8445 0.30755 8.197701 8.824997 14.14999
2/22/2024 1:07:25 AM 3.8025 38.8445 0.30755 8.194201 8.824997 14.14999
2/22/2024 1:22:25 AM 3.785 38.813 0.30785 8.1984 8.824997 14.14999
2/22/2024 1:37:25 AM 3.7825 38.8085 0.30755 8.188601 9 14.14999
2/22/2024 1:52:25 AM 3.8025 38.8445 0.30755 8.193501 8.755005 14.14999
2/22/2024 2:07:25 AM 3.785 38.813 0.3075 8.192801 8.720001 14.06247
2/22/2024 2:22:25 AM 3.785 38.813 0.30755 8.188601 8.824997 14.06247
2/22/2024 2:37:25 AM 3.785 38.813 0.30755 8.192801 8.824997 14.06247
2/22/2024 2:52:25 AM 3.785 38.813 0.3075 8.190001 8.615005 14.06247
2/22/2024 3:07:25 AM 3.7675 38.7815 0.30755 8.188601 8.755005 14.06247
2/22/2024 3:22:25 AM 3.765 38.777 0.30755 8.189301 8.755005 14.06247
2/22/2024 3:37:25 AM 3.75 38.75 0.30785 8.188601 8.964996 14.06247
2/22/2024 3:52:26 AM 3.7475 38.7455 0.30755 8.189301 9.029999 14.06247
2/22/2024 4:07:25 AM 3.7475 38.7455 0.3072 8.189301 8.755005 14.06247
2/22/2024 4:22:25 AM 3.7325 38.7185 0.3072 8.183701 8.824997 14.06247
2/22/2024 4:37:25 AM 3.7325 38.7185 0.3072 8.183701 8.895004 14.06247
2/22/2024 4:52:25 AM 3.7325 38.7185 0.30685 8.183001 8.824997 13.97501
2/22/2024 5:07:25 AM 3.7325 38.7185 0.3065 8.184401 9 13.97501
2/22/2024 5:22:25 AM 3.7475 38.7455 0.30615 8.183701 8.860001 13.97501
2/22/2024 5:37:25 AM 3.7475 38.7455 0.3058 8.184401 9.065002 13.97501
2/22/2024 5:52:26 AM 3.75 38.75 0.30585 8.183701 8.889999 13.97501
2/22/2024 6:07:25 AM 3.7475 38.7455 0.3051 8.179501 8.860001 13.97501
2/22/2024 6:22:26 AM 3.7325 38.7185 0.3047501 8.178101 9.070007 13.97501
2/22/2024 6:37:26 AM 3.7325 38.7185 0.3044 8.178101 8.929993 13.97501
2/22/2024 6:52:26 AM 3.7325 38.7185 0.3041 8.174601 9 13.97501
2/22/2024 7:07:26 AM 3.7475 38.7455 0.3037 8.174601 8.929993 13.96249
2/22/2024 7:22:26 AM 3.7525 38.7545 0.3034 8.174601 8.860001 13.97501
2/22/2024 7:37:26 AM 3.7675 38.7815 0.3026499 8.174601 9.134995 13.88751
2/22/2024 7:52:26 AM 3.765 38.777 0.3023 8.174601 9.169998 13.88751
2/22/2024 8:07:26 AM 3.785 38.813 0.302 8.173901 9.070007 13.88751
2/22/2024 8:22:25 AM 3.785 38.813 0.3016499 8.170401 9.070007 13.88751
2/22/2024 8:37:25 AM 3.8 38.84 0.3013 8.169701 9 13.88751
2/22/2024 8:52:25 AM 3.8025 38.8445 0.3009501 8.169701 9.139999 13.88751
2/22/2024 9:07:25 AM 3.2825 37.9085 0.3062 8.170401 8.964996 13.89999
2/22/2024 9:22:25 AM 3.095 37.571 0.3079501 8.170401 9.279999 13.89999
2/22/2024 9:37:25 AM 2.9725 37.3505 0.3090499 8.170401 9.100006 13.88751
2/22/2024 9:52:25 AM 2.94 37.292 0.3094 8.170401 8.929993 13.88751
2/22/2024 10:07:25 AM 2.8875 37.1975 0.3098 8.166901 9.100006 13.89999
2/22/2024 10:22:25 AM 2.87 37.166 0.3101 8.170401 9.274994 13.88751
2/22/2024 10:37:25 AM 2.87 37.166 0.3098 8.295 8.895004 13.89999
2/22/2024 10:52:25 AM 2.905 37.229 0.3091 8.2236 8.759995 13.89999
2/22/2024 11:07:25 AM 3.01 37.418 0.3080499 8.2229 8.649994 13.88751
2/22/2024 11:22:25 AM 3.3725 38.0705 0.3039 8.2096 8.860001 13.89999
2/22/2024 11:37:25 AM 3.615 38.507 0.30145 8.2089 8.714996 13.88751
2/22/2024 11:52:25 AM 3.735 38.723 0.3003501 8.2089 8.820007 13.79999
2/22/2024 12:07:25 PM 3.8025 38.8445 0.2996499 8.2138 8.75 13.875
2/22/2024 12:22:25 PM 3.8525 38.9345 0.2989501 8.197701 8.679993 13.79999
2/22/2024 12:37:25 PM 3.9075 39.0335 0.2989501 8.194201 8.755005 13.81247
2/22/2024 12:52:25 PM 3.9425 39.0965 0.2989 8.194201 8.720001 13.79999
2/22/2024 1:07:25 PM 3.96 39.128 0.29855 8.190001 8.720001 13.88751
2/22/2024 1:22:25 PM 4.0125 39.2225 0.2982 8.194901 8.759995 13.89999
2/22/2024 1:37:25 PM 4.0475 39.2855 0.29855 8.194901 8.789993 13.88751
2/22/2024 1:52:25 PM 4.0625 39.3125 0.2982 8.1991 8.725006 13.88751
2/22/2024 2:07:25 PM 4.0975 39.3755 0.2982 8.1984 8.755005 13.89999
2/22/2024 2:22:25 PM 4.115 39.407 0.2982499 8.1991 8.755005 13.88751
2/22/2024 2:37:25 PM 4.15 39.47 0.2982 8.2082 8.929993 13.88751
2/22/2024 2:52:26 PM 4.165 39.497 0.29785 8.2033 8.615005 13.88751
2/22/2024 3:07:25 PM 4.1675 39.5015 0.2982 8.2075 8.755005 13.88751
2/22/2024 3:22:26 PM 4.165 39.497 0.29785 8.2082 8.615005 13.88751
2/22/2024 3:37:25 PM 4.1825 39.5285 0.29785 8.2075 8.720001 13.88751
2/22/2024 3:52:26 PM 4.1825 39.5285 0.29785 8.2075 8.649994 13.88751
2/22/2024 4:07:26 PM 4.185 39.533 0.29785 8.2075 8.789993 13.88751
2/22/2024 4:22:26 PM 4.2025 39.5645 0.2975 8.2124 8.684998 13.88751
2/22/2024 4:37:26 PM 4.2 39.56 0.29785 8.2124 8.789993 13.88751
2/22/2024 4:52:26 PM 4.2 39.56 0.29785 8.2124 8.755005 13.88751
2/22/2024 5:07:26 PM 4.2 39.56 0.2975 8.2173 8.755005 13.88751
2/22/2024 5:22:25 PM 4.2 39.56 0.2975 8.2173 8.789993 13.88751
2/22/2024 5:37:25 PM 4.2 39.56 0.29715 8.2075 8.720001 13.89999
2/22/2024 5:52:25 PM 4.2025 39.5645 0.29715 8.2075 8.789993 13.88751
2/22/2024 6:07:25 PM 4.2 39.56 0.29715 8.2075 8.860001 13.88751
2/22/2024 6:22:25 PM 4.1825 39.5285 0.29715 8.2075 8.755005 13.88751
2/22/2024 6:37:25 PM 4.185 39.533 0.2972 8.2075 8.755005 13.88751
2/22/2024 6:52:25 PM 4.2 39.56 0.2968 8.2068 8.824997 13.79999
2/22/2024 7:07:25 PM 4.2 39.56 0.2968 8.2068 8.785004 13.79999
2/22/2024 7:22:25 PM 4.2 39.56 0.2968 8.2075 8.895004 13.81247
2/22/2024 7:37:25 PM 4.2 39.56 0.29645 8.2075 8.895004 13.79999
2/22/2024 7:52:25 PM 4.2 39.56 0.2968 8.2026 9.104996 13.79999
2/22/2024 8:07:25 PM 4.1825 39.5285 0.2968 8.2019 8.889999 13.79999
2/22/2024 8:22:25 PM 4.1825 39.5285 0.29715 8.2068 8.964996 13.79999
2/22/2024 8:37:25 PM 4.165 39.497 0.29715 8.2075 8.929993 13.79999
2/22/2024 8:52:25 PM 4.15 39.47 0.29715 8.2068 8.895004 13.79999
2/22/2024 9:07:25 PM 4.15 39.47 0.2975 8.2068 8.889999 13.81247
2/22/2024 9:22:25 PM 4.1475 39.4655 0.29785 8.2117 8.994995 13.79999
2/22/2024 9:37:25 PM 4.15 39.47 0.29785 8.2166 9.035004 13.81247
2/22/2024 9:52:25 PM 4.1475 39.4655 0.29815 8.2068 8.964996 13.81247
2/22/2024 10:07:25 PM 4.15 39.47 0.2982499 8.2068 9.104996 13.72501
2/22/2024 10:22:25 PM 4.1325 39.4385 0.2982 8.2068 9.104996 13.71249
2/22/2024 10:37:25 PM 4.1325 39.4385 0.2982 8.2019 9.100006 13.71249
2/22/2024 10:52:25 PM 4.13 39.434 0.2982 8.2075 9.134995 13.71249
2/22/2024 11:07:25 PM 4.13 39.434 0.2982 8.2026 9.345001 13.71249
2/22/2024 11:22:25 PM 4.13 39.434 0.2982 8.2026 9.240005 13.71249
2/22/2024 11:37:25 PM 4.13 39.434 0.29815 8.2012 9.175003 13.71249
2/22/2024 11:52:25 PM 4.1325 39.4385 0.2982 8.2068 9.240005 13.71249
2/23/2024 12:07:25 AM 4.15 39.47 0.2982 8.192801 10.075 13.71249
2/23/2024 12:22:25 AM 4.1825 39.5285 0.29855 8.192801 11.045 13.71249
2/23/2024 12:37:25 AM 3.94 39.092 0.3009501 8.2033 10.56 13.72501
2/23/2024 12:52:26 AM 3.4425 38.1965 0.3069 8.2054 9.975006 13.72501
2/23/2024 1:07:26 AM 3.25 37.85 0.3093501 8.2026 9.550003 13.71249
2/23/2024 1:22:26 AM 3.165 37.697 0.3111 8.2047 9.550003 13.71249
2/23/2024 1:37:26 AM 3.0975 37.5755 0.3122 8.194901 9.554993 13.63751
2/23/2024 1:52:26 AM 3.0625 37.5125 0.3132499 8.194901 9.490005 13.63751
2/23/2024 2:07:26 AM 3.03 37.454 0.3143 8.194901 9.485001 13.63751
2/23/2024 2:22:26 AM 3.0125 37.4225 0.315 8.194901 9.485001 13.625
2/23/2024 2:37:25 AM 2.995 37.391 0.3161 8.195601 9.485001 13.63751

These are provisional data and have not been subject to a quality assurance process, but rather are the raw data reported by the instrument.
H: value is above sensor operating range
L: value is below sensor operating range
Offline: station is not reporting data
NC: parameter is not collected at site

Data Availability & Limitations

Uncertainty and potential for error can be associated with environmental monitoring data. Provisional data have not been subject to a quality assurance process, but rather are the raw data reported by the instrument. Data users are cautioned to consider carefully the provisional nature of the information before using it for decisions that concern personal or public safety or the conduct of business that involves substantial monetary or operational consequences.

Approved data are currently available by request by emailing: [email protected]. Approved data have been subject to a quality assurance process to correct for equipment or fouling drift. Data recorded during equipment malfunctions have been removed.

View Historical Stations that have been discontinued.